PWSweather.com
Personal Weather Stations
Station Observations
ALLANTONFL
Allanton, Panama City, FL 32404

AllantonPanama City, FL 32404

Lat: 30.036, Lon: -85.48284060000003

Elevation: 11

Station Type: Acurite 5in1

High Low Average
Temperature 94.1°F34.5°C 79.3°F26.3°C 85.9°F29.9°C
Dew Point 78.5°F25.8°C 72.0°F22.2°C 75.3°F24.1°C
Winds 13.0 mph 20.9 kmh Calm Calm 5.0 mph W8.0 kmh W
Wind Gusts 13.0 mph20.9 kmh 1.1 mph1.8 kmh 8.0 mph12.9 kmh
Humidity 84% 51% 71%
Pressure 30.01 in1016.3 mb 29.92 in1013.2 mb -
Precipitation 0.00 in0.0 mm - -
Hour Temp Dew Point Humidity Winds Wind Gusts Pressure Precip Precip Rate Daily Precip Total
12:00 AM 82.6°F28.1°C 75.8°F24.3°C 80% 5.8 mph WNW9.3 kmh WNW 7.3 mph11.7 kmh 29.96 in1014.6 mb 0.00 in0.0 mm 0.00 in0.0 mm 0.00 in0.0 mm
12:01 AM 82.6°F28.1°C 75.4°F24.1°C 79% 7.3 mph WNW11.7 kmh WNW 7.3 mph11.7 kmh 29.96 in1014.6 mb 0.00 in0.0 mm 0.00 in0.0 mm 0.00 in0.0 mm
12:02 AM 82.6°F28.1°C 75.4°F24.1°C 79% 5.8 mph WNW9.3 kmh WNW 7.3 mph11.7 kmh 29.96 in1014.6 mb 0.00 in0.0 mm 0.00 in0.0 mm 0.00 in0.0 mm
12:03 AM 82.6°F28.1°C 75.8°F24.3°C 80% 4.7 mph WNW7.6 kmh WNW 7.3 mph11.7 kmh 29.96 in1014.6 mb 0.00 in0.0 mm 0.00 in0.0 mm 0.00 in0.0 mm
12:04 AM 82.6°F28.1°C 75.4°F24.1°C 79% 3.7 mph WNW6.0 kmh WNW 7.3 mph11.7 kmh 29.96 in1014.6 mb 0.00 in0.0 mm 0.00 in0.0 mm 0.00 in0.0 mm
12:05 AM 82.6°F28.1°C 75.4°F24.1°C 79% 3.7 mph W6.0 kmh W 7.3 mph11.7 kmh 29.96 in1014.6 mb 0.00 in0.0 mm 0.00 in0.0 mm 0.00 in0.0 mm
12:06 AM 82.6°F28.1°C 75.8°F24.3°C 80% 3.7 mph WNW6.0 kmh WNW 7.3 mph11.7 kmh 29.96 in1014.6 mb 0.00 in0.0 mm 0.00 in0.0 mm 0.00 in0.0 mm
12:07 AM 82.6°F28.1°C 75.8°F24.3°C 80% 3.2 mph W5.1 kmh W 7.3 mph11.7 kmh 29.96 in1014.6 mb 0.00 in0.0 mm 0.00 in0.0 mm 0.00 in0.0 mm
12:08 AM 82.6°F28.1°C 75.8°F24.3°C 80% 4.7 mph WNW7.6 kmh WNW 7.3 mph11.7 kmh 29.96 in1014.6 mb 0.00 in0.0 mm 0.00 in0.0 mm 0.00 in0.0 mm
12:09 AM 82.6°F28.1°C 75.8°F24.3°C 80% 6.8 mph WNW10.9 kmh WNW 7.3 mph11.7 kmh 29.96 in1014.6 mb 0.00 in0.0 mm 0.00 in0.0 mm 0.00 in0.0 mm
12:10 AM 82.4°F28.0°C 75.2°F24.0°C 79% 5.8 mph WNW9.3 kmh WNW 7.3 mph11.7 kmh 29.96 in1014.6 mb 0.00 in0.0 mm 0.00 in0.0 mm 0.00 in0.0 mm
12:11 AM 82.4°F28.0°C 75.2°F24.0°C 79% 3.2 mph WNW5.1 kmh WNW 6.8 mph10.9 kmh 29.96 in1014.6 mb 0.00 in0.0 mm 0.00 in0.0 mm 0.00 in0.0 mm
12:12 AM 82.4°F28.0°C 75.6°F24.2°C 80% 2.7 mph WNW4.3 kmh WNW 6.8 mph10.9 kmh 29.96 in1014.6 mb 0.00 in0.0 mm 0.00 in0.0 mm 0.00 in0.0 mm
12:13 AM 82.4°F28.0°C 75.2°F24.0°C 79% 3.7 mph W6.0 kmh W 6.8 mph10.9 kmh 29.96 in1014.6 mb 0.00 in0.0 mm 0.00 in0.0 mm 0.00 in0.0 mm
12:14 AM 82.4°F28.0°C 75.6°F24.2°C 80% 5.8 mph NW9.3 kmh NW 6.8 mph10.9 kmh 29.96 in1014.6 mb 0.00 in0.0 mm 0.00 in0.0 mm 0.00 in0.0 mm
12:15 AM 82.4°F28.0°C 75.6°F24.2°C 80% 4.7 mph W7.6 kmh W 6.8 mph10.9 kmh 29.96 in1014.6 mb 0.00 in0.0 mm 0.00 in0.0 mm 0.00 in0.0 mm
12:16 AM 82.4°F28.0°C 75.6°F24.2°C 80% 3.7 mph WNW6.0 kmh WNW 6.8 mph10.9 kmh 29.96 in1014.6 mb 0.00 in0.0 mm 0.00 in0.0 mm 0.00 in0.0 mm
12:17 AM 82.4°F28.0°C 75.6°F24.2°C 80% Calm Calm 6.8 mph10.9 kmh 29.96 in1014.6 mb 0.00 in0.0 mm 0.00 in0.0 mm 0.00 in0.0 mm
12:18 AM 82.4°F28.0°C 76.0°F24.4°C 81% 3.7 mph WNW6.0 kmh WNW 6.8 mph10.9 kmh 29.96 in1014.6 mb 0.00 in0.0 mm 0.00 in0.0 mm 0.00 in0.0 mm
12:19 AM 82.4°F28.0°C 76.0°F24.4°C 81% 3.7 mph W6.0 kmh W 5.8 mph9.3 kmh 29.96 in1014.6 mb 0.00 in0.0 mm 0.00 in0.0 mm 0.00 in0.0 mm
12:20 AM 82.4°F28.0°C 75.6°F24.2°C 80% 6.8 mph WNW10.9 kmh WNW 6.8 mph10.9 kmh 29.96 in1014.6 mb 0.00 in0.0 mm 0.00 in0.0 mm 0.00 in0.0 mm
12:21 AM 82.4°F28.0°C 75.2°F24.0°C 79% 4.7 mph WNW7.6 kmh WNW 7.3 mph11.7 kmh 29.96 in1014.6 mb 0.00 in0.0 mm 0.00 in0.0 mm 0.00 in0.0 mm
12:22 AM 82.4°F28.0°C 75.2°F24.0°C 79% 6.3 mph WNW10.1 kmh WNW 7.3 mph11.7 kmh 29.96 in1014.6 mb 0.00 in0.0 mm 0.00 in0.0 mm 0.00 in0.0 mm
12:23 AM 82.4°F28.0°C 75.2°F24.0°C 79% 4.7 mph WSW7.6 kmh WSW 7.3 mph11.7 kmh 29.96 in1014.6 mb 0.00 in0.0 mm 0.00 in0.0 mm 0.00 in0.0 mm
12:24 AM 82.4°F28.0°C 75.2°F24.0°C 79% 5.3 mph WNW8.5 kmh WNW 7.3 mph11.7 kmh 29.96 in1014.6 mb 0.00 in0.0 mm 0.00 in0.0 mm 0.00 in0.0 mm
12:25 AM 82.4°F28.0°C 75.2°F24.0°C 79% 5.3 mph WNW8.5 kmh WNW 7.3 mph11.7 kmh 29.96 in1014.6 mb 0.00 in0.0 mm 0.00 in0.0 mm 0.00 in0.0 mm
12:26 AM 82.4°F28.0°C 75.6°F24.2°C 80% 5.3 mph W8.5 kmh W 7.3 mph11.7 kmh 29.96 in1014.6 mb 0.00 in0.0 mm 0.00 in0.0 mm 0.00 in0.0 mm
12:27 AM 82.2°F27.9°C 75.0°F23.9°C 79% 5.8 mph WNW9.3 kmh WNW 7.3 mph11.7 kmh 29.96 in1014.6 mb 0.00 in0.0 mm 0.00 in0.0 mm 0.00 in0.0 mm
12:28 AM 82.2°F27.9°C 75.0°F23.9°C 79% 4.7 mph NW7.6 kmh NW 7.3 mph11.7 kmh 29.96 in1014.6 mb 0.00 in0.0 mm 0.00 in0.0 mm 0.00 in0.0 mm
12:29 AM 82.2°F27.9°C 75.0°F23.9°C 79% 2.2 mph NW3.5 kmh NW 7.3 mph11.7 kmh 29.96 in1014.6 mb 0.00 in0.0 mm 0.00 in0.0 mm 0.00 in0.0 mm
12:30 AM 82.2°F27.9°C 75.0°F23.9°C 79% 6.3 mph WNW10.1 kmh WNW 7.3 mph11.7 kmh 29.96 in1014.6 mb 0.00 in0.0 mm 0.00 in0.0 mm 0.00 in0.0 mm
12:31 AM 82.2°F27.9°C 75.0°F23.9°C 79% 2.7 mph WNW4.3 kmh WNW 6.3 mph10.1 kmh 29.96 in1014.6 mb 0.00 in0.0 mm 0.00 in0.0 mm 0.00 in0.0 mm
12:32 AM 82.2°F27.9°C 75.0°F23.9°C 79% 1.1 mph W1.8 kmh W 6.3 mph10.1 kmh 29.96 in1014.6 mb 0.00 in0.0 mm 0.00 in0.0 mm 0.00 in0.0 mm
12:33 AM 82.2°F27.9°C 75.0°F23.9°C 79% 3.2 mph W5.1 kmh W 6.3 mph10.1 kmh 29.96 in1014.6 mb 0.00 in0.0 mm 0.00 in0.0 mm 0.00 in0.0 mm
12:34 AM 82.2°F27.9°C 75.0°F23.9°C 79% Calm Calm 6.3 mph10.1 kmh 29.96 in1014.6 mb 0.00 in0.0 mm 0.00 in0.0 mm 0.00 in0.0 mm
12:35 AM 82.2°F27.9°C 75.4°F24.1°C 80% Calm Calm 6.3 mph10.1 kmh 29.96 in1014.6 mb 0.00 in0.0 mm 0.00 in0.0 mm 0.00 in0.0 mm
12:36 AM 82.0°F27.8°C 75.2°F24.0°C 80% Calm Calm 6.3 mph10.1 kmh 29.96 in1014.6 mb 0.00 in0.0 mm 0.00 in0.0 mm 0.00 in0.0 mm
12:37 AM 82.0°F27.8°C 75.2°F24.0°C 80% 2.7 mph W4.3 kmh W 6.3 mph10.1 kmh 29.96 in1014.6 mb 0.00 in0.0 mm 0.00 in0.0 mm 0.00 in0.0 mm
12:38 AM 82.0°F27.8°C 75.2°F24.0°C 80% 2.2 mph W3.5 kmh W 6.3 mph10.1 kmh 29.96 in1014.6 mb 0.00 in0.0 mm 0.00 in0.0 mm 0.00 in0.0 mm
12:39 AM 82.0°F27.8°C 75.2°F24.0°C 80% 4.7 mph WNW7.6 kmh WNW 6.3 mph10.1 kmh 29.96 in1014.6 mb 0.00 in0.0 mm 0.00 in0.0 mm 0.00 in0.0 mm
12:40 AM 82.0°F27.8°C 75.2°F24.0°C 80% 3.2 mph WNW5.1 kmh WNW 6.3 mph10.1 kmh 29.96 in1014.6 mb 0.00 in0.0 mm 0.00 in0.0 mm 0.00 in0.0 mm
12:41 AM 82.0°F27.8°C 75.2°F24.0°C 80% 1.7 mph W2.7 kmh W 4.7 mph7.6 kmh 29.96 in1014.6 mb 0.00 in0.0 mm 0.00 in0.0 mm 0.00 in0.0 mm
12:42 AM 82.0°F27.8°C 75.6°F24.2°C 81% 3.2 mph WNW5.1 kmh WNW 4.7 mph7.6 kmh 29.96 in1014.6 mb 0.00 in0.0 mm 0.00 in0.0 mm 0.00 in0.0 mm
12:43 AM 82.0°F27.8°C 75.6°F24.2°C 81% 4.7 mph WNW7.6 kmh WNW 4.7 mph7.6 kmh 29.96 in1014.6 mb 0.00 in0.0 mm 0.00 in0.0 mm 0.00 in0.0 mm
12:44 AM 82.0°F27.8°C 74.9°F23.8°C 79% 6.3 mph WNW10.1 kmh WNW 6.3 mph10.1 kmh 29.96 in1014.6 mb 0.00 in0.0 mm 0.00 in0.0 mm 0.00 in0.0 mm
12:45 AM 82.2°F27.9°C 75.4°F24.1°C 80% 4.7 mph WNW7.6 kmh WNW 6.3 mph10.1 kmh 29.96 in1014.6 mb 0.00 in0.0 mm 0.00 in0.0 mm 0.00 in0.0 mm
12:46 AM 82.2°F27.9°C 75.4°F24.1°C 80% 5.8 mph WNW9.3 kmh WNW 6.3 mph10.1 kmh 29.96 in1014.6 mb 0.00 in0.0 mm 0.00 in0.0 mm 0.00 in0.0 mm
12:47 AM 82.2°F27.9°C 75.4°F24.1°C 80% 4.2 mph W6.8 kmh W 6.3 mph10.1 kmh 29.96 in1014.6 mb 0.00 in0.0 mm 0.00 in0.0 mm 0.00 in0.0 mm
12:48 AM 82.2°F27.9°C 75.8°F24.3°C 81% Calm Calm 6.3 mph10.1 kmh 29.96 in1014.6 mb 0.00 in0.0 mm 0.00 in0.0 mm 0.00 in0.0 mm
12:49 AM 82.2°F27.9°C 75.8°F24.3°C 81% 4.2 mph W6.8 kmh W 6.3 mph10.1 kmh 29.96 in1014.6 mb 0.00 in0.0 mm 0.00 in0.0 mm 0.00 in0.0 mm
12:50 AM 82.2°F27.9°C 75.8°F24.3°C 81% 1.1 mph WNW1.8 kmh WNW 6.3 mph10.1 kmh 29.96 in1014.6 mb 0.00 in0.0 mm 0.00 in0.0 mm 0.00 in0.0 mm
12:51 AM 82.2°F27.9°C 75.8°F24.3°C 81% 1.7 mph WNW2.7 kmh WNW 6.3 mph10.1 kmh 29.96 in1014.6 mb 0.00 in0.0 mm 0.00 in0.0 mm 0.00 in0.0 mm
12:52 AM 82.2°F27.9°C 75.8°F24.3°C 81% 3.7 mph WNW6.0 kmh WNW 6.3 mph10.1 kmh 29.96 in1014.6 mb 0.00 in0.0 mm 0.00 in0.0 mm 0.00 in0.0 mm
12:53 AM 82.2°F27.9°C 75.8°F24.3°C 81% Calm Calm 6.3 mph10.1 kmh 29.96 in1014.6 mb 0.00 in0.0 mm 0.00 in0.0 mm 0.00 in0.0 mm
12:54 AM 82.2°F27.9°C 75.8°F24.3°C 81% Calm Calm 6.3 mph10.1 kmh 29.96 in1014.6 mb 0.00 in0.0 mm 0.00 in0.0 mm 0.00 in0.0 mm
12:55 AM 82.2°F27.9°C 76.2°F24.6°C 82% Calm Calm 6.3 mph10.1 kmh 29.96 in1014.6 mb 0.00 in0.0 mm 0.00 in0.0 mm 0.00 in0.0 mm
12:56 AM 82.2°F27.9°C 76.2°F24.6°C 82% 2.2 mph WNW3.5 kmh WNW 5.3 mph8.5 kmh 29.96 in1014.6 mb 0.00 in0.0 mm 0.00 in0.0 mm 0.00 in0.0 mm
12:57 AM 82.2°F27.9°C 76.2°F24.6°C 82% Calm Calm 5.3 mph8.5 kmh 29.96 in1014.6 mb 0.00 in0.0 mm 0.00 in0.0 mm 0.00 in0.0 mm
12:58 AM 82.2°F27.9°C 76.2°F24.6°C 82% 3.7 mph WNW6.0 kmh WNW 4.2 mph6.8 kmh 29.96 in1014.6 mb 0.00 in0.0 mm 0.00 in0.0 mm 0.00 in0.0 mm
12:59 AM 82.2°F27.9°C 76.5°F24.7°C 83% 5.3 mph NW8.5 kmh NW 5.3 mph8.5 kmh 29.96 in1014.6 mb 0.00 in0.0 mm 0.00 in0.0 mm 0.00 in0.0 mm
01:00 AM 82.2°F27.9°C 76.2°F24.6°C 82% 5.8 mph NW9.3 kmh NW 7.3 mph11.7 kmh 29.96 in1014.6 mb 0.00 in0.0 mm 0.00 in0.0 mm 0.00 in0.0 mm
01:01 AM 82.2°F27.9°C 76.2°F24.6°C 82% 4.7 mph WNW7.6 kmh WNW 7.3 mph11.7 kmh 29.96 in1014.6 mb 0.00 in0.0 mm 0.00 in0.0 mm 0.00 in0.0 mm
01:02 AM 82.2°F27.9°C 76.2°F24.6°C 82% 1.1 mph NW1.8 kmh NW 7.3 mph11.7 kmh 29.96 in1014.6 mb 0.00 in0.0 mm 0.00 in0.0 mm 0.00 in0.0 mm
01:03 AM 82.2°F27.9°C 76.2°F24.6°C 82% 4.2 mph NW6.8 kmh NW 7.3 mph11.7 kmh 29.96 in1014.6 mb 0.00 in0.0 mm 0.00 in0.0 mm 0.00 in0.0 mm
01:04 AM 82.2°F27.9°C 76.2°F24.6°C 82% 3.7 mph NW6.0 kmh NW 7.3 mph11.7 kmh 29.96 in1014.6 mb 0.00 in0.0 mm 0.00 in0.0 mm 0.00 in0.0 mm
01:05 AM 82.2°F27.9°C 76.2°F24.6°C 82% 6.8 mph WNW10.9 kmh WNW 7.3 mph11.7 kmh 29.96 in1014.6 mb 0.00 in0.0 mm 0.00 in0.0 mm 0.00 in0.0 mm
01:06 AM 82.2°F27.9°C 76.2°F24.6°C 82% 6.8 mph NW10.9 kmh NW 7.3 mph11.7 kmh 29.96 in1014.6 mb 0.00 in0.0 mm 0.00 in0.0 mm 0.00 in0.0 mm
01:07 AM 82.2°F27.9°C 75.8°F24.3°C 81% 7.3 mph WNW11.7 kmh WNW 7.8 mph12.6 kmh 29.96 in1014.6 mb 0.00 in0.0 mm 0.00 in0.0 mm 0.00 in0.0 mm
01:08 AM 82.2°F27.9°C 75.4°F24.1°C 80% 6.3 mph NW10.1 kmh NW 7.8 mph12.6 kmh 29.96 in1014.6 mb 0.00 in0.0 mm 0.00 in0.0 mm 0.00 in0.0 mm
01:09 AM 82.4°F28.0°C 76.0°F24.4°C 81% 5.8 mph NW9.3 kmh NW 7.8 mph12.6 kmh 29.96 in1014.6 mb 0.00 in0.0 mm 0.00 in0.0 mm 0.00 in0.0 mm
01:10 AM 82.2°F27.9°C 75.8°F24.3°C 81% 6.3 mph WNW10.1 kmh WNW 7.8 mph12.6 kmh 29.96 in1014.6 mb 0.00 in0.0 mm 0.00 in0.0 mm 0.00 in0.0 mm
01:11 AM 82.2°F27.9°C 75.8°F24.3°C 81% 6.3 mph WNW10.1 kmh WNW 7.8 mph12.6 kmh 29.96 in1014.6 mb 0.00 in0.0 mm 0.00 in0.0 mm 0.00 in0.0 mm
01:12 AM 82.4°F28.0°C 76.0°F24.4°C 81% 4.7 mph NW7.6 kmh NW 7.8 mph12.6 kmh 29.95 in1014.2 mb 0.00 in0.0 mm 0.00 in0.0 mm 0.00 in0.0 mm
01:13 AM 82.4°F28.0°C 76.3°F24.6°C 82% 6.8 mph NW10.9 kmh NW 7.8 mph12.6 kmh 29.95 in1014.2 mb 0.00 in0.0 mm 0.00 in0.0 mm 0.00 in0.0 mm
01:14 AM 82.4°F28.0°C 76.3°F24.6°C 82% 5.3 mph NW8.5 kmh NW 7.8 mph12.6 kmh 29.95 in1014.2 mb 0.00 in0.0 mm 0.00 in0.0 mm 0.00 in0.0 mm
01:15 AM 82.4°F28.0°C 76.3°F24.6°C 82% 7.3 mph W11.7 kmh W 7.8 mph12.6 kmh 29.95 in1014.2 mb 0.00 in0.0 mm 0.00 in0.0 mm 0.00 in0.0 mm
01:16 AM 82.2°F27.9°C 75.8°F24.3°C 81% 8.3 mph WNW13.4 kmh WNW 8.3 mph13.4 kmh 29.95 in1014.2 mb 0.00 in0.0 mm 0.00 in0.0 mm 0.00 in0.0 mm
01:17 AM 82.2°F27.9°C 75.8°F24.3°C 81% 7.3 mph WNW11.7 kmh WNW 8.3 mph13.4 kmh 29.95 in1014.2 mb 0.00 in0.0 mm 0.00 in0.0 mm 0.00 in0.0 mm
01:18 AM 82.2°F27.9°C 75.4°F24.1°C 80% 7.8 mph WNW12.6 kmh WNW 8.3 mph13.4 kmh 29.95 in1014.2 mb 0.00 in0.0 mm 0.00 in0.0 mm 0.00 in0.0 mm
01:19 AM 82.2°F27.9°C 75.8°F24.3°C 81% 7.8 mph WNW12.6 kmh WNW 8.3 mph13.4 kmh 29.95 in1014.2 mb 0.00 in0.0 mm 0.00 in0.0 mm 0.00 in0.0 mm
01:20 AM 82.2°F27.9°C 75.8°F24.3°C 81% 8.3 mph WNW13.4 kmh WNW 8.3 mph13.4 kmh 29.95 in1014.2 mb 0.00 in0.0 mm 0.00 in0.0 mm 0.00 in0.0 mm
01:21 AM 82.2°F27.9°C 75.8°F24.3°C 81% 8.3 mph WNW13.4 kmh WNW 8.3 mph13.4 kmh 29.95 in1014.2 mb 0.00 in0.0 mm 0.00 in0.0 mm 0.00 in0.0 mm
01:22 AM 82.4°F28.0°C 76.0°F24.4°C 81% 6.8 mph WNW10.9 kmh WNW 8.3 mph13.4 kmh 29.95 in1014.2 mb 0.00 in0.0 mm 0.00 in0.0 mm 0.00 in0.0 mm
01:23 AM 82.2°F27.9°C 75.4°F24.1°C 80% 7.3 mph WNW11.7 kmh WNW 8.3 mph13.4 kmh 29.95 in1014.2 mb 0.00 in0.0 mm 0.00 in0.0 mm 0.00 in0.0 mm
01:24 AM 82.2°F27.9°C 75.4°F24.1°C 80% 6.3 mph NW10.1 kmh NW 8.3 mph13.4 kmh 29.95 in1014.2 mb 0.00 in0.0 mm 0.00 in0.0 mm 0.00 in0.0 mm
01:25 AM 82.4°F28.0°C 76.0°F24.4°C 81% 7.3 mph WNW11.7 kmh WNW 8.3 mph13.4 kmh 29.95 in1014.2 mb 0.00 in0.0 mm 0.00 in0.0 mm 0.00 in0.0 mm
01:26 AM 82.4°F28.0°C 76.3°F24.6°C 82% 7.3 mph NW11.7 kmh NW 8.3 mph13.4 kmh 29.95 in1014.2 mb 0.00 in0.0 mm 0.00 in0.0 mm 0.00 in0.0 mm
01:27 AM 82.4°F28.0°C 76.3°F24.6°C 82% 5.3 mph WNW8.5 kmh WNW 8.3 mph13.4 kmh 29.95 in1014.2 mb 0.00 in0.0 mm 0.00 in0.0 mm 0.00 in0.0 mm
01:28 AM 82.4°F28.0°C 76.3°F24.6°C 82% 7.3 mph NW11.7 kmh NW 8.3 mph13.4 kmh 29.95 in1014.2 mb 0.00 in0.0 mm 0.00 in0.0 mm 0.00 in0.0 mm
01:29 AM 82.4°F28.0°C 76.3°F24.6°C 82% 5.8 mph NW9.3 kmh NW 8.3 mph13.4 kmh 29.95 in1014.2 mb 0.00 in0.0 mm 0.00 in0.0 mm 0.00 in0.0 mm
01:30 AM 82.2°F27.9°C 75.8°F24.3°C 81% 5.3 mph NW8.5 kmh NW 8.3 mph13.4 kmh 29.95 in1014.2 mb 0.00 in0.0 mm 0.00 in0.0 mm 0.00 in0.0 mm
01:31 AM 82.2°F27.9°C 75.8°F24.3°C 81% 7.3 mph NW11.7 kmh NW 8.3 mph13.4 kmh 29.95 in1014.2 mb 0.00 in0.0 mm 0.00 in0.0 mm 0.00 in0.0 mm
01:32 AM 82.2°F27.9°C 75.8°F24.3°C 81% 6.8 mph NW10.9 kmh NW 7.8 mph12.6 kmh 29.95 in1014.2 mb 0.00 in0.0 mm 0.00 in0.0 mm 0.00 in0.0 mm
01:33 AM 82.2°F27.9°C 75.8°F24.3°C 81% 7.3 mph NW11.7 kmh NW 7.8 mph12.6 kmh 29.95 in1014.2 mb 0.00 in0.0 mm 0.00 in0.0 mm 0.00 in0.0 mm
01:34 AM 82.2°F27.9°C 75.8°F24.3°C 81% 7.8 mph NW12.6 kmh NW 7.8 mph12.6 kmh 29.95 in1014.2 mb 0.00 in0.0 mm 0.00 in0.0 mm 0.00 in0.0 mm
01:35 AM 82.2°F27.9°C 75.8°F24.3°C 81% 7.3 mph NW11.7 kmh NW 7.8 mph12.6 kmh 29.95 in1014.2 mb 0.00 in0.0 mm 0.00 in0.0 mm 0.00 in0.0 mm
01:36 AM 82.2°F27.9°C 75.8°F24.3°C 81% 6.8 mph WNW10.9 kmh WNW 7.8 mph12.6 kmh 29.95 in1014.2 mb 0.00 in0.0 mm 0.00 in0.0 mm 0.00 in0.0 mm
01:37 AM 82.2°F27.9°C 75.8°F24.3°C 81% 7.3 mph WNW11.7 kmh WNW 7.8 mph12.6 kmh 29.95 in1014.2 mb 0.00 in0.0 mm 0.00 in0.0 mm 0.00 in0.0 mm
01:38 AM 82.2°F27.9°C 75.8°F24.3°C 81% 6.8 mph NW10.9 kmh NW 7.8 mph12.6 kmh 29.95 in1014.2 mb 0.00 in0.0 mm 0.00 in0.0 mm 0.00 in0.0 mm
01:39 AM 82.2°F27.9°C 75.8°F24.3°C 81% 6.3 mph NW10.1 kmh NW 7.8 mph12.6 kmh 29.95 in1014.2 mb 0.00 in0.0 mm 0.00 in0.0 mm 0.00 in0.0 mm
01:40 AM 82.2°F27.9°C 76.2°F24.6°C 82% 8.3 mph WNW13.4 kmh WNW 8.3 mph13.4 kmh 29.95 in1014.2 mb 0.00 in0.0 mm 0.00 in0.0 mm 0.00 in0.0 mm
01:41 AM 82.2°F27.9°C 76.2°F24.6°C 82% 5.8 mph NW9.3 kmh NW 8.3 mph13.4 kmh 29.95 in1014.2 mb 0.00 in0.0 mm 0.00 in0.0 mm 0.00 in0.0 mm
01:42 AM 82.2°F27.9°C 76.2°F24.6°C 82% 6.8 mph WNW10.9 kmh WNW 8.3 mph13.4 kmh 29.95 in1014.2 mb 0.00 in0.0 mm 0.00 in0.0 mm 0.00 in0.0 mm
01:43 AM 82.2°F27.9°C 76.2°F24.6°C 82% 6.3 mph NNW10.1 kmh NNW 8.3 mph13.4 kmh 29.95 in1014.2 mb 0.00 in0.0 mm 0.00 in0.0 mm 0.00 in0.0 mm
01:44 AM 82.2°F27.9°C 76.2°F24.6°C 82% 4.7 mph NW7.6 kmh NW 8.3 mph13.4 kmh 29.95 in1014.2 mb 0.00 in0.0 mm 0.00 in0.0 mm 0.00 in0.0 mm
01:45 AM 82.2°F27.9°C 76.2°F24.6°C 82% Calm Calm 8.3 mph13.4 kmh 29.95 in1014.2 mb 0.00 in0.0 mm 0.00 in0.0 mm 0.00 in0.0 mm
01:46 AM 82.2°F27.9°C 76.2°F24.6°C 82% 3.7 mph NW6.0 kmh NW 8.3 mph13.4 kmh 29.95 in1014.2 mb 0.00 in0.0 mm 0.00 in0.0 mm 0.00 in0.0 mm
01:47 AM 82.0°F27.8°C 76.0°F24.4°C 82% 5.8 mph NW9.3 kmh NW 8.3 mph13.4 kmh 29.95 in1014.2 mb 0.00 in0.0 mm 0.00 in0.0 mm 0.00 in0.0 mm
01:48 AM 82.0°F27.8°C 76.0°F24.4°C 82% 4.2 mph NW6.8 kmh NW 8.3 mph13.4 kmh 29.95 in1014.2 mb 0.00 in0.0 mm 0.00 in0.0 mm 0.00 in0.0 mm
01:49 AM 82.0°F27.8°C 76.0°F24.4°C 82% 4.7 mph NW7.6 kmh NW 8.3 mph13.4 kmh 29.95 in1014.2 mb 0.00 in0.0 mm 0.00 in0.0 mm 0.00 in0.0 mm
01:50 AM 82.0°F27.8°C 76.0°F24.4°C 82% 3.2 mph NW5.1 kmh NW 8.3 mph13.4 kmh 29.95 in1014.2 mb 0.00 in0.0 mm 0.00 in0.0 mm 0.00 in0.0 mm
01:51 AM 81.9°F27.7°C 75.8°F24.3°C 82% Calm Calm 7.3 mph11.7 kmh 29.95 in1014.2 mb 0.00 in0.0 mm 0.00 in0.0 mm 0.00 in0.0 mm
01:52 AM 81.9°F27.7°C 75.8°F24.3°C 82% Calm Calm 7.3 mph11.7 kmh 29.95 in1014.2 mb 0.00 in0.0 mm 0.00 in0.0 mm 0.00 in0.0 mm
01:53 AM 81.9°F27.7°C 75.8°F24.3°C 82% 3.2 mph NW5.1 kmh NW 7.3 mph11.7 kmh 29.95 in1014.2 mb 0.00 in0.0 mm 0.00 in0.0 mm 0.00 in0.0 mm
01:54 AM 81.9°F27.7°C 75.8°F24.3°C 82% Calm Calm 6.3 mph10.1 kmh 29.95 in1014.2 mb 0.00 in0.0 mm 0.00 in0.0 mm 0.00 in0.0 mm
01:55 AM 81.9°F27.7°C 75.8°F24.3°C 82% 1.1 mph NNW1.8 kmh NNW 6.3 mph10.1 kmh 29.95 in1014.2 mb 0.00 in0.0 mm 0.00 in0.0 mm 0.00 in0.0 mm
01:56 AM 81.9°F27.7°C 75.8°F24.3°C 82% Calm Calm 6.3 mph10.1 kmh 29.95 in1014.2 mb 0.00 in0.0 mm 0.00 in0.0 mm 0.00 in0.0 mm
01:57 AM 81.7°F27.6°C 75.6°F24.2°C 82% Calm Calm 5.8 mph9.3 kmh 29.95 in1014.2 mb 0.00 in0.0 mm 0.00 in0.0 mm 0.00 in0.0 mm
01:58 AM 81.7°F27.6°C 75.6°F24.2°C 82% 1.7 mph WNW2.7 kmh WNW 5.8 mph9.3 kmh 29.95 in1014.2 mb 0.00 in0.0 mm 0.00 in0.0 mm 0.00 in0.0 mm
01:59 AM 81.7°F27.6°C 75.6°F24.2°C 82% 2.7 mph NNW4.3 kmh NNW 5.8 mph9.3 kmh 29.95 in1014.2 mb 0.00 in0.0 mm 0.00 in0.0 mm 0.00 in0.0 mm
02:00 AM 81.5°F27.5°C 75.5°F24.2°C 82% 4.7 mph NNW7.6 kmh NNW 5.8 mph9.3 kmh 29.95 in1014.2 mb 0.00 in0.0 mm 0.00 in0.0 mm 0.00 in0.0 mm
02:01 AM 81.5°F27.5°C 75.5°F24.2°C 82% 5.8 mph NW9.3 kmh NW 5.8 mph9.3 kmh 29.95 in1014.2 mb 0.00 in0.0 mm 0.00 in0.0 mm 0.00 in0.0 mm
02:02 AM 81.5°F27.5°C 75.5°F24.2°C 82% Calm Calm 5.8 mph9.3 kmh 29.95 in1014.2 mb 0.00 in0.0 mm 0.00 in0.0 mm 0.00 in0.0 mm
02:03 AM 81.5°F27.5°C 75.5°F24.2°C 82% 2.2 mph NW3.5 kmh NW 5.8 mph9.3 kmh 29.95 in1014.2 mb 0.00 in0.0 mm 0.00 in0.0 mm 0.00 in0.0 mm
02:04 AM 81.5°F27.5°C 75.5°F24.2°C 82% 2.7 mph NW4.3 kmh NW 5.8 mph9.3 kmh 29.95 in1014.2 mb 0.00 in0.0 mm 0.00 in0.0 mm 0.00 in0.0 mm
02:05 AM 81.5°F27.5°C 75.5°F24.2°C 82% 3.7 mph NW6.0 kmh NW 5.8 mph9.3 kmh 29.95 in1014.2 mb 0.00 in0.0 mm 0.00 in0.0 mm 0.00 in0.0 mm
02:06 AM 81.5°F27.5°C 75.5°F24.2°C 82% 4.7 mph NNW7.6 kmh NNW 5.8 mph9.3 kmh 29.95 in1014.2 mb 0.00 in0.0 mm 0.00 in0.0 mm 0.00 in0.0 mm
02:07 AM 81.3°F27.4°C 75.3°F24.1°C 82% 4.7 mph NW7.6 kmh NW 5.8 mph9.3 kmh 29.95 in1014.2 mb 0.00 in0.0 mm 0.00 in0.0 mm 0.00 in0.0 mm
02:08 AM 81.3°F27.4°C 75.3°F24.1°C 82% 5.3 mph NW8.5 kmh NW 6.8 mph10.9 kmh 29.95 in1014.2 mb 0.00 in0.0 mm 0.00 in0.0 mm 0.00 in0.0 mm
02:09 AM 81.3°F27.4°C 75.3°F24.1°C 82% 1.1 mph NW1.8 kmh NW 6.8 mph10.9 kmh 29.95 in1014.2 mb 0.00 in0.0 mm 0.00 in0.0 mm 0.00 in0.0 mm
02:10 AM 81.3°F27.4°C 75.3°F24.1°C 82% 5.8 mph NW9.3 kmh NW 6.8 mph10.9 kmh 29.95 in1014.2 mb 0.00 in0.0 mm 0.00 in0.0 mm 0.00 in0.0 mm
02:11 AM 81.3°F27.4°C 75.3°F24.1°C 82% 6.8 mph NW10.9 kmh NW 6.8 mph10.9 kmh 29.95 in1014.2 mb 0.00 in0.0 mm 0.00 in0.0 mm 0.00 in0.0 mm
02:12 AM 81.3°F27.4°C 75.3°F24.1°C 82% 6.3 mph NW10.1 kmh NW 7.3 mph11.7 kmh 29.95 in1014.2 mb 0.00 in0.0 mm 0.00 in0.0 mm 0.00 in0.0 mm
02:13 AM 81.3°F27.4°C 75.3°F24.1°C 82% 6.3 mph NW10.1 kmh NW 7.3 mph11.7 kmh 29.95 in1014.2 mb 0.00 in0.0 mm 0.00 in0.0 mm 0.00 in0.0 mm
02:14 AM 81.3°F27.4°C 75.3°F24.1°C 82% 3.7 mph NW6.0 kmh NW 7.3 mph11.7 kmh 29.95 in1014.2 mb 0.00 in0.0 mm 0.00 in0.0 mm 0.00 in0.0 mm
02:15 AM 81.3°F27.4°C 75.3°F24.1°C 82% 3.7 mph WNW6.0 kmh WNW 7.3 mph11.7 kmh 29.95 in1014.2 mb 0.00 in0.0 mm 0.00 in0.0 mm 0.00 in0.0 mm
02:16 AM 81.3°F27.4°C 75.3°F24.1°C 82% 2.2 mph NNW3.5 kmh NNW 7.3 mph11.7 kmh 29.95 in1014.2 mb 0.00 in0.0 mm 0.00 in0.0 mm 0.00 in0.0 mm
02:17 AM 81.3°F27.4°C 75.3°F24.1°C 82% 5.3 mph NW8.5 kmh NW 7.3 mph11.7 kmh 29.95 in1014.2 mb 0.00 in0.0 mm 0.00 in0.0 mm 0.00 in0.0 mm
02:18 AM 81.3°F27.4°C 75.3°F24.1°C 82% Calm Calm 7.3 mph11.7 kmh 29.95 in1014.2 mb 0.00 in0.0 mm 0.00 in0.0 mm 0.00 in0.0 mm
02:19 AM 81.3°F27.4°C 75.3°F24.1°C 82% Calm Calm 7.3 mph11.7 kmh 29.95 in1014.2 mb 0.00 in0.0 mm 0.00 in0.0 mm 0.00 in0.0 mm
02:20 AM 81.3°F27.4°C 75.3°F24.1°C 82% Calm Calm 7.3 mph11.7 kmh 29.95 in1014.2 mb 0.00 in0.0 mm 0.00 in0.0 mm 0.00 in0.0 mm
02:21 AM 81.1°F27.3°C 75.1°F23.9°C 82% Calm Calm 7.3 mph11.7 kmh 29.95 in1014.2 mb 0.00 in0.0 mm 0.00 in0.0 mm 0.00 in0.0 mm
02:22 AM 81.1°F27.3°C 75.1°F23.9°C 82% 2.2 mph NNW3.5 kmh NNW 6.8 mph10.9 kmh 29.95 in1014.2 mb 0.00 in0.0 mm 0.00 in0.0 mm 0.00 in0.0 mm
02:23 AM 81.1°F27.3°C 75.1°F23.9°C 82% Calm Calm 6.3 mph10.1 kmh 29.95 in1014.2 mb 0.00 in0.0 mm 0.00 in0.0 mm 0.00 in0.0 mm
02:24 AM 81.0°F27.2°C 74.9°F23.8°C 82% Calm Calm 5.3 mph8.5 kmh 29.94 in1013.9 mb 0.00 in0.0 mm 0.00 in0.0 mm 0.00 in0.0 mm
02:25 AM 81.0°F27.2°C 74.9°F23.8°C 82% Calm Calm 5.3 mph8.5 kmh 29.94 in1013.9 mb 0.00 in0.0 mm 0.00 in0.0 mm 0.00 in0.0 mm
02:26 AM 81.0°F27.2°C 74.9°F23.8°C 82% Calm Calm 5.3 mph8.5 kmh 29.94 in1013.9 mb 0.00 in0.0 mm 0.00 in0.0 mm 0.00 in0.0 mm
02:27 AM 81.0°F27.2°C 74.9°F23.8°C 82% Calm Calm 2.2 mph3.5 kmh 29.94 in1013.9 mb 0.00 in0.0 mm 0.00 in0.0 mm 0.00 in0.0 mm
02:28 AM 81.0°F27.2°C 74.9°F23.8°C 82% 2.7 mph NW4.3 kmh NW 2.7 mph4.3 kmh 29.94 in1013.9 mb 0.00 in0.0 mm 0.00 in0.0 mm 0.00 in0.0 mm
02:29 AM 81.0°F27.2°C 74.9°F23.8°C 82% Calm Calm 2.7 mph4.3 kmh 29.94 in1013.9 mb 0.00 in0.0 mm 0.00 in0.0 mm 0.00 in0.0 mm
02:30 AM 80.8°F27.1°C 74.8°F23.8°C 82% Calm Calm 2.7 mph4.3 kmh 29.94 in1013.9 mb 0.00 in0.0 mm 0.00 in0.0 mm 0.00 in0.0 mm
02:31 AM 80.8°F27.1°C 74.8°F23.8°C 82% Calm Calm 2.7 mph4.3 kmh 29.94 in1013.9 mb 0.00 in0.0 mm 0.00 in0.0 mm 0.00 in0.0 mm
02:32 AM 80.6°F27.0°C 74.6°F23.7°C 82% 3.7 mph WNW6.0 kmh WNW 3.7 mph6.0 kmh 29.94 in1013.9 mb 0.00 in0.0 mm 0.00 in0.0 mm 0.00 in0.0 mm
02:33 AM 80.6°F27.0°C 74.6°F23.7°C 82% Calm Calm 3.7 mph6.0 kmh 29.94 in1013.9 mb 0.00 in0.0 mm 0.00 in0.0 mm 0.00 in0.0 mm
02:34 AM 80.6°F27.0°C 74.6°F23.7°C 82% 3.7 mph NW6.0 kmh NW 3.7 mph6.0 kmh 29.94 in1013.9 mb 0.00 in0.0 mm 0.00 in0.0 mm 0.00 in0.0 mm
02:35 AM 80.6°F27.0°C 74.6°F23.7°C 82% Calm Calm 3.7 mph6.0 kmh 29.94 in1013.9 mb 0.00 in0.0 mm 0.00 in0.0 mm 0.00 in0.0 mm
02:36 AM 80.6°F27.0°C 74.6°F23.7°C 82% 2.2 mph NNW3.5 kmh NNW 3.7 mph6.0 kmh 29.95 in1014.2 mb 0.00 in0.0 mm 0.00 in0.0 mm 0.00 in0.0 mm
02:37 AM 80.4°F26.9°C 74.4°F23.6°C 82% Calm Calm 3.7 mph6.0 kmh 29.95 in1014.2 mb 0.00 in0.0 mm 0.00 in0.0 mm 0.00 in0.0 mm
02:38 AM 80.4°F26.9°C 74.4°F23.6°C 82% Calm Calm 3.7 mph6.0 kmh 29.95 in1014.2 mb 0.00 in0.0 mm 0.00 in0.0 mm 0.00 in0.0 mm
02:39 AM 80.2°F26.8°C 74.2°F23.4°C 82% Calm Calm 3.7 mph6.0 kmh 29.95 in1014.2 mb 0.00 in0.0 mm 0.00 in0.0 mm 0.00 in0.0 mm
02:40 AM 80.2°F26.8°C 74.2°F23.4°C 82% Calm Calm 3.7 mph6.0 kmh 29.95 in1014.2 mb 0.00 in0.0 mm 0.00 in0.0 mm 0.00 in0.0 mm
02:41 AM 80.2°F26.8°C 74.6°F23.7°C 83% Calm Calm 3.7 mph6.0 kmh 29.95 in1014.2 mb 0.00 in0.0 mm 0.00 in0.0 mm 0.00 in0.0 mm
02:42 AM 80.2°F26.8°C 74.6°F23.7°C 83% 3.2 mph NW5.1 kmh NW 3.7 mph6.0 kmh 29.95 in1014.2 mb 0.00 in0.0 mm 0.00 in0.0 mm 0.00 in0.0 mm
02:43 AM 80.2°F26.8°C 74.6°F23.7°C 83% Calm Calm 3.7 mph6.0 kmh 29.95 in1014.2 mb 0.00 in0.0 mm 0.00 in0.0 mm 0.00 in0.0 mm
02:44 AM 80.1°F26.7°C 74.4°F23.6°C 83% 2.7 mph NW4.3 kmh NW 3.2 mph5.1 kmh 29.95 in1014.2 mb 0.00 in0.0 mm 0.00 in0.0 mm 0.00 in0.0 mm
02:45 AM 80.1°F26.7°C 74.4°F23.6°C 83% Calm Calm 3.2 mph5.1 kmh 29.95 in1014.2 mb 0.00 in0.0 mm 0.00 in0.0 mm 0.00 in0.0 mm
02:46 AM 80.1°F26.7°C 74.4°F23.6°C 83% Calm Calm 3.2 mph5.1 kmh 29.95 in1014.2 mb 0.00 in0.0 mm 0.00 in0.0 mm 0.00 in0.0 mm
02:47 AM 79.9°F26.6°C 74.2°F23.4°C 83% Calm Calm 3.2 mph5.1 kmh 29.95 in1014.2 mb 0.00 in0.0 mm 0.00 in0.0 mm 0.00 in0.0 mm
02:48 AM 79.9°F26.6°C 74.2°F23.4°C 83% Calm Calm 3.2 mph5.1 kmh 29.95 in1014.2 mb 0.00 in0.0 mm 0.00 in0.0 mm 0.00 in0.0 mm
02:49 AM 79.9°F26.6°C 74.2°F23.4°C 83% Calm Calm 3.2 mph5.1 kmh 29.95 in1014.2 mb 0.00 in0.0 mm 0.00 in0.0 mm 0.00 in0.0 mm
02:50 AM 79.9°F26.6°C 74.6°F23.7°C 84% 3.2 mph NW5.1 kmh NW 3.2 mph5.1 kmh 29.95 in1014.2 mb 0.00 in0.0 mm 0.00 in0.0 mm 0.00 in0.0 mm
02:51 AM 79.9°F26.6°C 74.6°F23.7°C 84% 2.7 mph NW4.3 kmh NW 3.2 mph5.1 kmh 29.95 in1014.2 mb 0.00 in0.0 mm 0.00 in0.0 mm 0.00 in0.0 mm
02:52 AM 79.9°F26.6°C 74.6°F23.7°C 84% Calm Calm 3.2 mph5.1 kmh 29.95 in1014.2 mb 0.00 in0.0 mm 0.00 in0.0 mm 0.00 in0.0 mm
02:53 AM 79.9°F26.6°C 74.6°F23.7°C 84% 1.7 mph NW2.7 kmh NW 3.2 mph5.1 kmh 29.95 in1014.2 mb 0.00 in0.0 mm 0.00 in0.0 mm 0.00 in0.0 mm
02:54 AM 79.9°F26.6°C 74.6°F23.7°C 84% Calm Calm 3.2 mph5.1 kmh 29.95 in1014.2 mb 0.00 in0.0 mm 0.00 in0.0 mm 0.00 in0.0 mm
02:55 AM 79.9°F26.6°C 74.6°F23.7°C 84% 1.1 mph NW1.8 kmh NW 4.2 mph6.8 kmh 29.95 in1014.2 mb 0.00 in0.0 mm 0.00 in0.0 mm 0.00 in0.0 mm
02:56 AM 79.9°F26.6°C 74.6°F23.7°C 84% 2.7 mph NNW4.3 kmh NNW 4.2 mph6.8 kmh 29.95 in1014.2 mb 0.00 in0.0 mm 0.00 in0.0 mm 0.00 in0.0 mm
02:57 AM 79.9°F26.6°C 74.6°F23.7°C 84% 5.8 mph NNW9.3 kmh NNW 5.8 mph9.3 kmh 29.95 in1014.2 mb 0.00 in0.0 mm 0.00 in0.0 mm 0.00 in0.0 mm
02:58 AM 79.9°F26.6°C 74.6°F23.7°C 84% 1.1 mph NW1.8 kmh NW 5.8 mph9.3 kmh 29.95 in1014.2 mb 0.00 in0.0 mm 0.00 in0.0 mm 0.00 in0.0 mm
02:59 AM 79.9°F26.6°C 74.6°F23.7°C 84% Calm Calm 5.8 mph9.3 kmh 29.95 in1014.2 mb 0.00 in0.0 mm 0.00 in0.0 mm 0.00 in0.0 mm
03:00 AM 79.9°F26.6°C 74.6°F23.7°C 84% 1.1 mph N1.8 kmh N 5.8 mph9.3 kmh 29.94 in1013.9 mb 0.00 in0.0 mm 0.00 in0.0 mm 0.00 in0.0 mm
03:01 AM 79.9°F26.6°C 74.6°F23.7°C 84% Calm Calm 5.8 mph9.3 kmh 29.94 in1013.9 mb 0.00 in0.0 mm 0.00 in0.0 mm 0.00 in0.0 mm
03:02 AM 79.9°F26.6°C 74.6°F23.7°C 84% Calm Calm 5.8 mph9.3 kmh 29.94 in1013.9 mb 0.00 in0.0 mm 0.00 in0.0 mm 0.00 in0.0 mm
03:03 AM 79.7°F26.5°C 74.4°F23.6°C 84% 4.7 mph WNW7.6 kmh WNW 5.8 mph9.3 kmh 29.94 in1013.9 mb 0.00 in0.0 mm 0.00 in0.0 mm 0.00 in0.0 mm
03:04 AM 79.7°F26.5°C 74.4°F23.6°C 84% 3.7 mph NNW6.0 kmh NNW 5.8 mph9.3 kmh 29.94 in1013.9 mb 0.00 in0.0 mm 0.00 in0.0 mm 0.00 in0.0 mm
03:05 AM 79.7°F26.5°C 74.4°F23.6°C 84% 5.8 mph NW9.3 kmh NW 5.8 mph9.3 kmh 29.94 in1013.9 mb 0.00 in0.0 mm 0.00 in0.0 mm 0.00 in0.0 mm
03:06 AM 79.7°F26.5°C 74.4°F23.6°C 84% 6.8 mph NNW10.9 kmh NNW 8.3 mph13.4 kmh 29.94 in1013.9 mb 0.00 in0.0 mm 0.00 in0.0 mm 0.00 in0.0 mm
03:07 AM 79.7°F26.5°C 74.4°F23.6°C 84% 5.3 mph NW8.5 kmh NW 8.3 mph13.4 kmh 29.94 in1013.9 mb 0.00 in0.0 mm 0.00 in0.0 mm 0.00 in0.0 mm
03:08 AM 79.7°F26.5°C 74.4°F23.6°C 84% 3.2 mph WNW5.1 kmh WNW 8.3 mph13.4 kmh 29.94 in1013.9 mb 0.00 in0.0 mm 0.00 in0.0 mm 0.00 in0.0 mm
03:09 AM 79.7°F26.5°C 74.4°F23.6°C 84% 6.8 mph NW10.9 kmh NW 8.3 mph13.4 kmh 29.94 in1013.9 mb 0.00 in0.0 mm 0.00 in0.0 mm 0.00 in0.0 mm
03:10 AM 79.7°F26.5°C 74.4°F23.6°C 84% 7.3 mph NW11.7 kmh NW 8.3 mph13.4 kmh 29.94 in1013.9 mb 0.00 in0.0 mm 0.00 in0.0 mm 0.00 in0.0 mm
03:11 AM 79.7°F26.5°C 74.4°F23.6°C 84% 5.8 mph NW9.3 kmh NW 8.3 mph13.4 kmh 29.94 in1013.9 mb 0.00 in0.0 mm 0.00 in0.0 mm 0.00 in0.0 mm
03:12 AM 79.9°F26.6°C 74.6°F23.7°C 84% 7.3 mph NNW11.7 kmh NNW 8.3 mph13.4 kmh 29.94 in1013.9 mb 0.00 in0.0 mm 0.00 in0.0 mm 0.00 in0.0 mm
03:13 AM 79.9°F26.6°C 74.6°F23.7°C 84% 8.9 mph NNW14.3 kmh NNW 9.9 mph15.9 kmh 29.95 in1014.2 mb 0.00 in0.0 mm 0.00 in0.0 mm 0.00 in0.0 mm
03:14 AM 79.9°F26.6°C 74.6°F23.7°C 84% 5.8 mph NW9.3 kmh NW 9.9 mph15.9 kmh 29.95 in1014.2 mb 0.00 in0.0 mm 0.00 in0.0 mm 0.00 in0.0 mm
03:15 AM 79.9°F26.6°C 74.6°F23.7°C 84% 6.3 mph NW10.1 kmh NW 9.9 mph15.9 kmh 29.95 in1014.2 mb 0.00 in0.0 mm 0.00 in0.0 mm 0.00 in0.0 mm
03:16 AM 79.9°F26.6°C 74.6°F23.7°C 84% 6.3 mph NW10.1 kmh NW 9.9 mph15.9 kmh 29.95 in1014.2 mb 0.00 in0.0 mm 0.00 in0.0 mm 0.00 in0.0 mm
03:17 AM 79.9°F26.6°C 74.6°F23.7°C 84% 9.4 mph NW15.1 kmh NW 9.9 mph15.9 kmh 29.95 in1014.2 mb 0.00 in0.0 mm 0.00 in0.0 mm 0.00 in0.0 mm
03:18 AM 79.9°F26.6°C 74.6°F23.7°C 84% 9.9 mph NW15.9 kmh NW 9.9 mph15.9 kmh 29.95 in1014.2 mb 0.00 in0.0 mm 0.00 in0.0 mm 0.00 in0.0 mm
03:19 AM 79.9°F26.6°C 74.2°F23.4°C 83% 8.3 mph NW13.4 kmh NW 9.9 mph15.9 kmh 29.95 in1014.2 mb 0.00 in0.0 mm 0.00 in0.0 mm 0.00 in0.0 mm
03:20 AM 79.9°F26.6°C 74.2°F23.4°C 83% 6.3 mph NW10.1 kmh NW 9.9 mph15.9 kmh 29.95 in1014.2 mb 0.00 in0.0 mm 0.00 in0.0 mm 0.00 in0.0 mm
03:21 AM 79.9°F26.6°C 74.2°F23.4°C 83% 5.8 mph NNW9.3 kmh NNW 9.9 mph15.9 kmh 29.95 in1014.2 mb 0.00 in0.0 mm 0.00 in0.0 mm 0.00 in0.0 mm
03:22 AM 79.9°F26.6°C 74.2°F23.4°C 83% 6.3 mph NW10.1 kmh NW 9.9 mph15.9 kmh 29.95 in1014.2 mb 0.00 in0.0 mm 0.00 in0.0 mm 0.00 in0.0 mm
03:23 AM 79.9°F26.6°C 74.2°F23.4°C 83% 7.8 mph WNW12.6 kmh WNW 9.9 mph15.9 kmh 29.95 in1014.2 mb 0.00 in0.0 mm 0.00 in0.0 mm 0.00 in0.0 mm
03:24 AM 79.9°F26.6°C 74.2°F23.4°C 83% 7.8 mph NNW12.6 kmh NNW 9.9 mph15.9 kmh 29.95 in1014.2 mb 0.00 in0.0 mm 0.00 in0.0 mm 0.00 in0.0 mm
03:25 AM 79.9°F26.6°C 74.2°F23.4°C 83% 8.3 mph NW13.4 kmh NW 9.9 mph15.9 kmh 29.95 in1014.2 mb 0.00 in0.0 mm 0.00 in0.0 mm 0.00 in0.0 mm
03:26 AM 80.1°F26.7°C 74.4°F23.6°C 83% 6.3 mph NW10.1 kmh NW 9.9 mph15.9 kmh 29.95 in1014.2 mb 0.00 in0.0 mm 0.00 in0.0 mm 0.00 in0.0 mm
03:27 AM 80.1°F26.7°C 74.4°F23.6°C 83% 6.8 mph NW10.9 kmh NW 9.9 mph15.9 kmh 29.95 in1014.2 mb 0.00 in0.0 mm 0.00 in0.0 mm 0.00 in0.0 mm
03:28 AM 80.1°F26.7°C 74.4°F23.6°C 83% 7.3 mph WNW11.7 kmh WNW 9.9 mph15.9 kmh 29.95 in1014.2 mb 0.00 in0.0 mm 0.00 in0.0 mm 0.00 in0.0 mm
03:29 AM 80.1°F26.7°C 74.4°F23.6°C 83% 4.2 mph NNW6.8 kmh NNW 8.3 mph13.4 kmh 29.95 in1014.2 mb 0.00 in0.0 mm 0.00 in0.0 mm 0.00 in0.0 mm
03:30 AM 80.1°F26.7°C 74.4°F23.6°C 83% 4.2 mph NW6.8 kmh NW 8.3 mph13.4 kmh 29.95 in1014.2 mb 0.00 in0.0 mm 0.00 in0.0 mm 0.00 in0.0 mm
03:31 AM 79.9°F26.6°C 74.2°F23.4°C 83% 5.8 mph NNW9.3 kmh NNW 8.3 mph13.4 kmh 29.95 in1014.2 mb 0.00 in0.0 mm 0.00 in0.0 mm 0.00 in0.0 mm
03:32 AM 79.9°F26.6°C 74.2°F23.4°C 83% 7.3 mph NW11.7 kmh NW 8.3 mph13.4 kmh 29.95 in1014.2 mb 0.00 in0.0 mm 0.00 in0.0 mm 0.00 in0.0 mm
03:33 AM 79.9°F26.6°C 74.2°F23.4°C 83% 4.2 mph NNW6.8 kmh NNW 8.3 mph13.4 kmh 29.95 in1014.2 mb 0.00 in0.0 mm 0.00 in0.0 mm 0.00 in0.0 mm
03:34 AM 79.9°F26.6°C 74.2°F23.4°C 83% 5.3 mph NW8.5 kmh NW 8.3 mph13.4 kmh 29.95 in1014.2 mb 0.00 in0.0 mm 0.00 in0.0 mm 0.00 in0.0 mm
03:35 AM 79.7°F26.5°C 74.1°F23.4°C 83% 5.8 mph NNW9.3 kmh NNW 8.3 mph13.4 kmh 29.95 in1014.2 mb 0.00 in0.0 mm 0.00 in0.0 mm 0.00 in0.0 mm
03:36 AM 79.7°F26.5°C 74.1°F23.4°C 83% 5.3 mph NW8.5 kmh NW 7.8 mph12.6 kmh 29.95 in1014.2 mb 0.00 in0.0 mm 0.00 in0.0 mm 0.00 in0.0 mm
03:37 AM 79.7°F26.5°C 74.1°F23.4°C 83% 4.7 mph NNW7.6 kmh NNW 7.8 mph12.6 kmh 29.95 in1014.2 mb 0.00 in0.0 mm 0.00 in0.0 mm 0.00 in0.0 mm
03:38 AM 79.7°F26.5°C 74.1°F23.4°C 83% Calm Calm 7.8 mph12.6 kmh 29.95 in1014.2 mb 0.00 in0.0 mm 0.00 in0.0 mm 0.00 in0.0 mm
03:39 AM 79.7°F26.5°C 74.1°F23.4°C 83% 4.2 mph NW6.8 kmh NW 7.8 mph12.6 kmh 29.95 in1014.2 mb 0.00 in0.0 mm 0.00 in0.0 mm 0.00 in0.0 mm
03:40 AM 79.7°F26.5°C 74.1°F23.4°C 83% 4.2 mph NW6.8 kmh NW 7.8 mph12.6 kmh 29.95 in1014.2 mb 0.00 in0.0 mm 0.00 in0.0 mm 0.00 in0.0 mm
03:41 AM 79.7°F26.5°C 74.1°F23.4°C 83% 5.8 mph NW9.3 kmh NW 7.8 mph12.6 kmh 29.95 in1014.2 mb 0.00 in0.0 mm 0.00 in0.0 mm 0.00 in0.0 mm
03:42 AM 79.7°F26.5°C 74.1°F23.4°C 83% 3.2 mph NNW5.1 kmh NNW 7.8 mph12.6 kmh 29.95 in1014.2 mb 0.00 in0.0 mm 0.00 in0.0 mm 0.00 in0.0 mm
03:43 AM 79.5°F26.4°C 73.5°F23.1°C 82% 8.3 mph NW13.4 kmh NW 9.4 mph15.1 kmh 29.95 in1014.2 mb 0.00 in0.0 mm 0.00 in0.0 mm 0.00 in0.0 mm
03:44 AM 79.5°F26.4°C 73.5°F23.1°C 82% 6.3 mph NW10.1 kmh NW 9.4 mph15.1 kmh 29.95 in1014.2 mb 0.00 in0.0 mm 0.00 in0.0 mm 0.00 in0.0 mm
03:45 AM 79.5°F26.4°C 73.5°F23.1°C 82% 8.3 mph NW13.4 kmh NW 9.4 mph15.1 kmh 29.95 in1014.2 mb 0.00 in0.0 mm 0.00 in0.0 mm 0.00 in0.0 mm
03:46 AM 79.5°F26.4°C 73.2°F22.9°C 81% 7.3 mph NNW11.7 kmh NNW 9.4 mph15.1 kmh 29.95 in1014.2 mb 0.00 in0.0 mm 0.00 in0.0 mm 0.00 in0.0 mm
03:47 AM 79.5°F26.4°C 73.2°F22.9°C 81% 6.3 mph NW10.1 kmh NW 9.4 mph15.1 kmh 29.95 in1014.2 mb 0.00 in0.0 mm 0.00 in0.0 mm 0.00 in0.0 mm
03:48 AM 79.7°F26.5°C 73.3°F22.9°C 81% 9.9 mph NW15.9 kmh NW 9.9 mph15.9 kmh 29.95 in1014.2 mb 0.00 in0.0 mm 0.00 in0.0 mm 0.00 in0.0 mm
03:49 AM 79.9°F26.6°C 73.5°F23.1°C 81% 6.8 mph NW10.9 kmh NW 9.9 mph15.9 kmh 29.95 in1014.2 mb 0.00 in0.0 mm 0.00 in0.0 mm 0.00 in0.0 mm
03:50 AM 79.9°F26.6°C 73.5°F23.1°C 81% 7.8 mph NW12.6 kmh NW 9.9 mph15.9 kmh 29.95 in1014.2 mb 0.00 in0.0 mm 0.00 in0.0 mm 0.00 in0.0 mm
03:51 AM 79.9°F26.6°C 73.5°F23.1°C 81% 9.9 mph W15.9 kmh W 9.9 mph15.9 kmh 29.95 in1014.2 mb 0.00 in0.0 mm 0.00 in0.0 mm 0.00 in0.0 mm
03:52 AM 79.9°F26.6°C 73.5°F23.1°C 81% 7.8 mph NW12.6 kmh NW 9.9 mph15.9 kmh 29.95 in1014.2 mb 0.00 in0.0 mm 0.00 in0.0 mm 0.00 in0.0 mm
03:53 AM 79.9°F26.6°C 73.9°F23.3°C 82% 4.7 mph N7.6 kmh N 9.9 mph15.9 kmh 29.95 in1014.2 mb 0.00 in0.0 mm 0.00 in0.0 mm 0.00 in0.0 mm
03:54 AM 79.9°F26.6°C 73.5°F23.1°C 81% 7.8 mph NW12.6 kmh NW 9.9 mph15.9 kmh 29.95 in1014.2 mb 0.00 in0.0 mm 0.00 in0.0 mm 0.00 in0.0 mm
03:55 AM 79.9°F26.6°C 73.5°F23.1°C 81% 5.3 mph NW8.5 kmh NW 9.9 mph15.9 kmh 29.95 in1014.2 mb 0.00 in0.0 mm 0.00 in0.0 mm 0.00 in0.0 mm
03:56 AM 79.9°F26.6°C 73.5°F23.1°C 81% 5.3 mph WNW8.5 kmh WNW 9.9 mph15.9 kmh 29.95 in1014.2 mb 0.00 in0.0 mm 0.00 in0.0 mm 0.00 in0.0 mm
03:57 AM 79.7°F26.5°C 73.3°F22.9°C 81% 4.7 mph WNW7.6 kmh WNW 9.9 mph15.9 kmh 29.95 in1014.2 mb 0.00 in0.0 mm 0.00 in0.0 mm 0.00 in0.0 mm
03:58 AM 79.7°F26.5°C 73.3°F22.9°C 81% 7.3 mph NW11.7 kmh NW 9.9 mph15.9 kmh 29.95 in1014.2 mb 0.00 in0.0 mm 0.00 in0.0 mm 0.00 in0.0 mm
03:59 AM 79.7°F26.5°C 73.3°F22.9°C 81% 7.8 mph NW12.6 kmh NW 9.9 mph15.9 kmh 29.95 in1014.2 mb 0.00 in0.0 mm 0.00 in0.0 mm 0.00 in0.0 mm
04:00 AM 79.9°F26.6°C 73.9°F23.3°C 82% 8.3 mph NW13.4 kmh NW 9.9 mph15.9 kmh 29.96 in1014.6 mb 0.00 in0.0 mm 0.00 in0.0 mm 0.00 in0.0 mm
04:01 AM 79.9°F26.6°C 73.9°F23.3°C 82% 12.0 mph WNW19.3 kmh WNW 11.9 mph19.2 kmh 29.96 in1014.6 mb 0.00 in0.0 mm 0.00 in0.0 mm 0.00 in0.0 mm
04:02 AM 79.9°F26.6°C 73.5°F23.1°C 81% 8.9 mph WNW14.3 kmh WNW 12.5 mph20.1 kmh 29.96 in1014.6 mb 0.00 in0.0 mm 0.00 in0.0 mm 0.00 in0.0 mm
04:03 AM 79.9°F26.6°C 73.5°F23.1°C 81% 9.9 mph WNW15.9 kmh WNW 12.5 mph20.1 kmh 29.96 in1014.6 mb 0.00 in0.0 mm 0.00 in0.0 mm 0.00 in0.0 mm
04:04 AM 80.1°F26.7°C 73.7°F23.2°C 81% 9.4 mph NW15.1 kmh NW 12.5 mph20.1 kmh 29.96 in1014.6 mb 0.00 in0.0 mm 0.00 in0.0 mm 0.00 in0.0 mm
04:05 AM 80.2°F26.8°C 73.9°F23.3°C 81% 7.3 mph WNW11.7 kmh WNW 12.5 mph20.1 kmh 29.96 in1014.6 mb 0.00 in0.0 mm 0.00 in0.0 mm 0.00 in0.0 mm
04:06 AM 80.2°F26.8°C 73.9°F23.3°C 81% 8.9 mph NW14.3 kmh NW 12.5 mph20.1 kmh 29.96 in1014.6 mb 0.00 in0.0 mm 0.00 in0.0 mm 0.00 in0.0 mm
04:07 AM 80.2°F26.8°C 73.9°F23.3°C 81% 10.4 mph NW16.7 kmh NW 12.5 mph20.1 kmh 29.96 in1014.6 mb 0.00 in0.0 mm 0.00 in0.0 mm 0.00 in0.0 mm
04:08 AM 80.2°F26.8°C 73.9°F23.3°C 81% 8.3 mph NW13.4 kmh NW 12.5 mph20.1 kmh 29.96 in1014.6 mb 0.00 in0.0 mm 0.00 in0.0 mm 0.00 in0.0 mm
04:09 AM 80.2°F26.8°C 73.5°F23.1°C 80% 9.4 mph NW15.1 kmh NW 12.5 mph20.1 kmh 29.96 in1014.6 mb 0.00 in0.0 mm 0.00 in0.0 mm 0.00 in0.0 mm
04:10 AM 80.4°F26.9°C 74.4°F23.6°C 82% 7.8 mph WNW12.6 kmh WNW 12.5 mph20.1 kmh 29.96 in1014.6 mb 0.00 in0.0 mm 0.00 in0.0 mm 0.00 in0.0 mm
04:11 AM 80.4°F26.9°C 74.4°F23.6°C 82% 9.9 mph WNW15.9 kmh WNW 12.5 mph20.1 kmh 29.96 in1014.6 mb 0.00 in0.0 mm 0.00 in0.0 mm 0.00 in0.0 mm
04:12 AM 80.4°F26.9°C 74.4°F23.6°C 82% 10.9 mph WNW17.5 kmh WNW 11.4 mph18.3 kmh 29.96 in1014.6 mb 0.00 in0.0 mm 0.00 in0.0 mm 0.00 in0.0 mm
04:13 AM 80.4°F26.9°C 74.0°F23.3°C 81% 9.9 mph WNW15.9 kmh WNW 10.9 mph17.5 kmh 29.96 in1014.6 mb 0.00 in0.0 mm 0.00 in0.0 mm 0.00 in0.0 mm
04:14 AM 80.4°F26.9°C 74.0°F23.3°C 81% 9.9 mph WNW15.9 kmh WNW 10.9 mph17.5 kmh 29.96 in1014.6 mb 0.00 in0.0 mm 0.00 in0.0 mm 0.00 in0.0 mm
04:15 AM 80.4°F26.9°C 73.7°F23.2°C 80% 11.4 mph WNW18.3 kmh WNW 11.4 mph18.3 kmh 29.96 in1014.6 mb 0.00 in0.0 mm 0.00 in0.0 mm 0.00 in0.0 mm
04:16 AM 80.2°F26.8°C 73.1°F22.8°C 79% 9.9 mph WNW15.9 kmh WNW 11.4 mph18.3 kmh 29.96 in1014.6 mb 0.00 in0.0 mm 0.00 in0.0 mm 0.00 in0.0 mm
04:17 AM 80.2°F26.8°C 73.5°F23.1°C 80% 9.4 mph NW15.1 kmh NW 11.4 mph18.3 kmh 29.96 in1014.6 mb 0.00 in0.0 mm 0.00 in0.0 mm 0.00 in0.0 mm
04:18 AM 80.2°F26.8°C 73.5°F23.1°C 80% 9.9 mph NW15.9 kmh NW 11.4 mph18.3 kmh 29.96 in1014.6 mb 0.00 in0.0 mm 0.00 in0.0 mm 0.00 in0.0 mm
04:19 AM 80.2°F26.8°C 73.1°F22.8°C 79% 8.3 mph NW13.4 kmh NW 11.4 mph18.3 kmh 29.96 in1014.6 mb 0.00 in0.0 mm 0.00 in0.0 mm 0.00 in0.0 mm
04:20 AM 80.2°F26.8°C 73.1°F22.8°C 79% 6.3 mph WNW10.1 kmh WNW 11.4 mph18.3 kmh 29.96 in1014.6 mb 0.00 in0.0 mm 0.00 in0.0 mm 0.00 in0.0 mm
04:21 AM 80.4°F26.9°C 74.0°F23.3°C 81% 9.4 mph WNW15.1 kmh WNW 11.4 mph18.3 kmh 29.96 in1014.6 mb 0.00 in0.0 mm 0.00 in0.0 mm 0.00 in0.0 mm
04:22 AM 80.4°F26.9°C 74.0°F23.3°C 81% 8.9 mph NW14.3 kmh NW 11.4 mph18.3 kmh 29.96 in1014.6 mb 0.00 in0.0 mm 0.00 in0.0 mm 0.00 in0.0 mm
04:23 AM 80.4°F26.9°C 73.7°F23.2°C 80% 9.4 mph NW15.1 kmh NW 11.4 mph18.3 kmh 29.96 in1014.6 mb 0.00 in0.0 mm 0.00 in0.0 mm 0.00 in0.0 mm
04:24 AM 80.4°F26.9°C 73.7°F23.2°C 80% 8.9 mph NW14.3 kmh NW 11.4 mph18.3 kmh 29.97 in1014.9 mb 0.00 in0.0 mm 0.00 in0.0 mm 0.00 in0.0 mm
04:25 AM 80.4°F26.9°C 73.7°F23.2°C 80% 6.8 mph WNW10.9 kmh WNW 10.9 mph17.5 kmh 29.97 in1014.9 mb 0.00 in0.0 mm 0.00 in0.0 mm 0.00 in0.0 mm
04:26 AM 80.4°F26.9°C 73.3°F22.9°C 79% 8.9 mph NW14.3 kmh NW 10.4 mph16.7 kmh 29.97 in1014.9 mb 0.00 in0.0 mm 0.00 in0.0 mm 0.00 in0.0 mm
04:27 AM 80.4°F26.9°C 73.7°F23.2°C 80% 8.3 mph WNW13.4 kmh WNW 10.4 mph16.7 kmh 29.97 in1014.9 mb 0.00 in0.0 mm 0.00 in0.0 mm 0.00 in0.0 mm
04:28 AM 80.4°F26.9°C 73.7°F23.2°C 80% 8.9 mph WNW14.3 kmh WNW 10.4 mph16.7 kmh 29.97 in1014.9 mb 0.00 in0.0 mm 0.00 in0.0 mm 0.00 in0.0 mm
04:29 AM 80.4°F26.9°C 73.7°F23.2°C 80% 9.9 mph WNW15.9 kmh WNW 10.4 mph16.7 kmh 29.97 in1014.9 mb 0.00 in0.0 mm 0.00 in0.0 mm 0.00 in0.0 mm
04:30 AM 80.4°F26.9°C 73.7°F23.2°C 80% 8.3 mph NW13.4 kmh NW 10.4 mph16.7 kmh 29.97 in1014.9 mb 0.00 in0.0 mm 0.00 in0.0 mm 0.00 in0.0 mm
04:31 AM 80.4°F26.9°C 73.7°F23.2°C 80% 8.9 mph NW14.3 kmh NW 10.4 mph16.7 kmh 29.97 in1014.9 mb 0.00 in0.0 mm 0.00 in0.0 mm 0.00 in0.0 mm
04:32 AM 80.4°F26.9°C 73.7°F23.2°C 80% 7.8 mph WNW12.6 kmh WNW 10.4 mph16.7 kmh 29.97 in1014.9 mb 0.00 in0.0 mm 0.00 in0.0 mm 0.00 in0.0 mm
04:33 AM 80.4°F26.9°C 73.3°F22.9°C 79% 8.3 mph NW13.4 kmh NW 10.4 mph16.7 kmh 29.97 in1014.9 mb 0.00 in0.0 mm 0.00 in0.0 mm 0.00 in0.0 mm
04:34 AM 80.4°F26.9°C 73.3°F22.9°C 79% 8.3 mph WNW13.4 kmh WNW 9.9 mph15.9 kmh 29.97 in1014.9 mb 0.00 in0.0 mm 0.00 in0.0 mm 0.00 in0.0 mm
04:35 AM 80.4°F26.9°C 73.7°F23.2°C 80% 8.3 mph NW13.4 kmh NW 9.9 mph15.9 kmh 29.97 in1014.9 mb 0.00 in0.0 mm 0.00 in0.0 mm 0.00 in0.0 mm
04:36 AM 80.4°F26.9°C 73.7°F23.2°C 80% 8.3 mph NW13.4 kmh NW 9.9 mph15.9 kmh 29.97 in1014.9 mb 0.00 in0.0 mm 0.00 in0.0 mm 0.00 in0.0 mm
04:37 AM 80.4°F26.9°C 73.3°F22.9°C 79% 7.8 mph NW12.6 kmh NW 9.9 mph15.9 kmh 29.97 in1014.9 mb 0.00 in0.0 mm 0.00 in0.0 mm 0.00 in0.0 mm
04:38 AM 80.8°F27.1°C 74.4°F23.6°C 81% 6.8 mph WNW10.9 kmh WNW 9.9 mph15.9 kmh 29.97 in1014.9 mb 0.00 in0.0 mm 0.00 in0.0 mm 0.00 in0.0 mm
04:39 AM 80.8°F27.1°C 74.4°F23.6°C 81% 5.8 mph NNW9.3 kmh NNW 9.4 mph15.1 kmh 29.97 in1014.9 mb 0.00 in0.0 mm 0.00 in0.0 mm 0.00 in0.0 mm
04:40 AM 80.8°F27.1°C 74.0°F23.3°C 80% 9.4 mph WNW15.1 kmh WNW 9.4 mph15.1 kmh 29.97 in1014.9 mb 0.00 in0.0 mm 0.00 in0.0 mm 0.00 in0.0 mm
04:41 AM 80.8°F27.1°C 73.6°F23.1°C 79% 9.4 mph NW15.1 kmh NW 10.4 mph16.7 kmh 29.97 in1014.9 mb 0.00 in0.0 mm 0.00 in0.0 mm 0.00 in0.0 mm
04:42 AM 81.0°F27.2°C 74.2°F23.4°C 80% 10.4 mph WNW16.7 kmh WNW 10.4 mph16.7 kmh 29.97 in1014.9 mb 0.00 in0.0 mm 0.00 in0.0 mm 0.00 in0.0 mm
04:43 AM 81.0°F27.2°C 74.2°F23.4°C 80% 6.8 mph WNW10.9 kmh WNW 10.4 mph16.7 kmh 29.97 in1014.9 mb 0.00 in0.0 mm 0.00 in0.0 mm 0.00 in0.0 mm
04:44 AM 81.0°F27.2°C 73.8°F23.2°C 79% 9.4 mph NW15.1 kmh NW 10.4 mph16.7 kmh 29.97 in1014.9 mb 0.00 in0.0 mm 0.00 in0.0 mm 0.00 in0.0 mm
04:45 AM 81.0°F27.2°C 74.6°F23.7°C 81% 10.9 mph NW17.5 kmh NW 10.9 mph17.5 kmh 29.97 in1014.9 mb 0.00 in0.0 mm 0.00 in0.0 mm 0.00 in0.0 mm
04:46 AM 81.0°F27.2°C 73.8°F23.2°C 79% 9.4 mph NW15.1 kmh NW 10.9 mph17.5 kmh 29.97 in1014.9 mb 0.00 in0.0 mm 0.00 in0.0 mm 0.00 in0.0 mm
04:47 AM 81.0°F27.2°C 73.8°F23.2°C 79% 8.9 mph NW14.3 kmh NW 10.9 mph17.5 kmh 29.97 in1014.9 mb 0.00 in0.0 mm 0.00 in0.0 mm 0.00 in0.0 mm
04:48 AM 81.0°F27.2°C 73.8°F23.2°C 79% 8.3 mph WNW13.4 kmh WNW 10.9 mph17.5 kmh 29.97 in1014.9 mb 0.00 in0.0 mm 0.00 in0.0 mm 0.00 in0.0 mm
04:49 AM 81.0°F27.2°C 73.8°F23.2°C 79% 9.4 mph NW15.1 kmh NW 10.9 mph17.5 kmh 29.97 in1014.9 mb 0.00 in0.0 mm 0.00 in0.0 mm 0.00 in0.0 mm
04:50 AM 81.0°F27.2°C 73.8°F23.2°C 79% 9.9 mph NNW15.9 kmh NNW 10.9 mph17.5 kmh 29.97 in1014.9 mb 0.00 in0.0 mm 0.00 in0.0 mm 0.00 in0.0 mm
04:51 AM 81.0°F27.2°C 73.4°F23.0°C 78% 12.0 mph NNW19.3 kmh NNW 11.9 mph19.2 kmh 29.97 in1014.9 mb 0.00 in0.0 mm 0.00 in0.0 mm 0.00 in0.0 mm
04:52 AM 81.0°F27.2°C 73.4°F23.0°C 78% 10.4 mph NW16.7 kmh NW 12.5 mph20.1 kmh 29.97 in1014.9 mb 0.00 in0.0 mm 0.00 in0.0 mm 0.00 in0.0 mm
04:53 AM 81.0°F27.2°C 73.8°F23.2°C 79% 11.4 mph NW18.3 kmh NW 12.5 mph20.1 kmh 29.97 in1014.9 mb 0.00 in0.0 mm 0.00 in0.0 mm 0.00 in0.0 mm
04:54 AM 81.0°F27.2°C 73.8°F23.2°C 79% 9.9 mph NNW15.9 kmh NNW 12.5 mph20.1 kmh 29.97 in1014.9 mb 0.00 in0.0 mm 0.00 in0.0 mm 0.00 in0.0 mm
04:55 AM 81.0°F27.2°C 73.4°F23.0°C 78% 10.9 mph NW17.5 kmh NW 12.5 mph20.1 kmh 29.97 in1014.9 mb 0.00 in0.0 mm 0.00 in0.0 mm 0.00 in0.0 mm
04:56 AM 81.0°F27.2°C 73.8°F23.2°C 79% 9.9 mph NW15.9 kmh NW 12.5 mph20.1 kmh 29.97 in1014.9 mb 0.00 in0.0 mm 0.00 in0.0 mm 0.00 in0.0 mm
04:57 AM 81.0°F27.2°C 73.8°F23.2°C 79% 13.0 mph NW20.9 kmh NW 13.0 mph20.9 kmh 29.97 in1014.9 mb 0.00 in0.0 mm 0.00 in0.0 mm 0.00 in0.0 mm
04:58 AM 81.0°F27.2°C 73.4°F23.0°C 78% 11.4 mph NW18.3 kmh NW 13.0 mph20.9 kmh 29.97 in1014.9 mb 0.00 in0.0 mm 0.00 in0.0 mm 0.00 in0.0 mm
04:59 AM 81.0°F27.2°C 73.4°F23.0°C 78% 10.4 mph NW16.7 kmh NW 13.0 mph20.9 kmh 29.97 in1014.9 mb 0.00 in0.0 mm 0.00 in0.0 mm 0.00 in0.0 mm
05:00 AM 81.0°F27.2°C 73.4°F23.0°C 78% 12.0 mph NNW19.3 kmh NNW 13.0 mph20.9 kmh 29.98 in1015.2 mb 0.00 in0.0 mm 0.00 in0.0 mm 0.00 in0.0 mm
05:01 AM 81.0°F27.2°C 73.4°F23.0°C 78% 7.8 mph NW12.6 kmh NW 13.0 mph20.9 kmh 29.98 in1015.2 mb 0.00 in0.0 mm 0.00 in0.0 mm 0.00 in0.0 mm
05:02 AM 81.0°F27.2°C 73.4°F23.0°C 78% 10.4 mph NW16.7 kmh NW 13.0 mph20.9 kmh 29.98 in1015.2 mb 0.00 in0.0 mm 0.00 in0.0 mm 0.00 in0.0 mm
05:03 AM 81.0°F27.2°C 73.4°F23.0°C 78% 7.8 mph WNW12.6 kmh WNW 13.0 mph20.9 kmh 29.98 in1015.2 mb 0.00 in0.0 mm 0.00 in0.0 mm 0.00 in0.0 mm
05:04 AM 81.0°F27.2°C 73.8°F23.2°C 79% 8.9 mph NNW14.3 kmh NNW 13.0 mph20.9 kmh 29.98 in1015.2 mb 0.00 in0.0 mm 0.00 in0.0 mm 0.00 in0.0 mm
05:05 AM 80.8°F27.1°C 73.6°F23.1°C 79% 7.8 mph NW12.6 kmh NW 13.0 mph20.9 kmh 29.98 in1015.2 mb 0.00 in0.0 mm 0.00 in0.0 mm 0.00 in0.0 mm
05:06 AM 80.8°F27.1°C 73.3°F22.9°C 78% 7.3 mph WNW11.7 kmh WNW 13.0 mph20.9 kmh 29.98 in1015.2 mb 0.00 in0.0 mm 0.00 in0.0 mm 0.00 in0.0 mm
05:07 AM 80.8°F27.1°C 73.3°F22.9°C 78% 10.9 mph NW17.5 kmh NW 11.9 mph19.2 kmh 29.98 in1015.2 mb 0.00 in0.0 mm 0.00 in0.0 mm 0.00 in0.0 mm
05:08 AM 80.8°F27.1°C 73.3°F22.9°C 78% 9.9 mph NW15.9 kmh NW 11.9 mph19.2 kmh 29.98 in1015.2 mb 0.00 in0.0 mm 0.00 in0.0 mm 0.00 in0.0 mm
05:09 AM 80.8°F27.1°C 73.6°F23.1°C 79% 8.3 mph NW13.4 kmh NW 11.9 mph19.2 kmh 29.98 in1015.2 mb 0.00 in0.0 mm 0.00 in0.0 mm 0.00 in0.0 mm
05:10 AM 80.6°F27.0°C 73.1°F22.8°C 78% 9.4 mph NNW15.1 kmh NNW 10.9 mph17.5 kmh 29.98 in1015.2 mb 0.00 in0.0 mm 0.00 in0.0 mm 0.00 in0.0 mm
05:11 AM 80.6°F27.0°C 73.1°F22.8°C 78% 6.3 mph NW10.1 kmh NW 10.9 mph17.5 kmh 29.98 in1015.2 mb 0.00 in0.0 mm 0.00 in0.0 mm 0.00 in0.0 mm
05:12 AM 80.6°F27.0°C 73.1°F22.8°C 78% 9.4 mph NW15.1 kmh NW 10.9 mph17.5 kmh 29.98 in1015.2 mb 0.00 in0.0 mm 0.00 in0.0 mm 0.00 in0.0 mm
05:13 AM 80.6°F27.0°C 73.1°F22.8°C 78% 10.9 mph NW17.5 kmh NW 10.9 mph17.5 kmh 29.98 in1015.2 mb 0.00 in0.0 mm 0.00 in0.0 mm 0.00 in0.0 mm
05:14 AM 80.4°F26.9°C 72.9°F22.7°C 78% Calm Calm 10.9 mph17.5 kmh 29.98 in1015.2 mb 0.00 in0.0 mm 0.00 in0.0 mm 0.00 in0.0 mm
05:15 AM 80.4°F26.9°C 72.9°F22.7°C 78% 8.3 mph NW13.4 kmh NW 10.9 mph17.5 kmh 29.98 in1015.2 mb 0.00 in0.0 mm 0.00 in0.0 mm 0.00 in0.0 mm
05:16 AM 80.4°F26.9°C 72.9°F22.7°C 78% 2.2 mph NNW3.5 kmh NNW 10.9 mph17.5 kmh 29.98 in1015.2 mb 0.00 in0.0 mm 0.00 in0.0 mm 0.00 in0.0 mm
05:17 AM 80.2°F26.8°C 72.7°F22.6°C 78% 4.2 mph NNW6.8 kmh NNW 10.9 mph17.5 kmh 29.98 in1015.2 mb 0.00 in0.0 mm 0.00 in0.0 mm 0.00 in0.0 mm
05:18 AM 80.2°F26.8°C 72.7°F22.6°C 78% 5.3 mph N8.5 kmh N 10.9 mph17.5 kmh 29.98 in1015.2 mb 0.00 in0.0 mm 0.00 in0.0 mm 0.00 in0.0 mm
05:19 AM 80.1°F26.7°C 72.6°F22.6°C 78% 7.3 mph NNW11.7 kmh NNW 10.9 mph17.5 kmh 29.98 in1015.2 mb 0.00 in0.0 mm 0.00 in0.0 mm 0.00 in0.0 mm
05:20 AM 80.1°F26.7°C 72.6°F22.6°C 78% 10.9 mph N17.5 kmh N 10.9 mph17.5 kmh 29.98 in1015.2 mb 0.00 in0.0 mm 0.00 in0.0 mm 0.00 in0.0 mm
05:21 AM 80.1°F26.7°C 72.6°F22.6°C 78% 5.8 mph NW9.3 kmh NW 10.9 mph17.5 kmh 29.98 in1015.2 mb 0.00 in0.0 mm 0.00 in0.0 mm 0.00 in0.0 mm
05:22 AM 80.1°F26.7°C 72.9°F22.7°C 79% 9.9 mph WNW15.9 kmh WNW 10.9 mph17.5 kmh 29.98 in1015.2 mb 0.00 in0.0 mm 0.00 in0.0 mm 0.00 in0.0 mm
05:23 AM 80.1°F26.7°C 72.9°F22.7°C 79% 9.4 mph NNW15.1 kmh NNW 10.9 mph17.5 kmh 29.98 in1015.2 mb 0.00 in0.0 mm 0.00 in0.0 mm 0.00 in0.0 mm
05:24 AM 79.9°F26.6°C 72.8°F22.7°C 79% 7.8 mph NW12.6 kmh NW 10.9 mph17.5 kmh 29.98 in1015.2 mb 0.00 in0.0 mm 0.00 in0.0 mm 0.00 in0.0 mm
05:25 AM 79.9°F26.6°C 72.8°F22.7°C 79% 7.3 mph NW11.7 kmh NW 10.9 mph17.5 kmh 29.98 in1015.2 mb 0.00 in0.0 mm 0.00 in0.0 mm 0.00 in0.0 mm
05:26 AM 79.9°F26.6°C 72.8°F22.7°C 79% 7.3 mph NW11.7 kmh NW 10.9 mph17.5 kmh 29.98 in1015.2 mb 0.00 in0.0 mm 0.00 in0.0 mm 0.00 in0.0 mm
05:27 AM 79.9°F26.6°C 73.1°F22.8°C 80% 4.2 mph NNW6.8 kmh NNW 10.9 mph17.5 kmh 29.98 in1015.2 mb 0.00 in0.0 mm 0.00 in0.0 mm 0.00 in0.0 mm
05:28 AM 79.9°F26.6°C 72.8°F22.7°C 79% 8.3 mph NW13.4 kmh NW 10.9 mph17.5 kmh 29.98 in1015.2 mb 0.00 in0.0 mm 0.00 in0.0 mm 0.00 in0.0 mm
05:29 AM 79.9°F26.6°C 72.8°F22.7°C 79% 6.3 mph NW10.1 kmh NW 10.9 mph17.5 kmh 29.98 in1015.2 mb 0.00 in0.0 mm 0.00 in0.0 mm 0.00 in0.0 mm
05:30 AM 79.9°F26.6°C 72.8°F22.7°C 79% 5.8 mph NW9.3 kmh NW 10.4 mph16.7 kmh 29.98 in1015.2 mb 0.00 in0.0 mm 0.00 in0.0 mm 0.00 in0.0 mm
05:31 AM 79.9°F26.6°C 72.8°F22.7°C 79% 7.8 mph WNW12.6 kmh WNW 10.4 mph16.7 kmh 29.98 in1015.2 mb 0.00 in0.0 mm 0.00 in0.0 mm 0.00 in0.0 mm
05:32 AM 79.9°F26.6°C 72.8°F22.7°C 79% 5.3 mph WNW8.5 kmh WNW 10.4 mph16.7 kmh 29.98 in1015.2 mb 0.00 in0.0 mm 0.00 in0.0 mm 0.00 in0.0 mm
05:33 AM 79.9°F26.6°C 72.8°F22.7°C 79% 1.7 mph NNW2.7 kmh NNW 10.4 mph16.7 kmh 29.98 in1015.2 mb 0.00 in0.0 mm 0.00 in0.0 mm 0.00 in0.0 mm
05:34 AM 79.9°F26.6°C 72.8°F22.7°C 79% Calm Calm 8.3 mph13.4 kmh 29.98 in1015.2 mb 0.00 in0.0 mm 0.00 in0.0 mm 0.00 in0.0 mm
05:35 AM 79.7°F26.5°C 72.6°F22.6°C 79% 1.7 mph NNW2.7 kmh NNW 8.3 mph13.4 kmh 29.98 in1015.2 mb 0.00 in0.0 mm 0.00 in0.0 mm 0.00 in0.0 mm
05:36 AM 79.7°F26.5°C 72.6°F22.6°C 79% Calm Calm 8.3 mph13.4 kmh 29.98 in1015.2 mb 0.00 in0.0 mm 0.00 in0.0 mm 0.00 in0.0 mm
05:37 AM 79.5°F26.4°C 72.4°F22.4°C 79% 6.3 mph NNW10.1 kmh NNW 8.3 mph13.4 kmh 29.98 in1015.2 mb 0.00 in0.0 mm 0.00 in0.0 mm 0.00 in0.0 mm
05:38 AM 79.5°F26.4°C 72.4°F22.4°C 79% 1.1 mph NNW1.8 kmh NNW 8.3 mph13.4 kmh 29.98 in1015.2 mb 0.00 in0.0 mm 0.00 in0.0 mm 0.00 in0.0 mm
05:39 AM 79.5°F26.4°C 72.4°F22.4°C 79% 4.7 mph N7.6 kmh N 7.8 mph12.6 kmh 29.98 in1015.2 mb 0.00 in0.0 mm 0.00 in0.0 mm 0.00 in0.0 mm
05:40 AM 79.5°F26.4°C 72.4°F22.4°C 79% 6.8 mph NNW10.9 kmh NNW 7.8 mph12.6 kmh 29.98 in1015.2 mb 0.00 in0.0 mm 0.00 in0.0 mm 0.00 in0.0 mm
05:41 AM 79.3°F26.3°C 72.2°F22.3°C 79% Calm Calm 6.8 mph10.9 kmh 29.98 in1015.2 mb 0.00 in0.0 mm 0.00 in0.0 mm 0.00 in0.0 mm
05:42 AM 79.3°F26.3°C 72.2°F22.3°C 79% 3.2 mph WNW5.1 kmh WNW 6.8 mph10.9 kmh 29.98 in1015.2 mb 0.00 in0.0 mm 0.00 in0.0 mm 0.00 in0.0 mm
05:43 AM 79.3°F26.3°C 72.2°F22.3°C 79% 4.2 mph NW6.8 kmh NW 6.8 mph10.9 kmh 29.98 in1015.2 mb 0.00 in0.0 mm 0.00 in0.0 mm 0.00 in0.0 mm
05:44 AM 79.3°F26.3°C 72.6°F22.6°C 80% 4.7 mph NNW7.6 kmh NNW 6.8 mph10.9 kmh 29.98 in1015.2 mb 0.00 in0.0 mm 0.00 in0.0 mm 0.00 in0.0 mm
05:45 AM 79.3°F26.3°C 72.6°F22.6°C 80% 6.8 mph NW10.9 kmh NW 6.8 mph10.9 kmh 29.98 in1015.2 mb 0.00 in0.0 mm 0.00 in0.0 mm 0.00 in0.0 mm
05:46 AM 79.3°F26.3°C 72.6°F22.6°C 80% 6.3 mph NNW10.1 kmh NNW 6.8 mph10.9 kmh 29.98 in1015.2 mb 0.00 in0.0 mm 0.00 in0.0 mm 0.00 in0.0 mm
05:47 AM 79.3°F26.3°C 72.6°F22.6°C 80% 5.8 mph NW9.3 kmh NW 6.8 mph10.9 kmh 29.98 in1015.2 mb 0.00 in0.0 mm 0.00 in0.0 mm 0.00 in0.0 mm
05:48 AM 79.3°F26.3°C 72.6°F22.6°C 80% 6.3 mph NW10.1 kmh NW 8.3 mph13.4 kmh 29.98 in1015.2 mb 0.00 in0.0 mm 0.00 in0.0 mm 0.00 in0.0 mm
05:49 AM 79.3°F26.3°C 72.6°F22.6°C 80% 7.3 mph NW11.7 kmh NW 8.3 mph13.4 kmh 29.98 in1015.2 mb 0.00 in0.0 mm 0.00 in0.0 mm 0.00 in0.0 mm
05:50 AM 79.3°F26.3°C 72.6°F22.6°C 80% 6.8 mph NW10.9 kmh NW 8.3 mph13.4 kmh 29.98 in1015.2 mb 0.00 in0.0 mm 0.00 in0.0 mm 0.00 in0.0 mm
05:51 AM 79.5°F26.4°C 73.2°F22.9°C 81% 7.3 mph NW11.7 kmh NW 8.3 mph13.4 kmh 29.98 in1015.2 mb 0.00 in0.0 mm 0.00 in0.0 mm 0.00 in0.0 mm
05:52 AM 79.5°F26.4°C 72.8°F22.7°C 80% 7.3 mph NW11.7 kmh NW 8.3 mph13.4 kmh 29.98 in1015.2 mb 0.00 in0.0 mm 0.00 in0.0 mm 0.00 in0.0 mm
05:53 AM 79.5°F26.4°C 72.8°F22.7°C 80% 7.3 mph NW11.7 kmh NW 8.3 mph13.4 kmh 29.98 in1015.2 mb 0.00 in0.0 mm 0.00 in0.0 mm 0.00 in0.0 mm
05:54 AM 79.5°F26.4°C 72.4°F22.4°C 79% 7.3 mph WNW11.7 kmh WNW 8.9 mph14.3 kmh 29.98 in1015.2 mb 0.00 in0.0 mm 0.00 in0.0 mm 0.00 in0.0 mm
05:55 AM 79.7°F26.5°C 72.6°F22.6°C 79% 8.3 mph WNW13.4 kmh WNW 9.9 mph15.9 kmh 29.98 in1015.2 mb 0.00 in0.0 mm 0.00 in0.0 mm 0.00 in0.0 mm
05:56 AM 79.7°F26.5°C 72.6°F22.6°C 79% 7.8 mph NW12.6 kmh NW 9.9 mph15.9 kmh 29.98 in1015.2 mb 0.00 in0.0 mm 0.00 in0.0 mm 0.00 in0.0 mm
05:57 AM 79.7°F26.5°C 72.6°F22.6°C 79% 8.3 mph WNW13.4 kmh WNW 9.9 mph15.9 kmh 29.98 in1015.2 mb 0.00 in0.0 mm 0.00 in0.0 mm 0.00 in0.0 mm
05:58 AM 79.7°F26.5°C 73.0°F22.8°C 80% 7.3 mph NW11.7 kmh NW 9.9 mph15.9 kmh 29.98 in1015.2 mb 0.00 in0.0 mm 0.00 in0.0 mm 0.00 in0.0 mm
05:59 AM 79.9°F26.6°C 73.1°F22.8°C 80% 8.3 mph NW13.4 kmh NW 9.9 mph15.9 kmh 29.98 in1015.2 mb 0.00 in0.0 mm 0.00 in0.0 mm 0.00 in0.0 mm
06:00 AM 79.9°F26.6°C 73.5°F23.1°C 81% 8.3 mph NW13.4 kmh NW 9.9 mph15.9 kmh 29.99 in1015.6 mb 0.00 in0.0 mm 0.00 in0.0 mm 0.00 in0.0 mm
06:01 AM 79.9°F26.6°C 73.5°F23.1°C 81% 8.9 mph NW14.3 kmh NW 9.9 mph15.9 kmh 29.99 in1015.6 mb 0.00 in0.0 mm 0.00 in0.0 mm 0.00 in0.0 mm
06:02 AM 80.1°F26.7°C 73.7°F23.2°C 81% 8.9 mph NNW14.3 kmh NNW 9.9 mph15.9 kmh 29.99 in1015.6 mb 0.00 in0.0 mm 0.00 in0.0 mm 0.00 in0.0 mm
06:03 AM 80.1°F26.7°C 73.7°F23.2°C 81% 9.4 mph NNW15.1 kmh NNW 9.9 mph15.9 kmh 29.99 in1015.6 mb 0.00 in0.0 mm 0.00 in0.0 mm 0.00 in0.0 mm
06:04 AM 80.1°F26.7°C 73.3°F22.9°C 80% 6.3 mph WNW10.1 kmh WNW 9.9 mph15.9 kmh 29.99 in1015.6 mb 0.00 in0.0 mm 0.00 in0.0 mm 0.00 in0.0 mm
06:05 AM 79.9°F26.6°C 73.1°F22.8°C 80% 5.3 mph NW8.5 kmh NW 9.9 mph15.9 kmh 29.99 in1015.6 mb 0.00 in0.0 mm 0.00 in0.0 mm 0.00 in0.0 mm
06:06 AM 79.9°F26.6°C 73.1°F22.8°C 80% 1.1 mph WNW1.8 kmh WNW 9.9 mph15.9 kmh 29.99 in1015.6 mb 0.00 in0.0 mm 0.00 in0.0 mm 0.00 in0.0 mm
06:07 AM 79.9°F26.6°C 73.1°F22.8°C 80% 2.7 mph N4.3 kmh N 9.9 mph15.9 kmh 29.99 in1015.6 mb 0.00 in0.0 mm 0.00 in0.0 mm 0.00 in0.0 mm
06:08 AM 79.9°F26.6°C 72.8°F22.7°C 79% 4.7 mph N7.6 kmh N 9.4 mph15.1 kmh 29.99 in1015.6 mb 0.00 in0.0 mm 0.00 in0.0 mm 0.00 in0.0 mm
06:09 AM 79.9°F26.6°C 72.8°F22.7°C 79% 4.7 mph NW7.6 kmh NW 9.4 mph15.1 kmh 29.99 in1015.6 mb 0.00 in0.0 mm 0.00 in0.0 mm 0.00 in0.0 mm
06:10 AM 79.9°F26.6°C 72.8°F22.7°C 79% 6.8 mph NW10.9 kmh NW 9.4 mph15.1 kmh 29.99 in1015.6 mb 0.00 in0.0 mm 0.00 in0.0 mm 0.00 in0.0 mm
06:11 AM 79.9°F26.6°C 73.1°F22.8°C 80% 3.7 mph NNW6.0 kmh NNW 9.4 mph15.1 kmh 29.99 in1015.6 mb 0.00 in0.0 mm 0.00 in0.0 mm 0.00 in0.0 mm
06:12 AM 79.9°F26.6°C 73.1°F22.8°C 80% 6.3 mph NW10.1 kmh NW 9.4 mph15.1 kmh 29.99 in1015.6 mb 0.00 in0.0 mm 0.00 in0.0 mm 0.00 in0.0 mm
06:13 AM 79.9°F26.6°C 73.1°F22.8°C 80% 7.8 mph NNW12.6 kmh NNW 8.9 mph14.3 kmh 29.99 in1015.6 mb 0.00 in0.0 mm 0.00 in0.0 mm 0.00 in0.0 mm
06:14 AM 79.9°F26.6°C 73.1°F22.8°C 80% 6.8 mph NW10.9 kmh NW 8.3 mph13.4 kmh 29.99 in1015.6 mb 0.00 in0.0 mm 0.00 in0.0 mm 0.00 in0.0 mm
06:15 AM 79.9°F26.6°C 72.8°F22.7°C 79% 5.3 mph NW8.5 kmh NW 8.3 mph13.4 kmh 29.99 in1015.6 mb 0.00 in0.0 mm 0.00 in0.0 mm 0.00 in0.0 mm
06:16 AM 80.1°F26.7°C 73.3°F22.9°C 80% 5.8 mph NW9.3 kmh NW 8.3 mph13.4 kmh 29.99 in1015.6 mb 0.00 in0.0 mm 0.00 in0.0 mm 0.00 in0.0 mm
06:17 AM 80.1°F26.7°C 73.3°F22.9°C 80% 4.7 mph NNW7.6 kmh NNW 8.3 mph13.4 kmh 29.99 in1015.6 mb 0.00 in0.0 mm 0.00 in0.0 mm 0.00 in0.0 mm
06:18 AM 80.1°F26.7°C 73.3°F22.9°C 80% 5.8 mph NW9.3 kmh NW 8.3 mph13.4 kmh 29.99 in1015.6 mb 0.00 in0.0 mm 0.00 in0.0 mm 0.00 in0.0 mm
06:19 AM 80.1°F26.7°C 73.3°F22.9°C 80% 7.3 mph NW11.7 kmh NW 8.3 mph13.4 kmh 29.99 in1015.6 mb 0.00 in0.0 mm 0.00 in0.0 mm 0.00 in0.0 mm
06:20 AM 80.1°F26.7°C 73.3°F22.9°C 80% 6.8 mph WNW10.9 kmh WNW 8.3 mph13.4 kmh 29.99 in1015.6 mb 0.00 in0.0 mm 0.00 in0.0 mm 0.00 in0.0 mm
06:21 AM 80.1°F26.7°C 73.3°F22.9°C 80% 7.8 mph NW12.6 kmh NW 8.3 mph13.4 kmh 29.99 in1015.6 mb 0.00 in0.0 mm 0.00 in0.0 mm 0.00 in0.0 mm
06:22 AM 80.1°F26.7°C 73.7°F23.2°C 81% 7.8 mph NW12.6 kmh NW 8.3 mph13.4 kmh 29.99 in1015.6 mb 0.00 in0.0 mm 0.00 in0.0 mm 0.00 in0.0 mm
06:23 AM 80.1°F26.7°C 73.3°F22.9°C 80% 7.8 mph NW12.6 kmh NW 9.4 mph15.1 kmh 29.99 in1015.6 mb 0.00 in0.0 mm 0.00 in0.0 mm 0.00 in0.0 mm
06:24 AM 80.1°F26.7°C 73.3°F22.9°C 80% 6.8 mph NW10.9 kmh NW 9.4 mph15.1 kmh 29.99 in1015.6 mb 0.00 in0.0 mm 0.00 in0.0 mm 0.00 in0.0 mm
06:25 AM 80.1°F26.7°C 73.3°F22.9°C 80% 9.4 mph WNW15.1 kmh WNW 9.4 mph15.1 kmh 29.99 in1015.6 mb 0.00 in0.0 mm 0.00 in0.0 mm 0.00 in0.0 mm
06:26 AM 80.2°F26.8°C 73.5°F23.1°C 80% 7.8 mph WNW12.6 kmh WNW 9.4 mph15.1 kmh 29.99 in1015.6 mb 0.00 in0.0 mm 0.00 in0.0 mm 0.00 in0.0 mm
06:27 AM 80.1°F26.7°C 72.9°F22.7°C 79% 7.8 mph NW12.6 kmh NW 9.4 mph15.1 kmh 29.99 in1015.6 mb 0.00 in0.0 mm 0.00 in0.0 mm 0.00 in0.0 mm
06:28 AM 80.1°F26.7°C 72.9°F22.7°C 79% 9.4 mph NW15.1 kmh NW 9.4 mph15.1 kmh 29.99 in1015.6 mb 0.00 in0.0 mm 0.00 in0.0 mm 0.00 in0.0 mm
06:29 AM 80.1°F26.7°C 73.3°F22.9°C 80% 7.8 mph NW12.6 kmh NW 9.4 mph15.1 kmh 29.99 in1015.6 mb 0.00 in0.0 mm 0.00 in0.0 mm 0.00 in0.0 mm
06:30 AM 80.1°F26.7°C 73.3°F22.9°C 80% 7.3 mph NW11.7 kmh NW 9.4 mph15.1 kmh 29.99 in1015.6 mb 0.00 in0.0 mm 0.00 in0.0 mm 0.00 in0.0 mm
06:31 AM 80.1°F26.7°C 73.3°F22.9°C 80% 7.3 mph WNW11.7 kmh WNW 9.4 mph15.1 kmh 29.99 in1015.6 mb 0.00 in0.0 mm 0.00 in0.0 mm 0.00 in0.0 mm
06:32 AM 80.1°F26.7°C 73.3°F22.9°C 80% 6.8 mph WNW10.9 kmh WNW 9.4 mph15.1 kmh 29.99 in1015.6 mb 0.00 in0.0 mm 0.00 in0.0 mm 0.00 in0.0 mm
06:33 AM 80.1°F26.7°C 72.9°F22.7°C 79% 8.9 mph WNW14.3 kmh WNW 9.4 mph15.1 kmh 29.99 in1015.6 mb 0.00 in0.0 mm 0.00 in0.0 mm 0.00 in0.0 mm
06:34 AM 80.1°F26.7°C 72.9°F22.7°C 79% 7.3 mph NNW11.7 kmh NNW 9.4 mph15.1 kmh 29.99 in1015.6 mb 0.00 in0.0 mm 0.00 in0.0 mm 0.00 in0.0 mm
06:35 AM 80.1°F26.7°C 73.3°F22.9°C 80% 5.8 mph WNW9.3 kmh WNW 9.4 mph15.1 kmh 29.99 in1015.6 mb 0.00 in0.0 mm 0.00 in0.0 mm 0.00 in0.0 mm
06:36 AM 80.1°F26.7°C 73.3°F22.9°C 80% 8.3 mph NW13.4 kmh NW 9.4 mph15.1 kmh 29.99 in1015.6 mb 0.00 in0.0 mm 0.00 in0.0 mm 0.00 in0.0 mm
06:37 AM 80.1°F26.7°C 73.3°F22.9°C 80% 6.3 mph NW10.1 kmh NW 9.4 mph15.1 kmh 29.99 in1015.6 mb 0.00 in0.0 mm 0.00 in0.0 mm 0.00 in0.0 mm
06:38 AM 80.1°F26.7°C 73.3°F22.9°C 80% 9.9 mph WNW15.9 kmh WNW 9.9 mph15.9 kmh 29.99 in1015.6 mb 0.00 in0.0 mm 0.00 in0.0 mm 0.00 in0.0 mm
06:39 AM 80.1°F26.7°C 72.9°F22.7°C 79% 8.9 mph NW14.3 kmh NW 9.9 mph15.9 kmh 29.99 in1015.6 mb 0.00 in0.0 mm 0.00 in0.0 mm 0.00 in0.0 mm
06:40 AM 80.1°F26.7°C 72.9°F22.7°C 79% 6.3 mph WNW10.1 kmh WNW 9.9 mph15.9 kmh 29.99 in1015.6 mb 0.00 in0.0 mm 0.00 in0.0 mm 0.00 in0.0 mm
06:41 AM 80.1°F26.7°C 72.9°F22.7°C 79% 9.9 mph NW15.9 kmh NW 9.9 mph15.9 kmh 29.99 in1015.6 mb 0.00 in0.0 mm 0.00 in0.0 mm 0.00 in0.0 mm
06:42 AM 80.1°F26.7°C 72.9°F22.7°C 79% 6.8 mph NW10.9 kmh NW 9.9 mph15.9 kmh 29.99 in1015.6 mb 0.00 in0.0 mm 0.00 in0.0 mm 0.00 in0.0 mm
06:43 AM 80.1°F26.7°C 72.9°F22.7°C 79% 6.8 mph NNW10.9 kmh NNW 9.9 mph15.9 kmh 29.99 in1015.6 mb 0.00 in0.0 mm 0.00 in0.0 mm 0.00 in0.0 mm
06:44 AM 80.2°F26.8°C 73.1°F22.8°C 79% 8.3 mph WNW13.4 kmh WNW 9.9 mph15.9 kmh 29.99 in1015.6 mb 0.00 in0.0 mm 0.00 in0.0 mm 0.00 in0.0 mm
06:45 AM 80.2°F26.8°C 73.1°F22.8°C 79% 7.3 mph WNW11.7 kmh WNW 9.9 mph15.9 kmh 29.99 in1015.6 mb 0.00 in0.0 mm 0.00 in0.0 mm 0.00 in0.0 mm
06:46 AM 80.2°F26.8°C 73.5°F23.1°C 80% 8.3 mph WNW13.4 kmh WNW 9.9 mph15.9 kmh 29.99 in1015.6 mb 0.00 in0.0 mm 0.00 in0.0 mm 0.00 in0.0 mm
06:47 AM 80.2°F26.8°C 73.1°F22.8°C 79% 7.3 mph WNW11.7 kmh WNW 9.9 mph15.9 kmh 29.99 in1015.6 mb 0.00 in0.0 mm 0.00 in0.0 mm 0.00 in0.0 mm
06:48 AM 80.2°F26.8°C 73.1°F22.8°C 79% 6.8 mph WNW10.9 kmh WNW 9.9 mph15.9 kmh 29.99 in1015.6 mb 0.00 in0.0 mm 0.00 in0.0 mm 0.00 in0.0 mm
06:49 AM 80.2°F26.8°C 73.1°F22.8°C 79% 7.8 mph WNW12.6 kmh WNW 9.9 mph15.9 kmh 30.00 in1015.9 mb 0.00 in0.0 mm 0.00 in0.0 mm 0.00 in0.0 mm
06:50 AM 80.2°F26.8°C 73.1°F22.8°C 79% 6.3 mph NW10.1 kmh NW 9.9 mph15.9 kmh 30.00 in1015.9 mb 0.00 in0.0 mm 0.00 in0.0 mm 0.00 in0.0 mm
06:51 AM 80.2°F26.8°C 73.1°F22.8°C 79% 6.8 mph NW10.9 kmh NW 9.9 mph15.9 kmh 30.00 in1015.9 mb 0.00 in0.0 mm 0.00 in0.0 mm 0.00 in0.0 mm
06:52 AM 80.2°F26.8°C 73.1°F22.8°C 79% 5.8 mph WNW9.3 kmh WNW 8.9 mph14.3 kmh 30.00 in1015.9 mb 0.00 in0.0 mm 0.00 in0.0 mm 0.00 in0.0 mm
06:53 AM 80.2°F26.8°C 73.1°F22.8°C 79% 5.3 mph WNW8.5 kmh WNW 8.9 mph14.3 kmh 30.00 in1015.9 mb 0.00 in0.0 mm 0.00 in0.0 mm 0.00 in0.0 mm
06:54 AM 80.2°F26.8°C 73.1°F22.8°C 79% 6.3 mph WNW10.1 kmh WNW 8.9 mph14.3 kmh 30.00 in1015.9 mb 0.00 in0.0 mm 0.00 in0.0 mm 0.00 in0.0 mm
06:55 AM 80.2°F26.8°C 73.1°F22.8°C 79% 7.8 mph WNW12.6 kmh WNW 8.9 mph14.3 kmh 30.00 in1015.9 mb 0.00 in0.0 mm 0.00 in0.0 mm 0.00 in0.0 mm
06:56 AM 80.2°F26.8°C 73.1°F22.8°C 79% 6.8 mph WNW10.9 kmh WNW 8.9 mph14.3 kmh 30.00 in1015.9 mb 0.00 in0.0 mm 0.00 in0.0 mm 0.00 in0.0 mm
06:57 AM 80.4°F26.9°C 73.7°F23.2°C 80% 6.8 mph WNW10.9 kmh WNW 8.9 mph14.3 kmh 30.00 in1015.9 mb 0.00 in0.0 mm 0.00 in0.0 mm 0.00 in0.0 mm
06:58 AM 80.4°F26.9°C 73.3°F22.9°C 79% 7.3 mph NW11.7 kmh NW 8.9 mph14.3 kmh 30.00 in1015.9 mb 0.00 in0.0 mm 0.00 in0.0 mm 0.00 in0.0 mm
06:59 AM 80.4°F26.9°C 72.9°F22.7°C 78% 7.3 mph NW11.7 kmh NW 8.3 mph13.4 kmh 30.00 in1015.9 mb 0.00 in0.0 mm 0.00 in0.0 mm 0.00 in0.0 mm
07:00 AM 80.4°F26.9°C 72.9°F22.7°C 78% 7.3 mph NW11.7 kmh NW 8.3 mph13.4 kmh 30.00 in1015.9 mb 0.00 in0.0 mm 0.00 in0.0 mm 0.00 in0.0 mm
07:01 AM 80.4°F26.9°C 73.3°F22.9°C 79% 7.3 mph WNW11.7 kmh WNW 8.3 mph13.4 kmh 30.00 in1015.9 mb 0.00 in0.0 mm 0.00 in0.0 mm 0.00 in0.0 mm
07:02 AM 80.4°F26.9°C 73.3°F22.9°C 79% 6.3 mph WNW10.1 kmh WNW 8.3 mph13.4 kmh 30.00 in1015.9 mb 0.00 in0.0 mm 0.00 in0.0 mm 0.00 in0.0 mm
07:03 AM 80.4°F26.9°C 73.3°F22.9°C 79% 7.3 mph NW11.7 kmh NW 8.3 mph13.4 kmh 30.00 in1015.9 mb 0.00 in0.0 mm 0.00 in0.0 mm 0.00 in0.0 mm
07:04 AM 80.4°F26.9°C 72.9°F22.7°C 78% 7.8 mph WNW12.6 kmh WNW 8.3 mph13.4 kmh 30.00 in1015.9 mb 0.00 in0.0 mm 0.00 in0.0 mm 0.00 in0.0 mm
07:05 AM 80.4°F26.9°C 72.9°F22.7°C 78% 6.3 mph NW10.1 kmh NW 8.3 mph13.4 kmh 30.00 in1015.9 mb 0.00 in0.0 mm 0.00 in0.0 mm 0.00 in0.0 mm
07:06 AM 80.4°F26.9°C 72.9°F22.7°C 78% 7.8 mph NW12.6 kmh NW 8.3 mph13.4 kmh 30.00 in1015.9 mb 0.00 in0.0 mm 0.00 in0.0 mm 0.00 in0.0 mm
07:07 AM 80.4°F26.9°C 72.9°F22.7°C 78% 6.3 mph NW10.1 kmh NW 8.3 mph13.4 kmh 30.00 in1015.9 mb 0.00 in0.0 mm 0.00 in0.0 mm 0.00 in0.0 mm
07:08 AM 80.4°F26.9°C 72.9°F22.7°C 78% 6.8 mph NW10.9 kmh NW 7.8 mph12.6 kmh 30.00 in1015.9 mb 0.00 in0.0 mm 0.00 in0.0 mm 0.00 in0.0 mm
07:09 AM 80.4°F26.9°C 72.9°F22.7°C 78% 7.3 mph NW11.7 kmh NW 7.8 mph12.6 kmh 30.00 in1015.9 mb 0.00 in0.0 mm 0.00 in0.0 mm 0.00 in0.0 mm
07:10 AM 80.4°F26.9°C 72.9°F22.7°C 78% 6.8 mph NNW10.9 kmh NNW 7.8 mph12.6 kmh 30.00 in1015.9 mb 0.00 in0.0 mm 0.00 in0.0 mm 0.00 in0.0 mm
07:11 AM 80.4°F26.9°C 72.9°F22.7°C 78% 6.8 mph NW10.9 kmh NW 7.8 mph12.6 kmh 30.00 in1015.9 mb 0.00 in0.0 mm 0.00 in0.0 mm 0.00 in0.0 mm
07:12 AM 80.6°F27.0°C 73.1°F22.8°C 78% 5.3 mph WNW8.5 kmh WNW 7.8 mph12.6 kmh 30.00 in1015.9 mb 0.00 in0.0 mm 0.00 in0.0 mm 0.00 in0.0 mm
07:13 AM 80.6°F27.0°C 73.1°F22.8°C 78% 7.3 mph WNW11.7 kmh WNW 7.8 mph12.6 kmh 30.00 in1015.9 mb 0.00 in0.0 mm 0.00 in0.0 mm 0.00 in0.0 mm
07:14 AM 80.6°F27.0°C 73.1°F22.8°C 78% 5.3 mph NW8.5 kmh NW 7.8 mph12.6 kmh 30.00 in1015.9 mb 0.00 in0.0 mm 0.00 in0.0 mm 0.00 in0.0 mm
07:15 AM 80.6°F27.0°C 73.1°F22.8°C 78% 6.3 mph NW10.1 kmh NW 7.8 mph12.6 kmh 30.00 in1015.9 mb 0.00 in0.0 mm 0.00 in0.0 mm 0.00 in0.0 mm
07:16 AM 80.6°F27.0°C 73.1°F22.8°C 78% 6.8 mph NW10.9 kmh NW 7.8 mph12.6 kmh 30.00 in1015.9 mb 0.00 in0.0 mm 0.00 in0.0 mm 0.00 in0.0 mm
07:17 AM 80.6°F27.0°C 72.7°F22.6°C 77% 6.3 mph NW10.1 kmh NW 7.8 mph12.6 kmh 30.00 in1015.9 mb 0.00 in0.0 mm 0.00 in0.0 mm 0.00 in0.0 mm
07:18 AM 80.6°F27.0°C 72.7°F22.6°C 77% 4.7 mph NW7.6 kmh NW 7.8 mph12.6 kmh 30.00 in1015.9 mb 0.00 in0.0 mm 0.00 in0.0 mm 0.00 in0.0 mm
07:19 AM 80.6°F27.0°C 73.1°F22.8°C 78% 6.3 mph NW10.1 kmh NW 7.8 mph12.6 kmh 30.00 in1015.9 mb 0.00 in0.0 mm 0.00 in0.0 mm 0.00 in0.0 mm
07:20 AM 80.6°F27.0°C 73.1°F22.8°C 78% 5.8 mph WNW9.3 kmh WNW 7.8 mph12.6 kmh 30.00 in1015.9 mb 0.00 in0.0 mm 0.00 in0.0 mm 0.00 in0.0 mm
07:21 AM 80.6°F27.0°C 72.7°F22.6°C 77% 4.7 mph WNW7.6 kmh WNW 7.8 mph12.6 kmh 30.00 in1015.9 mb 0.00 in0.0 mm 0.00 in0.0 mm 0.00 in0.0 mm
07:22 AM 80.6°F27.0°C 72.7°F22.6°C 77% 4.7 mph NW7.6 kmh NW 7.8 mph12.6 kmh 30.00 in1015.9 mb 0.00 in0.0 mm 0.00 in0.0 mm 0.00 in0.0 mm
07:23 AM 80.6°F27.0°C 72.7°F22.6°C 77% 6.3 mph NW10.1 kmh NW 7.8 mph12.6 kmh 30.00 in1015.9 mb 0.00 in0.0 mm 0.00 in0.0 mm 0.00 in0.0 mm
07:24 AM 80.6°F27.0°C 72.7°F22.6°C 77% 5.8 mph NNW9.3 kmh NNW 7.8 mph12.6 kmh 30.00 in1015.9 mb 0.00 in0.0 mm 0.00 in0.0 mm 0.00 in0.0 mm
07:25 AM 80.6°F27.0°C 72.7°F22.6°C 77% 6.3 mph NW10.1 kmh NW 7.8 mph12.6 kmh 30.00 in1015.9 mb 0.00 in0.0 mm 0.00 in0.0 mm 0.00 in0.0 mm
07:26 AM 80.8°F27.1°C 72.9°F22.7°C 77% 6.3 mph NW10.1 kmh NW 6.8 mph10.9 kmh 30.00 in1015.9 mb 0.00 in0.0 mm 0.00 in0.0 mm 0.00 in0.0 mm
07:27 AM 80.8°F27.1°C 72.9°F22.7°C 77% 7.8 mph NW12.6 kmh NW 7.8 mph12.6 kmh 30.00 in1015.9 mb 0.00 in0.0 mm 0.00 in0.0 mm 0.00 in0.0 mm
07:28 AM 81.0°F27.2°C 73.1°F22.8°C 77% 6.8 mph NW10.9 kmh NW 7.8 mph12.6 kmh 30.00 in1015.9 mb 0.00 in0.0 mm 0.00 in0.0 mm 0.00 in0.0 mm
07:29 AM 81.0°F27.2°C 72.7°F22.6°C 76% 6.3 mph NW10.1 kmh NW 7.8 mph12.6 kmh 30.00 in1015.9 mb 0.00 in0.0 mm 0.00 in0.0 mm 0.00 in0.0 mm
07:30 AM 81.1°F27.3°C 73.2°F22.9°C 77% 6.3 mph NW10.1 kmh NW 7.8 mph12.6 kmh 30.00 in1015.9 mb 0.00 in0.0 mm 0.00 in0.0 mm 0.00 in0.0 mm
07:31 AM 81.1°F27.3°C 73.2°F22.9°C 77% 4.2 mph NW6.8 kmh NW 7.8 mph12.6 kmh 30.00 in1015.9 mb 0.00 in0.0 mm 0.00 in0.0 mm 0.00 in0.0 mm
07:32 AM 81.1°F27.3°C 72.8°F22.7°C 76% 1.7 mph NW2.7 kmh NW 7.8 mph12.6 kmh 30.00 in1015.9 mb 0.00 in0.0 mm 0.00 in0.0 mm 0.00 in0.0 mm
07:33 AM 81.1°F27.3°C 72.8°F22.7°C 76% 5.8 mph NW9.3 kmh NW 7.8 mph12.6 kmh 30.00 in1015.9 mb 0.00 in0.0 mm 0.00 in0.0 mm 0.00 in0.0 mm
07:34 AM 81.1°F27.3°C 72.8°F22.7°C 76% 5.3 mph NW8.5 kmh NW 7.8 mph12.6 kmh 30.00 in1015.9 mb 0.00 in0.0 mm 0.00 in0.0 mm 0.00 in0.0 mm
07:35 AM 81.1°F27.3°C 73.2°F22.9°C 77% 6.8 mph NW10.9 kmh NW 7.8 mph12.6 kmh 30.00 in1015.9 mb 0.00 in0.0 mm 0.00 in0.0 mm 0.00 in0.0 mm
07:36 AM 81.1°F27.3°C 73.2°F22.9°C 77% 8.3 mph NW13.4 kmh NW 8.3 mph13.4 kmh 30.00 in1015.9 mb 0.00 in0.0 mm 0.00 in0.0 mm 0.00 in0.0 mm
07:37 AM 81.0°F27.2°C 72.7°F22.6°C 76% 6.8 mph NNW10.9 kmh NNW 8.3 mph13.4 kmh 30.00 in1015.9 mb 0.00 in0.0 mm 0.00 in0.0 mm 0.00 in0.0 mm
07:38 AM 81.0°F27.2°C 73.1°F22.8°C 77% 4.2 mph NNW6.8 kmh NNW 8.3 mph13.4 kmh 30.00 in1015.9 mb 0.00 in0.0 mm 0.00 in0.0 mm 0.00 in0.0 mm
07:39 AM 81.0°F27.2°C 73.1°F22.8°C 77% 6.8 mph NW10.9 kmh NW 8.3 mph13.4 kmh 30.00 in1015.9 mb 0.00 in0.0 mm 0.00 in0.0 mm 0.00 in0.0 mm
07:40 AM 81.0°F27.2°C 73.1°F22.8°C 77% 5.8 mph WNW9.3 kmh WNW 8.3 mph13.4 kmh 30.00 in1015.9 mb 0.00 in0.0 mm 0.00 in0.0 mm 0.00 in0.0 mm
07:41 AM 81.3°F27.4°C 73.0°F22.8°C 76% 4.7 mph NW7.6 kmh NW 8.3 mph13.4 kmh 30.00 in1015.9 mb 0.00 in0.0 mm 0.00 in0.0 mm 0.00 in0.0 mm
07:42 AM 81.3°F27.4°C 73.0°F22.8°C 76% 5.8 mph NW9.3 kmh NW 8.3 mph13.4 kmh 30.00 in1015.9 mb 0.00 in0.0 mm 0.00 in0.0 mm 0.00 in0.0 mm
07:43 AM 81.5°F27.5°C 73.2°F22.9°C 76% 5.8 mph WNW9.3 kmh WNW 8.3 mph13.4 kmh 30.00 in1015.9 mb 0.00 in0.0 mm 0.00 in0.0 mm 0.00 in0.0 mm
07:44 AM 81.7°F27.6°C 73.4°F23.0°C 76% 4.7 mph WNW7.6 kmh WNW 8.3 mph13.4 kmh 30.00 in1015.9 mb 0.00 in0.0 mm 0.00 in0.0 mm 0.00 in0.0 mm
07:45 AM 81.7°F27.6°C 73.4°F23.0°C 76% 4.7 mph NW7.6 kmh NW 8.3 mph13.4 kmh 30.00 in1015.9 mb 0.00 in0.0 mm 0.00 in0.0 mm 0.00 in0.0 mm
07:46 AM 81.7°F27.6°C 73.0°F22.8°C 75% 6.3 mph NNW10.1 kmh NNW 8.3 mph13.4 kmh 30.00 in1015.9 mb 0.00 in0.0 mm 0.00 in0.0 mm 0.00 in0.0 mm
07:47 AM 81.7°F27.6°C 73.0°F22.8°C 75% 4.7 mph NW7.6 kmh NW 7.8 mph12.6 kmh 30.00 in1015.9 mb 0.00 in0.0 mm 0.00 in0.0 mm 0.00 in0.0 mm
07:48 AM 81.7°F27.6°C 73.0°F22.8°C 75% 3.7 mph NW6.0 kmh NW 7.8 mph12.6 kmh 30.00 in1015.9 mb 0.00 in0.0 mm 0.00 in0.0 mm 0.00 in0.0 mm
07:49 AM 81.7°F27.6°C 73.0°F22.8°C 75% 4.7 mph NW7.6 kmh NW 7.8 mph12.6 kmh 30.00 in1015.9 mb 0.00 in0.0 mm 0.00 in0.0 mm 0.00 in0.0 mm
07:50 AM 81.5°F27.5°C 72.8°F22.7°C 75% 5.3 mph NW8.5 kmh NW 7.8 mph12.6 kmh 30.00 in1015.9 mb 0.00 in0.0 mm 0.00 in0.0 mm 0.00 in0.0 mm
07:51 AM 81.5°F27.5°C 73.2°F22.9°C 76% 5.3 mph NW8.5 kmh NW 7.8 mph12.6 kmh 30.00 in1015.9 mb 0.00 in0.0 mm 0.00 in0.0 mm 0.00 in0.0 mm
07:52 AM 81.5°F27.5°C 73.2°F22.9°C 76% 5.8 mph NNW9.3 kmh NNW 7.8 mph12.6 kmh 30.00 in1015.9 mb 0.00 in0.0 mm 0.00 in0.0 mm 0.00 in0.0 mm
07:53 AM 81.5°F27.5°C 72.8°F22.7°C 75% 4.7 mph NW7.6 kmh NW 7.8 mph12.6 kmh 30.00 in1015.9 mb 0.00 in0.0 mm 0.00 in0.0 mm 0.00 in0.0 mm
07:54 AM 81.5°F27.5°C 72.8°F22.7°C 75% 6.3 mph NW10.1 kmh NW 7.8 mph12.6 kmh 30.00 in1015.9 mb 0.00 in0.0 mm 0.00 in0.0 mm 0.00 in0.0 mm
07:55 AM 81.9°F27.7°C 72.7°F22.6°C 74% 4.7 mph WNW7.6 kmh WNW 7.8 mph12.6 kmh 30.00 in1015.9 mb 0.00 in0.0 mm 0.00 in0.0 mm 0.00 in0.0 mm
07:56 AM 82.0°F27.8°C 72.9°F22.7°C 74% 4.2 mph WNW6.8 kmh WNW 7.8 mph12.6 kmh 30.00 in1015.9 mb 0.00 in0.0 mm 0.00 in0.0 mm 0.00 in0.0 mm
07:57 AM 82.2°F27.9°C 73.1°F22.8°C 74% 4.2 mph NW6.8 kmh NW 6.3 mph10.1 kmh 30.00 in1015.9 mb 0.00 in0.0 mm 0.00 in0.0 mm 0.00 in0.0 mm
07:58 AM 82.4°F28.0°C 73.3°F22.9°C 74% 5.8 mph NW9.3 kmh NW 6.3 mph10.1 kmh 30.00 in1015.9 mb 0.00 in0.0 mm 0.00 in0.0 mm 0.00 in0.0 mm
07:59 AM 82.6°F28.1°C 73.0°F22.8°C 73% 5.3 mph NW8.5 kmh NW 6.3 mph10.1 kmh 30.00 in1015.9 mb 0.00 in0.0 mm 0.00 in0.0 mm 0.00 in0.0 mm
08:00 AM 82.6°F28.1°C 73.4°F23.0°C 74% 3.7 mph NW6.0 kmh NW 6.3 mph10.1 kmh 30.00 in1015.9 mb 0.00 in0.0 mm 0.00 in0.0 mm 0.00 in0.0 mm
08:01 AM 82.8°F28.2°C 73.6°F23.1°C 74% 3.2 mph NW5.1 kmh NW 6.3 mph10.1 kmh 30.00 in1015.9 mb 0.00 in0.0 mm 0.00 in0.0 mm 0.00 in0.0 mm
08:02 AM 82.9°F28.3°C 73.8°F23.2°C 74% 3.2 mph NW5.1 kmh NW 6.3 mph10.1 kmh 30.00 in1015.9 mb 0.00 in0.0 mm 0.00 in0.0 mm 0.00 in0.0 mm
08:03 AM 82.9°F28.3°C 73.8°F23.2°C 74% Calm Calm 6.3 mph10.1 kmh 30.00 in1015.9 mb 0.00 in0.0 mm 0.00 in0.0 mm 0.00 in0.0 mm
08:04 AM 83.1°F28.4°C 74.0°F23.3°C 74% 5.3 mph NW8.5 kmh NW 6.3 mph10.1 kmh 30.00 in1015.9 mb 0.00 in0.0 mm 0.00 in0.0 mm 0.00 in0.0 mm
08:05 AM 83.1°F28.4°C 74.0°F23.3°C 74% 4.2 mph WNW6.8 kmh WNW 6.3 mph10.1 kmh 30.00 in1015.9 mb 0.00 in0.0 mm 0.00 in0.0 mm 0.00 in0.0 mm
08:06 AM 83.5°F28.6°C 73.9°F23.3°C 73% 4.7 mph NW7.6 kmh NW 6.3 mph10.1 kmh 30.00 in1015.9 mb 0.00 in0.0 mm 0.00 in0.0 mm 0.00 in0.0 mm
08:07 AM 83.5°F28.6°C 73.9°F23.3°C 73% 4.2 mph WNW6.8 kmh WNW 6.3 mph10.1 kmh 30.00 in1015.9 mb 0.00 in0.0 mm 0.00 in0.0 mm 0.00 in0.0 mm
08:08 AM 83.5°F28.6°C 73.9°F23.3°C 73% 3.7 mph WNW6.0 kmh WNW 6.3 mph10.1 kmh 30.00 in1015.9 mb 0.00 in0.0 mm 0.00 in0.0 mm 0.00 in0.0 mm
08:09 AM 83.7°F28.7°C 74.1°F23.4°C 73% 5.8 mph WNW9.3 kmh WNW 6.3 mph10.1 kmh 30.00 in1015.9 mb 0.00 in0.0 mm 0.00 in0.0 mm 0.00 in0.0 mm
08:10 AM 83.8°F28.8°C 74.2°F23.4°C 73% 5.3 mph NW8.5 kmh NW 6.8 mph10.9 kmh 30.00 in1015.9 mb 0.00 in0.0 mm 0.00 in0.0 mm 0.00 in0.0 mm
08:11 AM 83.8°F28.8°C 73.8°F23.2°C 72% 5.3 mph WNW8.5 kmh WNW 6.8 mph10.9 kmh 30.00 in1015.9 mb 0.00 in0.0 mm 0.00 in0.0 mm 0.00 in0.0 mm
08:12 AM 84.2°F29.0°C 74.2°F23.4°C 72% 5.3 mph WNW8.5 kmh WNW 6.8 mph10.9 kmh 30.00 in1015.9 mb 0.00 in0.0 mm 0.00 in0.0 mm 0.00 in0.0 mm
08:13 AM 84.2°F29.0°C 74.2°F23.4°C 72% 4.7 mph WNW7.6 kmh WNW 6.8 mph10.9 kmh 30.01 in1016.3 mb 0.00 in0.0 mm 0.00 in0.0 mm 0.00 in0.0 mm
08:14 AM 84.2°F29.0°C 74.2°F23.4°C 72% 4.7 mph NW7.6 kmh NW 6.8 mph10.9 kmh 30.01 in1016.3 mb 0.00 in0.0 mm 0.00 in0.0 mm 0.00 in0.0 mm
08:15 AM 84.4°F29.1°C 74.8°F23.8°C 73% 4.7 mph WNW7.6 kmh WNW 6.8 mph10.9 kmh 30.01 in1016.3 mb 0.00 in0.0 mm 0.00 in0.0 mm 0.00 in0.0 mm
08:16 AM 84.6°F29.2°C 74.5°F23.6°C 72% 4.7 mph WNW7.6 kmh WNW 6.8 mph10.9 kmh 30.01 in1016.3 mb 0.00 in0.0 mm 0.00 in0.0 mm 0.00 in0.0 mm
08:17 AM 84.6°F29.2°C 74.5°F23.6°C 72% 4.7 mph WNW7.6 kmh WNW 6.8 mph10.9 kmh 30.01 in1016.3 mb 0.00 in0.0 mm 0.00 in0.0 mm 0.00 in0.0 mm
08:18 AM 84.6°F29.2°C 74.5°F23.6°C 72% Calm Calm 6.8 mph10.9 kmh 30.01 in1016.3 mb 0.00 in0.0 mm 0.00 in0.0 mm 0.00 in0.0 mm
08:19 AM 84.6°F29.2°C 74.5°F23.6°C 72% 3.7 mph WNW6.0 kmh WNW 6.8 mph10.9 kmh 30.01 in1016.3 mb 0.00 in0.0 mm 0.00 in0.0 mm 0.00 in0.0 mm
08:20 AM 84.7°F29.3°C 74.7°F23.7°C 72% 4.7 mph NW7.6 kmh NW 5.8 mph9.3 kmh 30.01 in1016.3 mb 0.00 in0.0 mm 0.00 in0.0 mm 0.00 in0.0 mm
08:21 AM 84.9°F29.4°C 74.4°F23.6°C 71% 4.7 mph WNW7.6 kmh WNW 5.8 mph9.3 kmh 30.01 in1016.3 mb 0.00 in0.0 mm 0.00 in0.0 mm 0.00 in0.0 mm
08:22 AM 85.1°F29.5°C 75.0°F23.9°C 72% 4.7 mph WNW7.6 kmh WNW 5.8 mph9.3 kmh 30.01 in1016.3 mb 0.00 in0.0 mm 0.00 in0.0 mm 0.00 in0.0 mm
08:23 AM 85.1°F29.5°C 74.6°F23.7°C 71% 3.2 mph WNW5.1 kmh WNW 5.8 mph9.3 kmh 30.01 in1016.3 mb 0.00 in0.0 mm 0.00 in0.0 mm 0.00 in0.0 mm
08:24 AM 85.1°F29.5°C 74.6°F23.7°C 71% 4.2 mph WNW6.8 kmh WNW 5.8 mph9.3 kmh 30.01 in1016.3 mb 0.00 in0.0 mm 0.00 in0.0 mm 0.00 in0.0 mm
08:25 AM 85.5°F29.7°C 74.1°F23.4°C 69% 4.2 mph WNW6.8 kmh WNW 5.3 mph8.5 kmh 30.01 in1016.3 mb 0.00 in0.0 mm 0.00 in0.0 mm 0.00 in0.0 mm
08:26 AM 85.5°F29.7°C 74.5°F23.6°C 70% 4.7 mph WNW7.6 kmh WNW 5.3 mph8.5 kmh 30.01 in1016.3 mb 0.00 in0.0 mm 0.00 in0.0 mm 0.00 in0.0 mm
08:27 AM 85.5°F29.7°C 74.5°F23.6°C 70% 4.7 mph NW7.6 kmh NW 5.3 mph8.5 kmh 30.01 in1016.3 mb 0.00 in0.0 mm 0.00 in0.0 mm 0.00 in0.0 mm
08:28 AM 85.6°F29.8°C 74.7°F23.7°C 70% 5.3 mph WNW8.5 kmh WNW 5.3 mph8.5 kmh 30.01 in1016.3 mb 0.00 in0.0 mm 0.00 in0.0 mm 0.00 in0.0 mm
08:29 AM 85.8°F29.9°C 74.9°F23.8°C 70% 4.7 mph W7.6 kmh W 5.3 mph8.5 kmh 30.01 in1016.3 mb 0.00 in0.0 mm 0.00 in0.0 mm 0.00 in0.0 mm
08:30 AM 86.0°F30.0°C 75.0°F23.9°C 70% 3.7 mph WNW6.0 kmh WNW 5.3 mph8.5 kmh 30.01 in1016.3 mb 0.00 in0.0 mm 0.00 in0.0 mm 0.00 in0.0 mm
08:31 AM 86.0°F30.0°C 75.0°F23.9°C 70% 5.3 mph WNW8.5 kmh WNW 5.3 mph8.5 kmh 30.01 in1016.3 mb 0.00 in0.0 mm 0.00 in0.0 mm 0.00 in0.0 mm
08:32 AM 86.0°F30.0°C 74.6°F23.7°C 69% 4.2 mph WNW6.8 kmh WNW 5.3 mph8.5 kmh 30.01 in1016.3 mb 0.00 in0.0 mm 0.00 in0.0 mm 0.00 in0.0 mm
08:33 AM 86.2°F30.1°C 74.8°F23.8°C 69% 4.7 mph WNW7.6 kmh WNW 5.3 mph8.5 kmh 30.01 in1016.3 mb 0.00 in0.0 mm 0.00 in0.0 mm 0.00 in0.0 mm
08:34 AM 86.2°F30.1°C 74.8°F23.8°C 69% 4.2 mph WNW6.8 kmh WNW 5.3 mph8.5 kmh 30.01 in1016.3 mb 0.00 in0.0 mm 0.00 in0.0 mm 0.00 in0.0 mm
08:35 AM 86.2°F30.1°C 74.8°F23.8°C 69% 4.2 mph WNW6.8 kmh WNW 5.3 mph8.5 kmh 30.01 in1016.3 mb 0.00 in0.0 mm 0.00 in0.0 mm 0.00 in0.0 mm
08:36 AM 86.4°F30.2°C 75.0°F23.9°C 69% 4.7 mph WNW7.6 kmh WNW 5.3 mph8.5 kmh 30.01 in1016.3 mb 0.00 in0.0 mm 0.00 in0.0 mm 0.00 in0.0 mm
08:37 AM 86.4°F30.2°C 75.0°F23.9°C 69% 2.7 mph WNW4.3 kmh WNW 5.3 mph8.5 kmh 30.01 in1016.3 mb 0.00 in0.0 mm 0.00 in0.0 mm 0.00 in0.0 mm
08:38 AM 86.4°F30.2°C 75.0°F23.9°C 69% 4.7 mph WNW7.6 kmh WNW 5.3 mph8.5 kmh 30.01 in1016.3 mb 0.00 in0.0 mm 0.00 in0.0 mm 0.00 in0.0 mm
08:39 AM 86.4°F30.2°C 75.0°F23.9°C 69% 3.2 mph WNW5.1 kmh WNW 5.3 mph8.5 kmh 30.01 in1016.3 mb 0.00 in0.0 mm 0.00 in0.0 mm 0.00 in0.0 mm
08:40 AM 86.4°F30.2°C 75.0°F23.9°C 69% 1.1 mph WNW1.8 kmh WNW 5.3 mph8.5 kmh 30.01 in1016.3 mb 0.00 in0.0 mm 0.00 in0.0 mm 0.00 in0.0 mm
08:41 AM 86.4°F30.2°C 75.0°F23.9°C 69% 3.7 mph WNW6.0 kmh WNW 5.3 mph8.5 kmh 30.01 in1016.3 mb 0.00 in0.0 mm 0.00 in0.0 mm 0.00 in0.0 mm
08:42 AM 86.4°F30.2°C 75.0°F23.9°C 69% 3.7 mph WNW6.0 kmh WNW 5.3 mph8.5 kmh 30.01 in1016.3 mb 0.00 in0.0 mm 0.00 in0.0 mm 0.00 in0.0 mm
08:43 AM 86.7°F30.4°C 74.9°F23.8°C 68% 2.7 mph WNW4.3 kmh WNW 5.3 mph8.5 kmh 30.01 in1016.3 mb 0.00 in0.0 mm 0.00 in0.0 mm 0.00 in0.0 mm
08:44 AM 86.4°F30.2°C 75.0°F23.9°C 69% Calm Calm 5.3 mph8.5 kmh 30.01 in1016.3 mb 0.00 in0.0 mm 0.00 in0.0 mm 0.00 in0.0 mm
08:45 AM 86.4°F30.2°C 75.4°F24.1°C 70% Calm Calm 5.3 mph8.5 kmh 30.01 in1016.3 mb 0.00 in0.0 mm 0.00 in0.0 mm 0.00 in0.0 mm
08:46 AM 86.4°F30.2°C 75.4°F24.1°C 70% 2.7 mph W4.3 kmh W 5.3 mph8.5 kmh 30.01 in1016.3 mb 0.00 in0.0 mm 0.00 in0.0 mm 0.00 in0.0 mm
08:47 AM 86.5°F30.3°C 75.1°F23.9°C 69% 1.7 mph W2.7 kmh W 4.7 mph7.6 kmh 30.01 in1016.3 mb 0.00 in0.0 mm 0.00 in0.0 mm 0.00 in0.0 mm
08:48 AM 86.5°F30.3°C 75.1°F23.9°C 69% Calm Calm 4.7 mph7.6 kmh 30.01 in1016.3 mb 0.00 in0.0 mm 0.00 in0.0 mm 0.00 in0.0 mm
08:49 AM 86.5°F30.3°C 75.6°F24.2°C 70% 1.1 mph WNW1.8 kmh WNW 4.7 mph7.6 kmh 30.01 in1016.3 mb 0.00 in0.0 mm 0.00 in0.0 mm 0.00 in0.0 mm
08:50 AM 86.7°F30.4°C 75.7°F24.3°C 70% Calm Calm 4.7 mph7.6 kmh 30.01 in1016.3 mb 0.00 in0.0 mm 0.00 in0.0 mm 0.00 in0.0 mm
08:51 AM 86.7°F30.4°C 75.3°F24.1°C 69% Calm Calm 4.7 mph7.6 kmh 30.01 in1016.3 mb 0.00 in0.0 mm 0.00 in0.0 mm 0.00 in0.0 mm
08:52 AM 86.7°F30.4°C 75.7°F24.3°C 70% Calm Calm 4.7 mph7.6 kmh 30.01 in1016.3 mb 0.00 in0.0 mm 0.00 in0.0 mm 0.00 in0.0 mm
08:53 AM 86.9°F30.5°C 75.5°F24.2°C 69% Calm Calm 3.7 mph6.0 kmh 30.01 in1016.3 mb 0.00 in0.0 mm 0.00 in0.0 mm 0.00 in0.0 mm
08:54 AM 86.9°F30.5°C 75.0°F23.9°C 68% Calm Calm 3.7 mph6.0 kmh 30.01 in1016.3 mb 0.00 in0.0 mm 0.00 in0.0 mm 0.00 in0.0 mm
08:55 AM 86.9°F30.5°C 75.5°F24.2°C 69% Calm Calm 3.7 mph6.0 kmh 30.01 in1016.3 mb 0.00 in0.0 mm 0.00 in0.0 mm 0.00 in0.0 mm
08:56 AM 87.1°F30.6°C 75.6°F24.2°C 69% Calm Calm 3.2 mph5.1 kmh 30.01 in1016.3 mb 0.00 in0.0 mm 0.00 in0.0 mm 0.00 in0.0 mm
08:57 AM 87.3°F30.7°C 75.8°F24.3°C 69% 2.2 mph W3.5 kmh W 2.7 mph4.3 kmh 30.01 in1016.3 mb 0.00 in0.0 mm 0.00 in0.0 mm 0.00 in0.0 mm
08:58 AM 87.6°F30.9°C 75.7°F24.3°C 68% 2.7 mph W4.3 kmh W 2.7 mph4.3 kmh 30.01 in1016.3 mb 0.00 in0.0 mm 0.00 in0.0 mm 0.00 in0.0 mm
08:59 AM 87.6°F30.9°C 75.7°F24.3°C 68% Calm Calm 2.7 mph4.3 kmh 30.01 in1016.3 mb 0.00 in0.0 mm 0.00 in0.0 mm 0.00 in0.0 mm
09:00 AM 87.1°F30.6°C 76.1°F24.5°C 70% Calm Calm 2.7 mph4.3 kmh 30.01 in1016.3 mb 0.00 in0.0 mm 0.00 in0.0 mm 0.00 in0.0 mm
09:01 AM 87.3°F30.7°C 75.8°F24.3°C 69% Calm Calm 2.7 mph4.3 kmh 30.01 in1016.3 mb 0.00 in0.0 mm 0.00 in0.0 mm 0.00 in0.0 mm
09:02 AM 87.4°F30.8°C 75.5°F24.2°C 68% Calm Calm 2.7 mph4.3 kmh 30.01 in1016.3 mb 0.00 in0.0 mm 0.00 in0.0 mm 0.00 in0.0 mm
09:03 AM 87.8°F31.0°C 75.4°F24.1°C 67% Calm Calm 2.7 mph4.3 kmh 30.01 in1016.3 mb 0.00 in0.0 mm 0.00 in0.0 mm 0.00 in0.0 mm
09:04 AM 87.8°F31.0°C 75.4°F24.1°C 67% Calm Calm 2.7 mph4.3 kmh 30.01 in1016.3 mb 0.00 in0.0 mm 0.00 in0.0 mm 0.00 in0.0 mm
09:05 AM 87.6°F30.9°C 75.3°F24.1°C 67% Calm Calm 2.7 mph4.3 kmh 30.01 in1016.3 mb 0.00 in0.0 mm 0.00 in0.0 mm 0.00 in0.0 mm
09:06 AM 87.4°F30.8°C 76.0°F24.4°C 69% Calm Calm 2.7 mph4.3 kmh 30.01 in1016.3 mb 0.00 in0.0 mm 0.00 in0.0 mm 0.00 in0.0 mm
09:07 AM 87.6°F30.9°C 75.7°F24.3°C 68% Calm Calm 2.7 mph4.3 kmh 30.01 in1016.3 mb 0.00 in0.0 mm 0.00 in0.0 mm 0.00 in0.0 mm
09:08 AM 87.8°F31.0°C 75.4°F24.1°C 67% Calm Calm 1.7 mph2.7 kmh 30.01 in1016.3 mb 0.00 in0.0 mm 0.00 in0.0 mm 0.00 in0.0 mm
09:09 AM 88.0°F31.1°C 76.1°F24.5°C 68% 1.7 mph W2.7 kmh W 1.7 mph2.7 kmh 30.01 in1016.3 mb 0.00 in0.0 mm 0.00 in0.0 mm 0.00 in0.0 mm
09:10 AM 88.2°F31.2°C 75.8°F24.3°C 67% Calm Calm 1.7 mph2.7 kmh 30.01 in1016.3 mb 0.00 in0.0 mm 0.00 in0.0 mm 0.00 in0.0 mm
09:11 AM 88.2°F31.2°C 75.3°F24.1°C 66% Calm Calm 1.7 mph2.7 kmh 30.01 in1016.3 mb 0.00 in0.0 mm 0.00 in0.0 mm 0.00 in0.0 mm
09:12 AM 88.2°F31.2°C 75.8°F24.3°C 67% 2.2 mph W3.5 kmh W 2.2 mph3.5 kmh 30.01 in1016.3 mb 0.00 in0.0 mm 0.00 in0.0 mm 0.00 in0.0 mm
09:13 AM 88.3°F31.3°C 75.5°F24.2°C 66% 1.1 mph W1.8 kmh W 3.7 mph6.0 kmh 30.01 in1016.3 mb 0.00 in0.0 mm 0.00 in0.0 mm 0.00 in0.0 mm
09:14 AM 88.2°F31.2°C 75.8°F24.3°C 67% 3.2 mph WNW5.1 kmh WNW 3.7 mph6.0 kmh 30.01 in1016.3 mb 0.00 in0.0 mm 0.00 in0.0 mm 0.00 in0.0 mm
09:15 AM 88.2°F31.2°C 75.8°F24.3°C 67% 1.1 mph W1.8 kmh W 3.7 mph6.0 kmh 30.01 in1016.3 mb 0.00 in0.0 mm 0.00 in0.0 mm 0.00 in0.0 mm
09:16 AM 88.3°F31.3°C 76.0°F24.4°C 67% 3.7 mph W6.0 kmh W 3.7 mph6.0 kmh 30.01 in1016.3 mb 0.00 in0.0 mm 0.00 in0.0 mm 0.00 in0.0 mm
09:17 AM 88.7°F31.5°C 76.3°F24.6°C 67% 1.1 mph WNW1.8 kmh WNW 3.7 mph6.0 kmh 30.01 in1016.3 mb 0.00 in0.0 mm 0.00 in0.0 mm 0.00 in0.0 mm
09:18 AM 88.3°F31.3°C 76.4°F24.7°C 68% Calm Calm 3.7 mph6.0 kmh 30.01 in1016.3 mb 0.00 in0.0 mm 0.00 in0.0 mm 0.00 in0.0 mm
09:19 AM 88.3°F31.3°C 76.0°F24.4°C 67% 2.2 mph W3.5 kmh W 3.7 mph6.0 kmh 30.01 in1016.3 mb 0.00 in0.0 mm 0.00 in0.0 mm 0.00 in0.0 mm
09:20 AM 88.3°F31.3°C 76.0°F24.4°C 67% 2.7 mph W4.3 kmh W 3.7 mph6.0 kmh 30.01 in1016.3 mb 0.00 in0.0 mm 0.00 in0.0 mm 0.00 in0.0 mm
09:21 AM 88.3°F31.3°C 76.0°F24.4°C 67% 1.7 mph W2.7 kmh W 3.7 mph6.0 kmh 30.01 in1016.3 mb 0.00 in0.0 mm 0.00 in0.0 mm 0.00 in0.0 mm
09:22 AM 88.3°F31.3°C 76.0°F24.4°C 67% 2.2 mph W3.5 kmh W 3.7 mph6.0 kmh 30.01 in1016.3 mb 0.00 in0.0 mm 0.00 in0.0 mm 0.00 in0.0 mm
09:23 AM 88.7°F31.5°C 75.8°F24.3°C 66% 3.7 mph W6.0 kmh W 3.7 mph6.0 kmh 30.01 in1016.3 mb 0.00 in0.0 mm 0.00 in0.0 mm 0.00 in0.0 mm
09:24 AM 88.7°F31.5°C 76.3°F24.6°C 67% 4.2 mph W6.8 kmh W 4.2 mph6.8 kmh 30.01 in1016.3 mb 0.00 in0.0 mm 0.00 in0.0 mm 0.00 in0.0 mm
09:25 AM 88.7°F31.5°C 76.3°F24.6°C 67% 3.2 mph WNW5.1 kmh WNW 4.2 mph6.8 kmh 30.01 in1016.3 mb 0.00 in0.0 mm 0.00 in0.0 mm 0.00 in0.0 mm
09:26 AM 88.7°F31.5°C 75.8°F24.3°C 66% 3.7 mph W6.0 kmh W 4.2 mph6.8 kmh 30.01 in1016.3 mb 0.00 in0.0 mm 0.00 in0.0 mm 0.00 in0.0 mm
09:27 AM 88.7°F31.5°C 75.8°F24.3°C 66% 1.7 mph WNW2.7 kmh WNW 4.2 mph6.8 kmh 30.01 in1016.3 mb 0.00 in0.0 mm 0.00 in0.0 mm 0.00 in0.0 mm
09:28 AM 88.9°F31.6°C 76.0°F24.4°C 66% 4.2 mph WNW6.8 kmh WNW 4.2 mph6.8 kmh 30.01 in1016.3 mb 0.00 in0.0 mm 0.00 in0.0 mm 0.00 in0.0 mm
09:29 AM 88.9°F31.6°C 75.6°F24.2°C 65% 3.2 mph WNW5.1 kmh WNW 4.2 mph6.8 kmh 30.01 in1016.3 mb 0.00 in0.0 mm 0.00 in0.0 mm 0.00 in0.0 mm
09:30 AM 88.9°F31.6°C 75.6°F24.2°C 65% 3.2 mph W5.1 kmh W 4.2 mph6.8 kmh 30.01 in1016.3 mb 0.00 in0.0 mm 0.00 in0.0 mm 0.00 in0.0 mm
09:31 AM 89.1°F31.7°C 75.7°F24.3°C 65% Calm Calm 4.2 mph6.8 kmh 30.01 in1016.3 mb 0.00 in0.0 mm 0.00 in0.0 mm 0.00 in0.0 mm
09:32 AM 89.1°F31.7°C 75.3°F24.1°C 64% 3.7 mph WNW6.0 kmh WNW 4.2 mph6.8 kmh 30.01 in1016.3 mb 0.00 in0.0 mm 0.00 in0.0 mm 0.00 in0.0 mm
09:33 AM 89.1°F31.7°C 75.3°F24.1°C 64% 2.7 mph W4.3 kmh W 4.2 mph6.8 kmh 30.01 in1016.3 mb 0.00 in0.0 mm 0.00 in0.0 mm 0.00 in0.0 mm
09:34 AM 89.4°F31.9°C 76.1°F24.5°C 65% 4.2 mph W6.8 kmh W 4.2 mph6.8 kmh 30.01 in1016.3 mb 0.00 in0.0 mm 0.00 in0.0 mm 0.00 in0.0 mm
09:35 AM 89.6°F32.0°C 76.2°F24.6°C 65% Calm Calm 4.7 mph7.6 kmh 30.01 in1016.3 mb 0.00 in0.0 mm 0.00 in0.0 mm 0.00 in0.0 mm
09:36 AM 89.6°F32.0°C 76.2°F24.6°C 65% 2.7 mph W4.3 kmh W 4.7 mph7.6 kmh 30.01 in1016.3 mb 0.00 in0.0 mm 0.00 in0.0 mm 0.00 in0.0 mm
09:37 AM 89.4°F31.9°C 76.1°F24.5°C 65% 5.3 mph WNW8.5 kmh WNW 5.3 mph8.5 kmh 30.01 in1016.3 mb 0.00 in0.0 mm 0.00 in0.0 mm 0.00 in0.0 mm
09:38 AM 89.4°F31.9°C 76.5°F24.7°C 66% 4.7 mph W7.6 kmh W 5.3 mph8.5 kmh 30.01 in1016.3 mb 0.00 in0.0 mm 0.00 in0.0 mm 0.00 in0.0 mm
09:39 AM 89.6°F32.0°C 76.2°F24.6°C 65% 4.2 mph W6.8 kmh W 5.3 mph8.5 kmh 30.01 in1016.3 mb 0.00 in0.0 mm 0.00 in0.0 mm 0.00 in0.0 mm
09:40 AM 89.4°F31.9°C 76.1°F24.5°C 65% 4.7 mph W7.6 kmh W 5.3 mph8.5 kmh 30.01 in1016.3 mb 0.00 in0.0 mm 0.00 in0.0 mm 0.00 in0.0 mm
09:41 AM 89.4°F31.9°C 76.5°F24.7°C 66% 4.7 mph WNW7.6 kmh WNW 5.3 mph8.5 kmh 30.01 in1016.3 mb 0.00 in0.0 mm 0.00 in0.0 mm 0.00 in0.0 mm
09:42 AM 89.4°F31.9°C 75.6°F24.2°C 64% 4.7 mph W7.6 kmh W 5.8 mph9.3 kmh 30.01 in1016.3 mb 0.00 in0.0 mm 0.00 in0.0 mm 0.00 in0.0 mm
09:43 AM 89.6°F32.0°C 75.8°F24.3°C 64% 4.2 mph W6.8 kmh W 5.8 mph9.3 kmh 30.01 in1016.3 mb 0.00 in0.0 mm 0.00 in0.0 mm 0.00 in0.0 mm
09:44 AM 89.6°F32.0°C 75.3°F24.1°C 63% 4.7 mph WNW7.6 kmh WNW 5.8 mph9.3 kmh 30.01 in1016.3 mb 0.00 in0.0 mm 0.00 in0.0 mm 0.00 in0.0 mm
09:45 AM 89.6°F32.0°C 75.8°F24.3°C 64% 4.7 mph WNW7.6 kmh WNW 5.8 mph9.3 kmh 30.01 in1016.3 mb 0.00 in0.0 mm 0.00 in0.0 mm 0.00 in0.0 mm
09:46 AM 89.6°F32.0°C 75.8°F24.3°C 64% 5.3 mph WNW8.5 kmh WNW 5.8 mph9.3 kmh 30.01 in1016.3 mb 0.00 in0.0 mm 0.00 in0.0 mm 0.00 in0.0 mm
09:47 AM 89.6°F32.0°C 75.3°F24.1°C 63% 4.7 mph W7.6 kmh W 5.8 mph9.3 kmh 30.01 in1016.3 mb 0.00 in0.0 mm 0.00 in0.0 mm 0.00 in0.0 mm
09:48 AM 89.6°F32.0°C 74.8°F23.8°C 62% 5.3 mph W8.5 kmh W 5.8 mph9.3 kmh 30.01 in1016.3 mb 0.00 in0.0 mm 0.00 in0.0 mm 0.00 in0.0 mm
09:49 AM 89.6°F32.0°C 74.8°F23.8°C 62% 4.2 mph W6.8 kmh W 5.8 mph9.3 kmh 30.01 in1016.3 mb 0.00 in0.0 mm 0.00 in0.0 mm 0.00 in0.0 mm
09:50 AM 89.6°F32.0°C 74.8°F23.8°C 62% 4.2 mph W6.8 kmh W 5.8 mph9.3 kmh 30.01 in1016.3 mb 0.00 in0.0 mm 0.00 in0.0 mm 0.00 in0.0 mm
09:51 AM 89.8°F32.1°C 75.0°F23.9°C 62% 4.2 mph WNW6.8 kmh WNW 5.8 mph9.3 kmh 30.01 in1016.3 mb 0.00 in0.0 mm 0.00 in0.0 mm 0.00 in0.0 mm
09:52 AM 89.8°F32.1°C 75.0°F23.9°C 62% 4.2 mph W6.8 kmh W 5.8 mph9.3 kmh 30.01 in1016.3 mb 0.00 in0.0 mm 0.00 in0.0 mm 0.00 in0.0 mm
09:53 AM 90.0°F32.2°C 75.2°F24.0°C 62% 4.7 mph W7.6 kmh W 5.8 mph9.3 kmh 30.01 in1016.3 mb 0.00 in0.0 mm 0.00 in0.0 mm 0.00 in0.0 mm
09:54 AM 90.1°F32.3°C 75.3°F24.1°C 62% 4.2 mph W6.8 kmh W 5.8 mph9.3 kmh 30.01 in1016.3 mb 0.00 in0.0 mm 0.00 in0.0 mm 0.00 in0.0 mm
09:55 AM 90.3°F32.4°C 75.0°F23.9°C 61% 4.2 mph W6.8 kmh W 5.8 mph9.3 kmh 30.01 in1016.3 mb 0.00 in0.0 mm 0.00 in0.0 mm 0.00 in0.0 mm
09:56 AM 90.5°F32.5°C 74.7°F23.7°C 60% 3.2 mph W5.1 kmh W 5.8 mph9.3 kmh 30.01 in1016.3 mb 0.00 in0.0 mm 0.00 in0.0 mm 0.00 in0.0 mm
09:57 AM 90.5°F32.5°C 74.7°F23.7°C 60% 1.1 mph WNW1.8 kmh WNW 5.3 mph8.5 kmh 30.01 in1016.3 mb 0.00 in0.0 mm 0.00 in0.0 mm 0.00 in0.0 mm
09:58 AM 90.5°F32.5°C 75.2°F24.0°C 61% Calm Calm 5.3 mph8.5 kmh 30.01 in1016.3 mb 0.00 in0.0 mm 0.00 in0.0 mm 0.00 in0.0 mm
09:59 AM 90.3°F32.4°C 76.0°F24.4°C 63% 1.7 mph W2.7 kmh W 5.3 mph8.5 kmh 30.01 in1016.3 mb 0.00 in0.0 mm 0.00 in0.0 mm 0.00 in0.0 mm
10:00 AM 90.9°F32.7°C 75.5°F24.2°C 61% Calm Calm 5.3 mph8.5 kmh 30.01 in1016.3 mb 0.00 in0.0 mm 0.00 in0.0 mm 0.00 in0.0 mm
10:01 AM 90.9°F32.7°C 76.0°F24.4°C 62% Calm Calm 5.3 mph8.5 kmh 30.01 in1016.3 mb 0.00 in0.0 mm 0.00 in0.0 mm 0.00 in0.0 mm
10:02 AM 91.0°F32.8°C 75.7°F24.3°C 61% Calm Calm 5.3 mph8.5 kmh 30.01 in1016.3 mb 0.00 in0.0 mm 0.00 in0.0 mm 0.00 in0.0 mm
10:03 AM 91.2°F32.9°C 75.4°F24.1°C 60% 2.7 mph W4.3 kmh W 4.2 mph6.8 kmh 30.01 in1016.3 mb 0.00 in0.0 mm 0.00 in0.0 mm 0.00 in0.0 mm
10:04 AM 91.2°F32.9°C 74.8°F23.8°C 59% 1.7 mph WNW2.7 kmh WNW 4.2 mph6.8 kmh 30.01 in1016.3 mb 0.00 in0.0 mm 0.00 in0.0 mm 0.00 in0.0 mm
10:05 AM 91.0°F32.8°C 75.2°F24.0°C 60% Calm Calm 4.2 mph6.8 kmh 30.01 in1016.3 mb 0.00 in0.0 mm 0.00 in0.0 mm 0.00 in0.0 mm
10:06 AM 91.0°F32.8°C 75.7°F24.3°C 61% Calm Calm 3.7 mph6.0 kmh 30.01 in1016.3 mb 0.00 in0.0 mm 0.00 in0.0 mm 0.00 in0.0 mm
10:07 AM 91.0°F32.8°C 75.7°F24.3°C 61% 1.7 mph W2.7 kmh W 3.7 mph6.0 kmh 30.01 in1016.3 mb 0.00 in0.0 mm 0.00 in0.0 mm 0.00 in0.0 mm
10:08 AM 90.9°F32.7°C 75.5°F24.2°C 61% 2.2 mph W3.5 kmh W 3.7 mph6.0 kmh 30.01 in1016.3 mb 0.00 in0.0 mm 0.00 in0.0 mm 0.00 in0.0 mm
10:09 AM 90.9°F32.7°C 75.5°F24.2°C 61% 2.7 mph W4.3 kmh W 3.7 mph6.0 kmh 30.01 in1016.3 mb 0.00 in0.0 mm 0.00 in0.0 mm 0.00 in0.0 mm
10:10 AM 91.0°F32.8°C 75.2°F24.0°C 60% 3.7 mph WNW6.0 kmh WNW 3.7 mph6.0 kmh 30.01 in1016.3 mb 0.00 in0.0 mm 0.00 in0.0 mm 0.00 in0.0 mm
10:11 AM 91.2°F32.9°C 74.8°F23.8°C 59% 3.7 mph WNW6.0 kmh WNW 3.7 mph6.0 kmh 30.01 in1016.3 mb 0.00 in0.0 mm 0.00 in0.0 mm 0.00 in0.0 mm
10:12 AM 91.2°F32.9°C 75.9°F24.4°C 61% 1.7 mph WNW2.7 kmh WNW 3.7 mph6.0 kmh 30.01 in1016.3 mb 0.00 in0.0 mm 0.00 in0.0 mm 0.00 in0.0 mm
10:13 AM 91.2°F32.9°C 75.4°F24.1°C 60% 3.2 mph W5.1 kmh W 3.7 mph6.0 kmh 30.00 in1015.9 mb 0.00 in0.0 mm 0.00 in0.0 mm 0.00 in0.0 mm
10:14 AM 91.4°F33.0°C 76.0°F24.4°C 61% 2.2 mph W3.5 kmh W 3.7 mph6.0 kmh 30.00 in1015.9 mb 0.00 in0.0 mm 0.00 in0.0 mm 0.00 in0.0 mm
10:15 AM 91.4°F33.0°C 76.5°F24.7°C 62% 2.2 mph W3.5 kmh W 3.7 mph6.0 kmh 30.00 in1015.9 mb 0.00 in0.0 mm 0.00 in0.0 mm 0.00 in0.0 mm
10:16 AM 91.6°F33.1°C 76.2°F24.6°C 61% 2.2 mph W3.5 kmh W 3.7 mph6.0 kmh 30.00 in1015.9 mb 0.00 in0.0 mm 0.00 in0.0 mm 0.00 in0.0 mm
10:17 AM 91.6°F33.1°C 76.2°F24.6°C 61% Calm Calm 3.7 mph6.0 kmh 30.00 in1015.9 mb 0.00 in0.0 mm 0.00 in0.0 mm 0.00 in0.0 mm
10:18 AM 91.6°F33.1°C 75.7°F24.3°C 60% Calm Calm 3.7 mph6.0 kmh 30.00 in1015.9 mb 0.00 in0.0 mm 0.00 in0.0 mm 0.00 in0.0 mm
10:19 AM 92.1°F33.4°C 74.1°F23.4°C 56% Calm Calm 3.7 mph6.0 kmh 30.00 in1015.9 mb 0.00 in0.0 mm 0.00 in0.0 mm 0.00 in0.0 mm
10:20 AM 92.1°F33.4°C 74.7°F23.7°C 57% Calm Calm 3.7 mph6.0 kmh 30.00 in1015.9 mb 0.00 in0.0 mm 0.00 in0.0 mm 0.00 in0.0 mm
10:21 AM 91.9°F33.3°C 75.5°F24.2°C 59% Calm Calm 3.7 mph6.0 kmh 30.00 in1015.9 mb 0.00 in0.0 mm 0.00 in0.0 mm 0.00 in0.0 mm
10:22 AM 92.1°F33.4°C 75.2°F24.0°C 58% 3.7 mph W6.0 kmh W 3.7 mph6.0 kmh 30.00 in1015.9 mb 0.00 in0.0 mm 0.00 in0.0 mm 0.00 in0.0 mm
10:23 AM 92.3°F33.5°C 74.8°F23.8°C 57% 2.2 mph W3.5 kmh W 3.7 mph6.0 kmh 30.00 in1015.9 mb 0.00 in0.0 mm 0.00 in0.0 mm 0.00 in0.0 mm
10:24 AM 92.5°F33.6°C 75.0°F23.9°C 57% Calm Calm 3.7 mph6.0 kmh 30.00 in1015.9 mb 0.00 in0.0 mm 0.00 in0.0 mm 0.00 in0.0 mm
10:25 AM 92.5°F33.6°C 75.5°F24.2°C 58% 1.1 mph W1.8 kmh W 3.7 mph6.0 kmh 30.00 in1015.9 mb 0.00 in0.0 mm 0.00 in0.0 mm 0.00 in0.0 mm
10:26 AM 92.7°F33.7°C 75.7°F24.3°C 58% Calm Calm 3.7 mph6.0 kmh 30.00 in1015.9 mb 0.00 in0.0 mm 0.00 in0.0 mm 0.00 in0.0 mm
10:27 AM 92.5°F33.6°C 76.5°F24.7°C 60% 2.2 mph W3.5 kmh W 3.7 mph6.0 kmh 30.00 in1015.9 mb 0.00 in0.0 mm 0.00 in0.0 mm 0.00 in0.0 mm
10:28 AM 92.8°F33.8°C 76.9°F24.9°C 60% 1.1 mph WNW1.8 kmh WNW 3.7 mph6.0 kmh 30.00 in1015.9 mb 0.00 in0.0 mm 0.00 in0.0 mm 0.00 in0.0 mm
10:29 AM 92.8°F33.8°C 76.4°F24.7°C 59% 3.7 mph W6.0 kmh W 3.7 mph6.0 kmh 30.00 in1015.9 mb 0.00 in0.0 mm 0.00 in0.0 mm 0.00 in0.0 mm
10:30 AM 92.7°F33.7°C 76.2°F24.6°C 59% 3.2 mph W5.1 kmh W 3.7 mph6.0 kmh 30.00 in1015.9 mb 0.00 in0.0 mm 0.00 in0.0 mm 0.00 in0.0 mm
10:31 AM 93.0°F33.9°C 75.5°F24.2°C 57% 5.3 mph W8.5 kmh W 5.8 mph9.3 kmh 30.00 in1015.9 mb 0.00 in0.0 mm 0.00 in0.0 mm 0.00 in0.0 mm
10:32 AM 93.2°F34.0°C 75.7°F24.3°C 57% 4.7 mph W7.6 kmh W 5.8 mph9.3 kmh 30.00 in1015.9 mb 0.00 in0.0 mm 0.00 in0.0 mm 0.00 in0.0 mm
10:33 AM 93.6°F34.2°C 75.5°F24.2°C 56% 4.7 mph W7.6 kmh W 5.8 mph9.3 kmh 30.00 in1015.9 mb 0.00 in0.0 mm 0.00 in0.0 mm 0.00 in0.0 mm
10:34 AM 93.4°F34.1°C 75.8°F24.3°C 57% 4.2 mph W6.8 kmh W 5.8 mph9.3 kmh 30.00 in1015.9 mb 0.00 in0.0 mm 0.00 in0.0 mm 0.00 in0.0 mm
10:35 AM 93.4°F34.1°C 76.3°F24.6°C 58% 4.2 mph W6.8 kmh W 5.8 mph9.3 kmh 30.00 in1015.9 mb 0.00 in0.0 mm 0.00 in0.0 mm 0.00 in0.0 mm
10:36 AM 93.4°F34.1°C 74.8°F23.8°C 55% 3.2 mph W5.1 kmh W 5.8 mph9.3 kmh 30.00 in1015.9 mb 0.00 in0.0 mm 0.00 in0.0 mm 0.00 in0.0 mm
10:37 AM 93.2°F34.0°C 75.7°F24.3°C 57% 3.7 mph W6.0 kmh W 5.8 mph9.3 kmh 30.00 in1015.9 mb 0.00 in0.0 mm 0.00 in0.0 mm 0.00 in0.0 mm
10:38 AM 93.2°F34.0°C 75.7°F24.3°C 57% 3.2 mph W5.1 kmh W 5.8 mph9.3 kmh 30.00 in1015.9 mb 0.00 in0.0 mm 0.00 in0.0 mm 0.00 in0.0 mm
10:39 AM 93.2°F34.0°C 75.1°F23.9°C 56% 4.2 mph W6.8 kmh W 5.8 mph9.3 kmh 30.00 in1015.9 mb 0.00 in0.0 mm 0.00 in0.0 mm 0.00 in0.0 mm
10:40 AM 93.4°F34.1°C 75.3°F24.1°C 56% 4.2 mph W6.8 kmh W 5.8 mph9.3 kmh 30.00 in1015.9 mb 0.00 in0.0 mm 0.00 in0.0 mm 0.00 in0.0 mm
10:41 AM 93.7°F34.3°C 74.5°F23.6°C 54% 3.7 mph W6.0 kmh W 4.7 mph7.6 kmh 30.00 in1015.9 mb 0.00 in0.0 mm 0.00 in0.0 mm 0.00 in0.0 mm
10:42 AM 93.9°F34.4°C 75.3°F24.1°C 55% 4.2 mph W6.8 kmh W 4.7 mph7.6 kmh 30.00 in1015.9 mb 0.00 in0.0 mm 0.00 in0.0 mm 0.00 in0.0 mm
10:43 AM 93.9°F34.4°C 75.3°F24.1°C 55% 3.7 mph W6.0 kmh W 4.7 mph7.6 kmh 30.00 in1015.9 mb 0.00 in0.0 mm 0.00 in0.0 mm 0.00 in0.0 mm
10:44 AM 93.7°F34.3°C 75.1°F23.9°C 55% 3.7 mph W6.0 kmh W 4.7 mph7.6 kmh 30.00 in1015.9 mb 0.00 in0.0 mm 0.00 in0.0 mm 0.00 in0.0 mm
10:45 AM 93.7°F34.3°C 74.5°F23.6°C 54% 3.2 mph W5.1 kmh W 4.7 mph7.6 kmh 30.00 in1015.9 mb 0.00 in0.0 mm 0.00 in0.0 mm 0.00 in0.0 mm
10:46 AM 93.7°F34.3°C 75.1°F23.9°C 55% 3.2 mph W5.1 kmh W 4.7 mph7.6 kmh 30.00 in1015.9 mb 0.00 in0.0 mm 0.00 in0.0 mm 0.00 in0.0 mm
10:47 AM 93.7°F34.3°C 75.1°F23.9°C 55% 4.2 mph W6.8 kmh W 4.7 mph7.6 kmh 30.00 in1015.9 mb 0.00 in0.0 mm 0.00 in0.0 mm 0.00 in0.0 mm
10:48 AM 93.6°F34.2°C 75.5°F24.2°C 56% 4.2 mph WNW6.8 kmh WNW 4.7 mph7.6 kmh 30.00 in1015.9 mb 0.00 in0.0 mm 0.00 in0.0 mm 0.00 in0.0 mm
10:49 AM 93.6°F34.2°C 75.5°F24.2°C 56% 4.7 mph WNW7.6 kmh WNW 5.3 mph8.5 kmh 30.00 in1015.9 mb 0.00 in0.0 mm 0.00 in0.0 mm 0.00 in0.0 mm
10:50 AM 93.6°F34.2°C 75.5°F24.2°C 56% 4.7 mph W7.6 kmh W 5.3 mph8.5 kmh 30.00 in1015.9 mb 0.00 in0.0 mm 0.00 in0.0 mm 0.00 in0.0 mm
10:51 AM 93.6°F34.2°C 75.5°F24.2°C 56% 3.7 mph W6.0 kmh W 5.3 mph8.5 kmh 30.00 in1015.9 mb 0.00 in0.0 mm 0.00 in0.0 mm 0.00 in0.0 mm
10:52 AM 93.6°F34.2°C 76.5°F24.7°C 58% 4.2 mph W6.8 kmh W 5.3 mph8.5 kmh 30.00 in1015.9 mb 0.00 in0.0 mm 0.00 in0.0 mm 0.00 in0.0 mm
10:53 AM 93.7°F34.3°C 76.2°F24.6°C 57% 5.3 mph W8.5 kmh W 5.3 mph8.5 kmh 30.00 in1015.9 mb 0.00 in0.0 mm 0.00 in0.0 mm 0.00 in0.0 mm
10:54 AM 94.1°F34.5°C 75.4°F24.1°C 55% 4.7 mph W7.6 kmh W 5.3 mph8.5 kmh 30.00 in1015.9 mb 0.00 in0.0 mm 0.00 in0.0 mm 0.00 in0.0 mm
10:55 AM 94.1°F34.5°C 74.9°F23.8°C 54% 5.3 mph W8.5 kmh W 5.3 mph8.5 kmh 30.00 in1015.9 mb 0.00 in0.0 mm 0.00 in0.0 mm 0.00 in0.0 mm
10:56 AM 94.1°F34.5°C 75.4°F24.1°C 55% 5.8 mph W9.3 kmh W 5.8 mph9.3 kmh 30.00 in1015.9 mb 0.00 in0.0 mm 0.00 in0.0 mm 0.00 in0.0 mm
10:57 AM 94.1°F34.5°C 74.9°F23.8°C 54% 4.7 mph W7.6 kmh W 5.8 mph9.3 kmh 30.00 in1015.9 mb 0.00 in0.0 mm 0.00 in0.0 mm 0.00 in0.0 mm
10:58 AM 94.1°F34.5°C 75.4°F24.1°C 55% 4.7 mph W7.6 kmh W 5.8 mph9.3 kmh 30.00 in1015.9 mb 0.00 in0.0 mm 0.00 in0.0 mm 0.00 in0.0 mm
10:59 AM 94.1°F34.5°C 75.4°F24.1°C 55% 4.7 mph W7.6 kmh W 5.8 mph9.3 kmh 30.00 in1015.9 mb 0.00 in0.0 mm 0.00 in0.0 mm 0.00 in0.0 mm
11:00 AM 93.9°F34.4°C 74.7°F23.7°C 54% 4.7 mph W7.6 kmh W 5.8 mph9.3 kmh 30.00 in1015.9 mb 0.00 in0.0 mm 0.00 in0.0 mm 0.00 in0.0 mm
11:01 AM 93.7°F34.3°C 74.5°F23.6°C 54% 5.3 mph WNW8.5 kmh WNW 5.8 mph9.3 kmh 30.00 in1015.9 mb 0.00 in0.0 mm 0.00 in0.0 mm 0.00 in0.0 mm
11:02 AM 93.7°F34.3°C 75.1°F23.9°C 55% 4.2 mph W6.8 kmh W 5.8 mph9.3 kmh 30.00 in1015.9 mb 0.00 in0.0 mm 0.00 in0.0 mm 0.00 in0.0 mm
11:03 AM 93.6°F34.2°C 74.9°F23.8°C 55% 4.7 mph W7.6 kmh W 5.8 mph9.3 kmh 30.00 in1015.9 mb 0.00 in0.0 mm 0.00 in0.0 mm 0.00 in0.0 mm
11:04 AM 93.6°F34.2°C 74.9°F23.8°C 55% 4.7 mph W7.6 kmh W 5.8 mph9.3 kmh 30.00 in1015.9 mb 0.00 in0.0 mm 0.00 in0.0 mm 0.00 in0.0 mm
11:05 AM 93.6°F34.2°C 75.5°F24.2°C 56% 4.7 mph W7.6 kmh W 5.8 mph9.3 kmh 30.00 in1015.9 mb 0.00 in0.0 mm 0.00 in0.0 mm 0.00 in0.0 mm
11:06 AM 93.4°F34.1°C 75.8°F24.3°C 57% 4.7 mph W7.6 kmh W 5.8 mph9.3 kmh 30.00 in1015.9 mb 0.00 in0.0 mm 0.00 in0.0 mm 0.00 in0.0 mm
11:07 AM 93.2°F34.0°C 76.2°F24.6°C 58% 3.2 mph W5.1 kmh W 5.8 mph9.3 kmh 30.00 in1015.9 mb 0.00 in0.0 mm 0.00 in0.0 mm 0.00 in0.0 mm
11:08 AM 93.2°F34.0°C 75.7°F24.3°C 57% 4.7 mph W7.6 kmh W 5.8 mph9.3 kmh 30.00 in1015.9 mb 0.00 in0.0 mm 0.00 in0.0 mm 0.00 in0.0 mm
11:09 AM 93.4°F34.1°C 74.8°F23.8°C 55% 4.7 mph W7.6 kmh W 5.8 mph9.3 kmh 30.00 in1015.9 mb 0.00 in0.0 mm 0.00 in0.0 mm 0.00 in0.0 mm
11:10 AM 93.4°F34.1°C 74.8°F23.8°C 55% 4.7 mph WNW7.6 kmh WNW 5.3 mph8.5 kmh 30.00 in1015.9 mb 0.00 in0.0 mm 0.00 in0.0 mm 0.00 in0.0 mm
11:11 AM 93.6°F34.2°C 74.9°F23.8°C 55% 6.3 mph W10.1 kmh W 6.3 mph10.1 kmh 30.00 in1015.9 mb 0.00 in0.0 mm 0.00 in0.0 mm 0.00 in0.0 mm
11:12 AM 93.6°F34.2°C 74.4°F23.6°C 54% 6.3 mph W10.1 kmh W 6.3 mph10.1 kmh 30.00 in1015.9 mb 0.00 in0.0 mm 0.00 in0.0 mm 0.00 in0.0 mm
11:13 AM 93.4°F34.1°C 73.6°F23.1°C 53% 2.7 mph W4.3 kmh W 6.8 mph10.9 kmh 29.99 in1015.6 mb 0.00 in0.0 mm 0.00 in0.0 mm 0.00 in0.0 mm
11:14 AM 92.8°F33.8°C 73.7°F23.2°C 54% Calm Calm 6.8 mph10.9 kmh 29.99 in1015.6 mb 0.00 in0.0 mm 0.00 in0.0 mm 0.00 in0.0 mm
11:15 AM 92.8°F33.8°C 74.8°F23.8°C 56% 4.2 mph W6.8 kmh W 6.8 mph10.9 kmh 29.99 in1015.6 mb 0.00 in0.0 mm 0.00 in0.0 mm 0.00 in0.0 mm
11:16 AM 93.4°F34.1°C 75.3°F24.1°C 56% 2.7 mph W4.3 kmh W 6.8 mph10.9 kmh 29.99 in1015.6 mb 0.00 in0.0 mm 0.00 in0.0 mm 0.00 in0.0 mm
11:17 AM 93.6°F34.2°C 75.5°F24.2°C 56% 6.3 mph W10.1 kmh W 6.8 mph10.9 kmh 29.99 in1015.6 mb 0.00 in0.0 mm 0.00 in0.0 mm 0.00 in0.0 mm
11:18 AM 93.2°F34.0°C 74.6°F23.7°C 55% 1.1 mph W1.8 kmh W 6.8 mph10.9 kmh 29.99 in1015.6 mb 0.00 in0.0 mm 0.00 in0.0 mm 0.00 in0.0 mm
11:19 AM 92.8°F33.8°C 74.3°F23.5°C 55% 3.2 mph W5.1 kmh W 6.8 mph10.9 kmh 29.99 in1015.6 mb 0.00 in0.0 mm 0.00 in0.0 mm 0.00 in0.0 mm
11:20 AM 92.8°F33.8°C 74.8°F23.8°C 56% 1.1 mph WSW1.8 kmh WSW 6.8 mph10.9 kmh 29.99 in1015.6 mb 0.00 in0.0 mm 0.00 in0.0 mm 0.00 in0.0 mm
11:21 AM 92.8°F33.8°C 72.0°F22.2°C 51% 2.7 mph W4.3 kmh W 6.8 mph10.9 kmh 29.99 in1015.6 mb 0.00 in0.0 mm 0.00 in0.0 mm 0.00 in0.0 mm
11:22 AM 93.0°F33.9°C 72.7°F22.6°C 52% 3.7 mph W6.0 kmh W 6.8 mph10.9 kmh 29.99 in1015.6 mb 0.00 in0.0 mm 0.00 in0.0 mm 0.00 in0.0 mm
11:23 AM 93.4°F34.1°C 74.2°F23.4°C 54% 3.7 mph W6.0 kmh W 6.3 mph10.1 kmh 29.99 in1015.6 mb 0.00 in0.0 mm 0.00 in0.0 mm 0.00 in0.0 mm
11:24 AM 93.4°F34.1°C 74.8°F23.8°C 55% 2.7 mph W4.3 kmh W 6.3 mph10.1 kmh 29.99 in1015.6 mb 0.00 in0.0 mm 0.00 in0.0 mm 0.00 in0.0 mm
11:25 AM 93.6°F34.2°C 75.5°F24.2°C 56% Calm Calm 6.3 mph10.1 kmh 29.99 in1015.6 mb 0.00 in0.0 mm 0.00 in0.0 mm 0.00 in0.0 mm
11:26 AM 93.0°F33.9°C 72.2°F22.3°C 51% 4.2 mph W6.8 kmh W 6.3 mph10.1 kmh 29.99 in1015.6 mb 0.00 in0.0 mm 0.00 in0.0 mm 0.00 in0.0 mm
11:27 AM 93.2°F34.0°C 72.9°F22.7°C 52% 4.7 mph W7.6 kmh W 6.3 mph10.1 kmh 29.99 in1015.6 mb 0.00 in0.0 mm 0.00 in0.0 mm 0.00 in0.0 mm
11:28 AM 93.4°F34.1°C 73.6°F23.1°C 53% 4.7 mph W7.6 kmh W 5.8 mph9.3 kmh 29.99 in1015.6 mb 0.00 in0.0 mm 0.00 in0.0 mm 0.00 in0.0 mm
11:29 AM 93.7°F34.3°C 74.0°F23.3°C 53% 4.2 mph W6.8 kmh W 5.8 mph9.3 kmh 29.99 in1015.6 mb 0.00 in0.0 mm 0.00 in0.0 mm 0.00 in0.0 mm
11:30 AM 93.7°F34.3°C 74.0°F23.3°C 53% 4.7 mph W7.6 kmh W 5.3 mph8.5 kmh 29.99 in1015.6 mb 0.00 in0.0 mm 0.00 in0.0 mm 0.00 in0.0 mm
11:31 AM 93.7°F34.3°C 74.5°F23.6°C 54% 4.2 mph W6.8 kmh W 5.3 mph8.5 kmh 29.99 in1015.6 mb 0.00 in0.0 mm 0.00 in0.0 mm 0.00 in0.0 mm
11:32 AM 93.7°F34.3°C 72.8°F22.7°C 51% 4.7 mph W7.6 kmh W 5.3 mph8.5 kmh 29.99 in1015.6 mb 0.00 in0.0 mm 0.00 in0.0 mm 0.00 in0.0 mm
11:33 AM 93.7°F34.3°C 74.5°F23.6°C 54% 1.7 mph W2.7 kmh W 5.3 mph8.5 kmh 29.99 in1015.6 mb 0.00 in0.0 mm 0.00 in0.0 mm 0.00 in0.0 mm
11:34 AM 93.9°F34.4°C 74.7°F23.7°C 54% Calm Calm 5.3 mph8.5 kmh 29.99 in1015.6 mb 0.00 in0.0 mm 0.00 in0.0 mm 0.00 in0.0 mm
11:35 AM 93.9°F34.4°C 74.1°F23.4°C 53% 1.1 mph W1.8 kmh W 5.3 mph8.5 kmh 29.99 in1015.6 mb 0.00 in0.0 mm 0.00 in0.0 mm 0.00 in0.0 mm
11:36 AM 94.1°F34.5°C 73.7°F23.2°C 52% 1.1 mph W1.8 kmh W 5.3 mph8.5 kmh 29.99 in1015.6 mb 0.00 in0.0 mm 0.00 in0.0 mm 0.00 in0.0 mm
11:37 AM 94.1°F34.5°C 74.9°F23.8°C 54% Calm Calm 5.3 mph8.5 kmh 29.99 in1015.6 mb 0.00 in0.0 mm 0.00 in0.0 mm 0.00 in0.0 mm
11:38 AM 93.9°F34.4°C 73.0°F22.8°C 51% Calm Calm 5.3 mph8.5 kmh 29.99 in1015.6 mb 0.00 in0.0 mm 0.00 in0.0 mm 0.00 in0.0 mm
11:39 AM 94.1°F34.5°C 73.7°F23.2°C 52% Calm Calm 4.7 mph7.6 kmh 29.99 in1015.6 mb 0.00 in0.0 mm 0.00 in0.0 mm 0.00 in0.0 mm
11:40 AM 93.9°F34.4°C 74.1°F23.4°C 53% Calm Calm 4.7 mph7.6 kmh 29.99 in1015.6 mb 0.00 in0.0 mm 0.00 in0.0 mm 0.00 in0.0 mm
11:41 AM 93.6°F34.2°C 73.8°F23.2°C 53% Calm Calm 4.7 mph7.6 kmh 29.99 in1015.6 mb 0.00 in0.0 mm 0.00 in0.0 mm 0.00 in0.0 mm
11:42 AM 93.4°F34.1°C 73.6°F23.1°C 53% Calm Calm 4.2 mph6.8 kmh 29.99 in1015.6 mb 0.00 in0.0 mm 0.00 in0.0 mm 0.00 in0.0 mm
11:43 AM 92.7°F33.7°C 74.1°F23.4°C 55% Calm Calm 4.2 mph6.8 kmh 29.99 in1015.6 mb 0.00 in0.0 mm 0.00 in0.0 mm 0.00 in0.0 mm
11:44 AM 92.7°F33.7°C 74.1°F23.4°C 55% Calm Calm 1.1 mph1.8 kmh 29.99 in1015.6 mb 0.00 in0.0 mm 0.00 in0.0 mm 0.00 in0.0 mm
11:45 AM 92.8°F33.8°C 73.1°F22.8°C 53% 1.1 mph W1.8 kmh W 1.1 mph1.8 kmh 29.99 in1015.6 mb 0.00 in0.0 mm 0.00 in0.0 mm 0.00 in0.0 mm
11:46 AM 93.4°F34.1°C 73.1°F22.8°C 52% 2.2 mph W3.5 kmh W 4.2 mph6.8 kmh 29.99 in1015.6 mb 0.00 in0.0 mm 0.00 in0.0 mm 0.00 in0.0 mm
11:47 AM 93.2°F34.0°C 72.9°F22.7°C 52% 1.1 mph W1.8 kmh W 4.2 mph6.8 kmh 29.99 in1015.6 mb 0.00 in0.0 mm 0.00 in0.0 mm 0.00 in0.0 mm
11:48 AM 92.8°F33.8°C 73.1°F22.8°C 53% 4.7 mph WSW7.6 kmh WSW 4.7 mph7.6 kmh 29.99 in1015.6 mb 0.00 in0.0 mm 0.00 in0.0 mm 0.00 in0.0 mm
11:49 AM 92.7°F33.7°C 74.1°F23.4°C 55% 1.1 mph W1.8 kmh W 4.7 mph7.6 kmh 29.98 in1015.2 mb 0.00 in0.0 mm 0.00 in0.0 mm 0.00 in0.0 mm
11:50 AM 92.7°F33.7°C 75.2°F24.0°C 57% 2.7 mph SW4.3 kmh SW 5.8 mph9.3 kmh 29.98 in1015.2 mb 0.00 in0.0 mm 0.00 in0.0 mm 0.00 in0.0 mm
11:51 AM 92.5°F33.6°C 75.0°F23.9°C 57% 1.1 mph W1.8 kmh W 5.8 mph9.3 kmh 29.98 in1015.2 mb 0.00 in0.0 mm 0.00 in0.0 mm 0.00 in0.0 mm
11:52 AM 92.1°F33.4°C 74.1°F23.4°C 56% 1.1 mph WSW1.8 kmh WSW 5.8 mph9.3 kmh 29.98 in1015.2 mb 0.00 in0.0 mm 0.00 in0.0 mm 0.00 in0.0 mm
11:53 AM 92.1°F33.4°C 74.1°F23.4°C 56% 2.7 mph W4.3 kmh W 5.8 mph9.3 kmh 29.98 in1015.2 mb 0.00 in0.0 mm 0.00 in0.0 mm 0.00 in0.0 mm
11:54 AM 92.1°F33.4°C 74.1°F23.4°C 56% 3.7 mph W6.0 kmh W 5.8 mph9.3 kmh 29.98 in1015.2 mb 0.00 in0.0 mm 0.00 in0.0 mm 0.00 in0.0 mm
11:55 AM 92.7°F33.7°C 74.6°F23.7°C 56% 6.3 mph W10.1 kmh W 8.3 mph13.4 kmh 29.98 in1015.2 mb 0.00 in0.0 mm 0.00 in0.0 mm 0.00 in0.0 mm
11:56 AM 92.5°F33.6°C 74.5°F23.6°C 56% 2.2 mph SW3.5 kmh SW 8.3 mph13.4 kmh 29.98 in1015.2 mb 0.00 in0.0 mm 0.00 in0.0 mm 0.00 in0.0 mm
11:57 AM 91.9°F33.3°C 74.0°F23.3°C 56% 1.1 mph WSW1.8 kmh WSW 8.3 mph13.4 kmh 29.98 in1015.2 mb 0.00 in0.0 mm 0.00 in0.0 mm 0.00 in0.0 mm
11:58 AM 92.1°F33.4°C 75.2°F24.0°C 58% Calm Calm 8.3 mph13.4 kmh 29.98 in1015.2 mb 0.00 in0.0 mm 0.00 in0.0 mm 0.00 in0.0 mm
11:59 AM 92.1°F33.4°C 74.7°F23.7°C 57% 1.1 mph W1.8 kmh W 8.3 mph13.4 kmh 29.98 in1015.2 mb 0.00 in0.0 mm 0.00 in0.0 mm 0.00 in0.0 mm
12:00 PM 91.8°F33.2°C 75.4°F24.1°C 59% Calm Calm 8.3 mph13.4 kmh 29.98 in1015.2 mb 0.00 in0.0 mm 0.00 in0.0 mm 0.00 in0.0 mm
12:01 PM 91.8°F33.2°C 73.8°F23.2°C 56% 7.8 mph W12.6 kmh W 8.3 mph13.4 kmh 29.98 in1015.2 mb 0.00 in0.0 mm 0.00 in0.0 mm 0.00 in0.0 mm
12:02 PM 92.1°F33.4°C 74.1°F23.4°C 56% 5.3 mph W8.5 kmh W 8.9 mph14.3 kmh 29.98 in1015.2 mb 0.00 in0.0 mm 0.00 in0.0 mm 0.00 in0.0 mm
12:03 PM 92.1°F33.4°C 74.1°F23.4°C 56% 1.1 mph W1.8 kmh W 8.9 mph14.3 kmh 29.98 in1015.2 mb 0.00 in0.0 mm 0.00 in0.0 mm 0.00 in0.0 mm
12:04 PM 91.9°F33.3°C 74.0°F23.3°C 56% Calm Calm 8.9 mph14.3 kmh 29.98 in1015.2 mb 0.00 in0.0 mm 0.00 in0.0 mm 0.00 in0.0 mm
12:05 PM 91.8°F33.2°C 73.3°F22.9°C 55% Calm Calm 8.9 mph14.3 kmh 29.98 in1015.2 mb 0.00 in0.0 mm 0.00 in0.0 mm 0.00 in0.0 mm
12:06 PM 91.8°F33.2°C 73.3°F22.9°C 55% 1.7 mph W2.7 kmh W 8.9 mph14.3 kmh 29.98 in1015.2 mb 0.00 in0.0 mm 0.00 in0.0 mm 0.00 in0.0 mm
12:07 PM 91.9°F33.3°C 73.4°F23.0°C 55% 1.1 mph W1.8 kmh W 8.9 mph14.3 kmh 29.98 in1015.2 mb 0.00 in0.0 mm 0.00 in0.0 mm 0.00 in0.0 mm
12:08 PM 92.1°F33.4°C 74.1°F23.4°C 56% 1.7 mph W2.7 kmh W 8.9 mph14.3 kmh 29.98 in1015.2 mb 0.00 in0.0 mm 0.00 in0.0 mm 0.00 in0.0 mm
12:09 PM 91.9°F33.3°C 74.0°F23.3°C 56% 2.7 mph W4.3 kmh W 8.9 mph14.3 kmh 29.98 in1015.2 mb 0.00 in0.0 mm 0.00 in0.0 mm 0.00 in0.0 mm
12:10 PM 91.9°F33.3°C 74.5°F23.6°C 57% 1.7 mph SW2.7 kmh SW 8.9 mph14.3 kmh 29.98 in1015.2 mb 0.00 in0.0 mm 0.00 in0.0 mm 0.00 in0.0 mm
12:11 PM 91.9°F33.3°C 74.5°F23.6°C 57% 4.2 mph W6.8 kmh W 8.9 mph14.3 kmh 29.98 in1015.2 mb 0.00 in0.0 mm 0.00 in0.0 mm 0.00 in0.0 mm
12:12 PM 91.8°F33.2°C 75.4°F24.1°C 59% 1.1 mph SW1.8 kmh SW 7.3 mph11.7 kmh 29.98 in1015.2 mb 0.00 in0.0 mm 0.00 in0.0 mm 0.00 in0.0 mm
12:13 PM 91.6°F33.1°C 75.2°F24.0°C 59% 1.1 mph W1.8 kmh W 5.3 mph8.5 kmh 29.98 in1015.2 mb 0.00 in0.0 mm 0.00 in0.0 mm 0.00 in0.0 mm
12:14 PM 91.2°F32.9°C 75.4°F24.1°C 60% 2.2 mph WSW3.5 kmh WSW 5.3 mph8.5 kmh 29.98 in1015.2 mb 0.00 in0.0 mm 0.00 in0.0 mm 0.00 in0.0 mm
12:15 PM 91.4°F33.0°C 75.5°F24.2°C 60% 2.2 mph W3.5 kmh W 5.3 mph8.5 kmh 29.98 in1015.2 mb 0.00 in0.0 mm 0.00 in0.0 mm 0.00 in0.0 mm
12:16 PM 91.2°F32.9°C 75.4°F24.1°C 60% 2.7 mph WSW4.3 kmh WSW 5.3 mph8.5 kmh 29.98 in1015.2 mb 0.00 in0.0 mm 0.00 in0.0 mm 0.00 in0.0 mm
12:17 PM 91.2°F32.9°C 75.9°F24.4°C 61% 2.7 mph W4.3 kmh W 5.3 mph8.5 kmh 29.98 in1015.2 mb 0.00 in0.0 mm 0.00 in0.0 mm 0.00 in0.0 mm
12:18 PM 91.4°F33.0°C 75.5°F24.2°C 60% 6.8 mph W10.9 kmh W 6.8 mph10.9 kmh 29.98 in1015.2 mb 0.00 in0.0 mm 0.00 in0.0 mm 0.00 in0.0 mm
12:19 PM 91.6°F33.1°C 76.2°F24.6°C 61% 3.2 mph W5.1 kmh W 6.8 mph10.9 kmh 29.98 in1015.2 mb 0.00 in0.0 mm 0.00 in0.0 mm 0.00 in0.0 mm
12:20 PM 91.4°F33.0°C 75.5°F24.2°C 60% 4.2 mph WSW6.8 kmh WSW 6.8 mph10.9 kmh 29.98 in1015.2 mb 0.00 in0.0 mm 0.00 in0.0 mm 0.00 in0.0 mm
12:21 PM 91.4°F33.0°C 75.5°F24.2°C 60% 5.3 mph W8.5 kmh W 6.8 mph10.9 kmh 29.98 in1015.2 mb 0.00 in0.0 mm 0.00 in0.0 mm 0.00 in0.0 mm
12:22 PM 91.4°F33.0°C 76.5°F24.7°C 62% 1.7 mph WSW2.7 kmh WSW 6.8 mph10.9 kmh 29.98 in1015.2 mb 0.00 in0.0 mm 0.00 in0.0 mm 0.00 in0.0 mm
12:23 PM 91.4°F33.0°C 76.5°F24.7°C 62% 4.2 mph W6.8 kmh W 6.8 mph10.9 kmh 29.98 in1015.2 mb 0.00 in0.0 mm 0.00 in0.0 mm 0.00 in0.0 mm
12:24 PM 91.6°F33.1°C 76.7°F24.8°C 62% 7.8 mph W12.6 kmh W 7.8 mph12.6 kmh 29.98 in1015.2 mb 0.00 in0.0 mm 0.00 in0.0 mm 0.00 in0.0 mm
12:25 PM 91.6°F33.1°C 76.7°F24.8°C 62% 1.7 mph W2.7 kmh W 8.9 mph14.3 kmh 29.98 in1015.2 mb 0.00 in0.0 mm 0.00 in0.0 mm 0.00 in0.0 mm
12:26 PM 91.4°F33.0°C 76.5°F24.7°C 62% 3.7 mph W6.0 kmh W 8.9 mph14.3 kmh 29.98 in1015.2 mb 0.00 in0.0 mm 0.00 in0.0 mm 0.00 in0.0 mm
12:27 PM 91.4°F33.0°C 75.5°F24.2°C 60% 6.3 mph W10.1 kmh W 8.9 mph14.3 kmh 29.98 in1015.2 mb 0.00 in0.0 mm 0.00 in0.0 mm 0.00 in0.0 mm
12:28 PM 91.4°F33.0°C 76.0°F24.4°C 61% 1.7 mph W2.7 kmh W 8.9 mph14.3 kmh 29.98 in1015.2 mb 0.00 in0.0 mm 0.00 in0.0 mm 0.00 in0.0 mm
12:29 PM 91.2°F32.9°C 76.3°F24.6°C 62% 1.7 mph W2.7 kmh W 8.9 mph14.3 kmh 29.98 in1015.2 mb 0.00 in0.0 mm 0.00 in0.0 mm 0.00 in0.0 mm
12:30 PM 91.6°F33.1°C 77.2°F25.1°C 63% 1.1 mph W1.8 kmh W 8.9 mph14.3 kmh 29.98 in1015.2 mb 0.00 in0.0 mm 0.00 in0.0 mm 0.00 in0.0 mm
12:31 PM 91.6°F33.1°C 77.2°F25.1°C 63% 1.1 mph W1.8 kmh W 8.9 mph14.3 kmh 29.98 in1015.2 mb 0.00 in0.0 mm 0.00 in0.0 mm 0.00 in0.0 mm
12:32 PM 91.2°F32.9°C 76.3°F24.6°C 62% 1.1 mph W1.8 kmh W 8.9 mph14.3 kmh 29.98 in1015.2 mb 0.00 in0.0 mm 0.00 in0.0 mm 0.00 in0.0 mm
12:33 PM 90.7°F32.6°C 75.3°F24.1°C 61% 1.1 mph W1.8 kmh W 8.9 mph14.3 kmh 29.98 in1015.2 mb 0.00 in0.0 mm 0.00 in0.0 mm 0.00 in0.0 mm
12:34 PM 90.7°F32.6°C 75.8°F24.3°C 62% 3.7 mph W6.0 kmh W 8.9 mph14.3 kmh 29.98 in1015.2 mb 0.00 in0.0 mm 0.00 in0.0 mm 0.00 in0.0 mm
12:35 PM 90.9°F32.7°C 76.0°F24.4°C 62% 4.2 mph W6.8 kmh W 6.3 mph10.1 kmh 29.98 in1015.2 mb 0.00 in0.0 mm 0.00 in0.0 mm 0.00 in0.0 mm
12:36 PM 91.2°F32.9°C 75.9°F24.4°C 61% 2.7 mph W4.3 kmh W 6.3 mph10.1 kmh 29.98 in1015.2 mb 0.00 in0.0 mm 0.00 in0.0 mm 0.00 in0.0 mm
12:37 PM 91.4°F33.0°C 76.0°F24.4°C 61% 1.1 mph W1.8 kmh W 6.3 mph10.1 kmh 29.98 in1015.2 mb 0.00 in0.0 mm 0.00 in0.0 mm 0.00 in0.0 mm
12:38 PM 91.6°F33.1°C 76.2°F24.6°C 61% 6.3 mph WSW10.1 kmh WSW 6.3 mph10.1 kmh 29.97 in1014.9 mb 0.00 in0.0 mm 0.00 in0.0 mm 0.00 in0.0 mm
12:39 PM 91.6°F33.1°C 76.2°F24.6°C 61% 3.2 mph WSW5.1 kmh WSW 6.3 mph10.1 kmh 29.97 in1014.9 mb 0.00 in0.0 mm 0.00 in0.0 mm 0.00 in0.0 mm
12:40 PM 91.2°F32.9°C 76.3°F24.6°C 62% 1.7 mph W2.7 kmh W 6.3 mph10.1 kmh 29.97 in1014.9 mb 0.00 in0.0 mm 0.00 in0.0 mm 0.00 in0.0 mm
12:41 PM 91.0°F32.8°C 76.2°F24.6°C 62% 1.1 mph W1.8 kmh W 6.3 mph10.1 kmh 29.97 in1014.9 mb 0.00 in0.0 mm 0.00 in0.0 mm 0.00 in0.0 mm
12:42 PM 91.0°F32.8°C 76.2°F24.6°C 62% 5.8 mph SW9.3 kmh SW 6.3 mph10.1 kmh 29.97 in1014.9 mb 0.00 in0.0 mm 0.00 in0.0 mm 0.00 in0.0 mm
12:43 PM 90.9°F32.7°C 75.5°F24.2°C 61% 1.7 mph W2.7 kmh W 6.3 mph10.1 kmh 29.97 in1014.9 mb 0.00 in0.0 mm 0.00 in0.0 mm 0.00 in0.0 mm
12:44 PM 91.2°F32.9°C 76.3°F24.6°C 62% 3.7 mph W6.0 kmh W 6.3 mph10.1 kmh 29.97 in1014.9 mb 0.00 in0.0 mm 0.00 in0.0 mm 0.00 in0.0 mm
12:45 PM 91.4°F33.0°C 77.0°F25.0°C 63% 2.2 mph W3.5 kmh W 6.3 mph10.1 kmh 29.97 in1014.9 mb 0.00 in0.0 mm 0.00 in0.0 mm 0.00 in0.0 mm
12:46 PM 91.2°F32.9°C 76.3°F24.6°C 62% 1.7 mph WSW2.7 kmh WSW 6.3 mph10.1 kmh 29.97 in1014.9 mb 0.00 in0.0 mm 0.00 in0.0 mm 0.00 in0.0 mm
12:47 PM 91.6°F33.1°C 76.2°F24.6°C 61% 3.7 mph W6.0 kmh W 6.8 mph10.9 kmh 29.97 in1014.9 mb 0.00 in0.0 mm 0.00 in0.0 mm 0.00 in0.0 mm
12:48 PM 91.6°F33.1°C 76.2°F24.6°C 61% 6.8 mph W10.9 kmh W 6.8 mph10.9 kmh 29.97 in1014.9 mb 0.00 in0.0 mm 0.00 in0.0 mm 0.00 in0.0 mm
12:49 PM 91.6°F33.1°C 76.2°F24.6°C 61% 5.3 mph W8.5 kmh W 6.8 mph10.9 kmh 29.97 in1014.9 mb 0.00 in0.0 mm 0.00 in0.0 mm 0.00 in0.0 mm
12:50 PM 91.4°F33.0°C 77.0°F25.0°C 63% 4.2 mph W6.8 kmh W 6.8 mph10.9 kmh 29.96 in1014.6 mb 0.00 in0.0 mm 0.00 in0.0 mm 0.00 in0.0 mm
12:51 PM 91.6°F33.1°C 76.7°F24.8°C 62% 5.3 mph W8.5 kmh W 6.8 mph10.9 kmh 29.96 in1014.6 mb 0.00 in0.0 mm 0.00 in0.0 mm 0.00 in0.0 mm
12:52 PM 91.8°F33.2°C 76.4°F24.7°C 61% 7.8 mph W12.6 kmh W 7.8 mph12.6 kmh 29.96 in1014.6 mb 0.00 in0.0 mm 0.00 in0.0 mm 0.00 in0.0 mm
12:53 PM 91.8°F33.2°C 75.9°F24.4°C 60% 6.8 mph WSW10.9 kmh WSW 7.8 mph12.6 kmh 29.96 in1014.6 mb 0.00 in0.0 mm 0.00 in0.0 mm 0.00 in0.0 mm
12:54 PM 91.8°F33.2°C 75.9°F24.4°C 60% 3.2 mph W5.1 kmh W 7.8 mph12.6 kmh 29.96 in1014.6 mb 0.00 in0.0 mm 0.00 in0.0 mm 0.00 in0.0 mm
12:55 PM 91.6°F33.1°C 76.2°F24.6°C 61% 3.7 mph WSW6.0 kmh WSW 7.8 mph12.6 kmh 29.96 in1014.6 mb 0.00 in0.0 mm 0.00 in0.0 mm 0.00 in0.0 mm
12:56 PM 91.4°F33.0°C 76.0°F24.4°C 61% 1.1 mph SW1.8 kmh SW 7.8 mph12.6 kmh 29.96 in1014.6 mb 0.00 in0.0 mm 0.00 in0.0 mm 0.00 in0.0 mm
12:57 PM 91.2°F32.9°C 76.8°F24.9°C 63% 3.7 mph W6.0 kmh W 7.8 mph12.6 kmh 29.96 in1014.6 mb 0.00 in0.0 mm 0.00 in0.0 mm 0.00 in0.0 mm
12:58 PM 91.6°F33.1°C 77.2°F25.1°C 63% 5.3 mph W8.5 kmh W 7.8 mph12.6 kmh 29.96 in1014.6 mb 0.00 in0.0 mm 0.00 in0.0 mm 0.00 in0.0 mm
12:59 PM 91.6°F33.1°C 77.2°F25.1°C 63% 3.2 mph W5.1 kmh W 7.8 mph12.6 kmh 29.96 in1014.6 mb 0.00 in0.0 mm 0.00 in0.0 mm 0.00 in0.0 mm
01:00 PM 91.8°F33.2°C 76.8°F24.9°C 62% 3.2 mph W5.1 kmh W 7.8 mph12.6 kmh 29.96 in1014.6 mb 0.00 in0.0 mm 0.00 in0.0 mm 0.00 in0.0 mm
01:01 PM 91.8°F33.2°C 76.4°F24.7°C 61% 1.1 mph SW1.8 kmh SW 7.8 mph12.6 kmh 29.96 in1014.6 mb 0.00 in0.0 mm 0.00 in0.0 mm 0.00 in0.0 mm
01:02 PM 91.8°F33.2°C 76.4°F24.7°C 61% 3.2 mph W5.1 kmh W 7.3 mph11.7 kmh 29.96 in1014.6 mb 0.00 in0.0 mm 0.00 in0.0 mm 0.00 in0.0 mm
01:03 PM 91.9°F33.3°C 75.0°F23.9°C 58% 7.8 mph W12.6 kmh W 7.8 mph12.6 kmh 29.96 in1014.6 mb 0.00 in0.0 mm 0.00 in0.0 mm 0.00 in0.0 mm
01:04 PM 92.1°F33.4°C 75.2°F24.0°C 58% 4.7 mph WSW7.6 kmh WSW 7.8 mph12.6 kmh 29.96 in1014.6 mb 0.00 in0.0 mm 0.00 in0.0 mm 0.00 in0.0 mm
01:05 PM 92.3°F33.5°C 75.3°F24.1°C 58% 5.8 mph W9.3 kmh W 7.8 mph12.6 kmh 29.96 in1014.6 mb 0.00 in0.0 mm 0.00 in0.0 mm 0.00 in0.0 mm
01:06 PM 92.1°F33.4°C 75.7°F24.3°C 59% 4.7 mph SW7.6 kmh SW 7.8 mph12.6 kmh 29.96 in1014.6 mb 0.00 in0.0 mm 0.00 in0.0 mm 0.00 in0.0 mm
01:07 PM 91.9°F33.3°C 75.5°F24.2°C 59% 6.3 mph W10.1 kmh W 7.8 mph12.6 kmh 29.96 in1014.6 mb 0.00 in0.0 mm 0.00 in0.0 mm 0.00 in0.0 mm
01:08 PM 91.9°F33.3°C 76.0°F24.4°C 60% 6.3 mph WSW10.1 kmh WSW 7.8 mph12.6 kmh 29.96 in1014.6 mb 0.00 in0.0 mm 0.00 in0.0 mm 0.00 in0.0 mm
01:09 PM 91.9°F33.3°C 75.5°F24.2°C 59% 4.7 mph W7.6 kmh W 7.8 mph12.6 kmh 29.96 in1014.6 mb 0.00 in0.0 mm 0.00 in0.0 mm 0.00 in0.0 mm
01:10 PM 91.8°F33.2°C 75.4°F24.1°C 59% 1.7 mph W2.7 kmh W 7.8 mph12.6 kmh 29.96 in1014.6 mb 0.00 in0.0 mm 0.00 in0.0 mm 0.00 in0.0 mm
01:11 PM 91.6°F33.1°C 75.2°F24.0°C 59% 7.3 mph W11.7 kmh W 7.8 mph12.6 kmh 29.96 in1014.6 mb 0.00 in0.0 mm 0.00 in0.0 mm 0.00 in0.0 mm
01:12 PM 91.9°F33.3°C 74.0°F23.3°C 56% 6.8 mph WSW10.9 kmh WSW 8.3 mph13.4 kmh 29.96 in1014.6 mb 0.00 in0.0 mm 0.00 in0.0 mm 0.00 in0.0 mm
01:13 PM 91.9°F33.3°C 75.0°F23.9°C 58% 5.8 mph W9.3 kmh W 8.3 mph13.4 kmh 29.96 in1014.6 mb 0.00 in0.0 mm 0.00 in0.0 mm 0.00 in0.0 mm
01:14 PM 91.9°F33.3°C 75.5°F24.2°C 59% 4.2 mph W6.8 kmh W 8.3 mph13.4 kmh 29.96 in1014.6 mb 0.00 in0.0 mm 0.00 in0.0 mm 0.00 in0.0 mm
01:15 PM 91.9°F33.3°C 76.0°F24.4°C 60% 2.7 mph W4.3 kmh W 8.3 mph13.4 kmh 29.96 in1014.6 mb 0.00 in0.0 mm 0.00 in0.0 mm 0.00 in0.0 mm
01:16 PM 91.6°F33.1°C 75.7°F24.3°C 60% 2.7 mph W4.3 kmh W 8.3 mph13.4 kmh 29.96 in1014.6 mb 0.00 in0.0 mm 0.00 in0.0 mm 0.00 in0.0 mm
01:17 PM 91.4°F33.0°C 76.0°F24.4°C 61% 6.3 mph W10.1 kmh W 8.3 mph13.4 kmh 29.96 in1014.6 mb 0.00 in0.0 mm 0.00 in0.0 mm 0.00 in0.0 mm
01:18 PM 91.6°F33.1°C 75.7°F24.3°C 60% 7.8 mph W12.6 kmh W 8.3 mph13.4 kmh 29.96 in1014.6 mb 0.00 in0.0 mm 0.00 in0.0 mm 0.00 in0.0 mm
01:19 PM 91.8°F33.2°C 76.4°F24.7°C 61% 4.2 mph W6.8 kmh W 8.3 mph13.4 kmh 29.96 in1014.6 mb 0.00 in0.0 mm 0.00 in0.0 mm 0.00 in0.0 mm
01:20 PM 91.4°F33.0°C 76.5°F24.7°C 62% 1.1 mph W1.8 kmh W 8.3 mph13.4 kmh 29.96 in1014.6 mb 0.00 in0.0 mm 0.00 in0.0 mm 0.00 in0.0 mm
01:21 PM 91.6°F33.1°C 76.7°F24.8°C 62% 6.3 mph W10.1 kmh W 8.9 mph14.3 kmh 29.96 in1014.6 mb 0.00 in0.0 mm 0.00 in0.0 mm 0.00 in0.0 mm
01:22 PM 91.6°F33.1°C 76.2°F24.6°C 61% 6.8 mph W10.9 kmh W 8.9 mph14.3 kmh 29.96 in1014.6 mb 0.00 in0.0 mm 0.00 in0.0 mm 0.00 in0.0 mm
01:23 PM 91.6°F33.1°C 75.7°F24.3°C 60% 8.9 mph W14.3 kmh W 8.9 mph14.3 kmh 29.96 in1014.6 mb 0.00 in0.0 mm 0.00 in0.0 mm 0.00 in0.0 mm
01:24 PM 91.4°F33.0°C 75.0°F23.9°C 59% 5.3 mph W8.5 kmh W 8.9 mph14.3 kmh 29.96 in1014.6 mb 0.00 in0.0 mm 0.00 in0.0 mm 0.00 in0.0 mm
01:25 PM 91.4°F33.0°C 75.0°F23.9°C 59% 5.8 mph W9.3 kmh W 8.9 mph14.3 kmh 29.95 in1014.2 mb 0.00 in0.0 mm 0.00 in0.0 mm 0.00 in0.0 mm
01:26 PM 91.4°F33.0°C 74.5°F23.6°C 58% 5.8 mph W9.3 kmh W 8.9 mph14.3 kmh 29.95 in1014.2 mb 0.00 in0.0 mm 0.00 in0.0 mm 0.00 in0.0 mm
01:27 PM 91.4°F33.0°C 74.0°F23.3°C 57% 4.2 mph W6.8 kmh W 8.9 mph14.3 kmh 29.95 in1014.2 mb 0.00 in0.0 mm 0.00 in0.0 mm 0.00 in0.0 mm
01:28 PM 91.4°F33.0°C 74.5°F23.6°C 58% 3.7 mph W6.0 kmh W 8.9 mph14.3 kmh 29.95 in1014.2 mb 0.00 in0.0 mm 0.00 in0.0 mm 0.00 in0.0 mm
01:29 PM 91.2°F32.9°C 74.3°F23.5°C 58% 4.7 mph SW7.6 kmh SW 8.9 mph14.3 kmh 29.95 in1014.2 mb 0.00 in0.0 mm 0.00 in0.0 mm 0.00 in0.0 mm
01:30 PM 91.2°F32.9°C 74.3°F23.5°C 58% 5.8 mph W9.3 kmh W 8.9 mph14.3 kmh 29.95 in1014.2 mb 0.00 in0.0 mm 0.00 in0.0 mm 0.00 in0.0 mm
01:31 PM 91.4°F33.0°C 75.0°F23.9°C 59% 3.7 mph WSW6.0 kmh WSW 8.9 mph14.3 kmh 29.95 in1014.2 mb 0.00 in0.0 mm 0.00 in0.0 mm 0.00 in0.0 mm
01:32 PM 91.4°F33.0°C 74.5°F23.6°C 58% 2.7 mph W4.3 kmh W 8.9 mph14.3 kmh 29.95 in1014.2 mb 0.00 in0.0 mm 0.00 in0.0 mm 0.00 in0.0 mm
01:33 PM 91.4°F33.0°C 74.5°F23.6°C 58% 5.8 mph WSW9.3 kmh WSW 8.9 mph14.3 kmh 29.95 in1014.2 mb 0.00 in0.0 mm 0.00 in0.0 mm 0.00 in0.0 mm
01:34 PM 91.4°F33.0°C 73.5°F23.1°C 56% 3.7 mph WSW6.0 kmh WSW 7.8 mph12.6 kmh 29.95 in1014.2 mb 0.00 in0.0 mm 0.00 in0.0 mm 0.00 in0.0 mm
01:35 PM 91.6°F33.1°C 73.6°F23.1°C 56% 6.3 mph W10.1 kmh W 7.8 mph12.6 kmh 29.95 in1014.2 mb 0.00 in0.0 mm 0.00 in0.0 mm 0.00 in0.0 mm
01:36 PM 91.6°F33.1°C 74.2°F23.4°C 57% 4.7 mph W7.6 kmh W 7.8 mph12.6 kmh 29.95 in1014.2 mb 0.00 in0.0 mm 0.00 in0.0 mm 0.00 in0.0 mm
01:37 PM 91.6°F33.1°C 74.2°F23.4°C 57% 7.8 mph W12.6 kmh W 7.8 mph12.6 kmh 29.94 in1013.9 mb 0.00 in0.0 mm 0.00 in0.0 mm 0.00 in0.0 mm
01:38 PM 91.6°F33.1°C 74.2°F23.4°C 57% 6.8 mph W10.9 kmh W 10.4 mph16.7 kmh 29.94 in1013.9 mb 0.00 in0.0 mm 0.00 in0.0 mm 0.00 in0.0 mm
01:39 PM 91.6°F33.1°C 74.7°F23.7°C 58% 2.2 mph W3.5 kmh W 10.4 mph16.7 kmh 29.94 in1013.9 mb 0.00 in0.0 mm 0.00 in0.0 mm 0.00 in0.0 mm
01:40 PM 91.4°F33.0°C 75.5°F24.2°C 60% 5.3 mph W8.5 kmh W 10.4 mph16.7 kmh 29.94 in1013.9 mb 0.00 in0.0 mm 0.00 in0.0 mm 0.00 in0.0 mm
01:41 PM 91.4°F33.0°C 75.5°F24.2°C 60% 4.2 mph W6.8 kmh W 10.4 mph16.7 kmh 29.94 in1013.9 mb 0.00 in0.0 mm 0.00 in0.0 mm 0.00 in0.0 mm
01:42 PM 91.4°F33.0°C 74.5°F23.6°C 58% 7.3 mph W11.7 kmh W 10.4 mph16.7 kmh 29.94 in1013.9 mb 0.00 in0.0 mm 0.00 in0.0 mm 0.00 in0.0 mm
01:43 PM 91.4°F33.0°C 74.0°F23.3°C 57% 3.7 mph W6.0 kmh W 10.4 mph16.7 kmh 29.94 in1013.9 mb 0.00 in0.0 mm 0.00 in0.0 mm 0.00 in0.0 mm
01:44 PM 91.2°F32.9°C 73.3°F22.9°C 56% 3.7 mph W6.0 kmh W 10.4 mph16.7 kmh 29.94 in1013.9 mb 0.00 in0.0 mm 0.00 in0.0 mm 0.00 in0.0 mm
01:45 PM 91.4°F33.0°C 75.0°F23.9°C 59% 6.8 mph W10.9 kmh W 10.4 mph16.7 kmh 29.94 in1013.9 mb 0.00 in0.0 mm 0.00 in0.0 mm 0.00 in0.0 mm
01:46 PM 91.4°F33.0°C 75.0°F23.9°C 59% 7.3 mph WSW11.7 kmh WSW 10.4 mph16.7 kmh 29.94 in1013.9 mb 0.00 in0.0 mm 0.00 in0.0 mm 0.00 in0.0 mm
01:47 PM 91.4°F33.0°C 75.0°F23.9°C 59% 1.7 mph WSW2.7 kmh WSW 10.4 mph16.7 kmh 29.94 in1013.9 mb 0.00 in0.0 mm 0.00 in0.0 mm 0.00 in0.0 mm
01:48 PM 91.4°F33.0°C 75.5°F24.2°C 60% 2.7 mph W4.3 kmh W 9.4 mph15.1 kmh 29.94 in1013.9 mb 0.00 in0.0 mm 0.00 in0.0 mm 0.00 in0.0 mm
01:49 PM 91.6°F33.1°C 75.2°F24.0°C 59% 1.7 mph W2.7 kmh W 8.9 mph14.3 kmh 29.94 in1013.9 mb 0.00 in0.0 mm 0.00 in0.0 mm 0.00 in0.0 mm
01:50 PM 91.6°F33.1°C 74.7°F23.7°C 58% 3.7 mph W6.0 kmh W 8.9 mph14.3 kmh 29.94 in1013.9 mb 0.00 in0.0 mm 0.00 in0.0 mm 0.00 in0.0 mm
01:51 PM 91.4°F33.0°C 74.5°F23.6°C 58% 4.2 mph WSW6.8 kmh WSW 8.9 mph14.3 kmh 29.94 in1013.9 mb 0.00 in0.0 mm 0.00 in0.0 mm 0.00 in0.0 mm
01:52 PM 91.2°F32.9°C 74.3°F23.5°C 58% 1.7 mph W2.7 kmh W 8.9 mph14.3 kmh 29.94 in1013.9 mb 0.00 in0.0 mm 0.00 in0.0 mm 0.00 in0.0 mm
01:53 PM 91.2°F32.9°C 75.9°F24.4°C 61% 5.8 mph W9.3 kmh W 8.9 mph14.3 kmh 29.94 in1013.9 mb 0.00 in0.0 mm 0.00 in0.0 mm 0.00 in0.0 mm
01:54 PM 91.2°F32.9°C 74.8°F23.8°C 59% 7.8 mph W12.6 kmh W 9.4 mph15.1 kmh 29.94 in1013.9 mb 0.00 in0.0 mm 0.00 in0.0 mm 0.00 in0.0 mm
01:55 PM 91.2°F32.9°C 74.8°F23.8°C 59% 4.7 mph WSW7.6 kmh WSW 9.4 mph15.1 kmh 29.94 in1013.9 mb 0.00 in0.0 mm 0.00 in0.0 mm 0.00 in0.0 mm
01:56 PM 91.2°F32.9°C 75.4°F24.1°C 60% 4.7 mph WNW7.6 kmh WNW 9.4 mph15.1 kmh 29.94 in1013.9 mb 0.00 in0.0 mm 0.00 in0.0 mm 0.00 in0.0 mm
01:57 PM 91.0°F32.8°C 75.2°F24.0°C 60% 5.8 mph WNW9.3 kmh WNW 9.4 mph15.1 kmh 29.94 in1013.9 mb 0.00 in0.0 mm 0.00 in0.0 mm 0.00 in0.0 mm
01:58 PM 91.0°F32.8°C 74.2°F23.4°C 58% 3.7 mph SW6.0 kmh SW 9.4 mph15.1 kmh 29.94 in1013.9 mb 0.00 in0.0 mm 0.00 in0.0 mm 0.00 in0.0 mm
01:59 PM 91.0°F32.8°C 73.7°F23.2°C 57% 2.7 mph WSW4.3 kmh WSW 9.4 mph15.1 kmh 29.94 in1013.9 mb 0.00 in0.0 mm 0.00 in0.0 mm 0.00 in0.0 mm
02:00 PM 91.2°F32.9°C 74.3°F23.5°C 58% 2.2 mph W3.5 kmh W 9.4 mph15.1 kmh 29.94 in1013.9 mb 0.00 in0.0 mm 0.00 in0.0 mm 0.00 in0.0 mm
02:01 PM 91.0°F32.8°C 74.2°F23.4°C 58% 5.3 mph W8.5 kmh W 9.4 mph15.1 kmh 29.94 in1013.9 mb 0.00 in0.0 mm 0.00 in0.0 mm 0.00 in0.0 mm
02:02 PM 91.0°F32.8°C 75.2°F24.0°C 60% 3.7 mph WSW6.0 kmh WSW 9.4 mph15.1 kmh 29.93 in1013.5 mb 0.00 in0.0 mm 0.00 in0.0 mm 0.00 in0.0 mm
02:03 PM 91.2°F32.9°C 74.8°F23.8°C 59% 3.2 mph WSW5.1 kmh WSW 9.4 mph15.1 kmh 29.93 in1013.5 mb 0.00 in0.0 mm 0.00 in0.0 mm 0.00 in0.0 mm
02:04 PM 91.2°F32.9°C 74.8°F23.8°C 59% 3.7 mph W6.0 kmh W 6.8 mph10.9 kmh 29.93 in1013.5 mb 0.00 in0.0 mm 0.00 in0.0 mm 0.00 in0.0 mm
02:05 PM 91.4°F33.0°C 74.5°F23.6°C 58% 5.8 mph W9.3 kmh W 6.8 mph10.9 kmh 29.93 in1013.5 mb 0.00 in0.0 mm 0.00 in0.0 mm 0.00 in0.0 mm
02:06 PM 91.4°F33.0°C 75.0°F23.9°C 59% 6.3 mph W10.1 kmh W 6.8 mph10.9 kmh 29.93 in1013.5 mb 0.00 in0.0 mm 0.00 in0.0 mm 0.00 in0.0 mm
02:07 PM 91.4°F33.0°C 74.0°F23.3°C 57% 6.3 mph W10.1 kmh W 6.8 mph10.9 kmh 29.93 in1013.5 mb 0.00 in0.0 mm 0.00 in0.0 mm 0.00 in0.0 mm
02:08 PM 91.4°F33.0°C 73.5°F23.1°C 56% 4.7 mph W7.6 kmh W 6.8 mph10.9 kmh 29.93 in1013.5 mb 0.00 in0.0 mm 0.00 in0.0 mm 0.00 in0.0 mm
02:09 PM 91.4°F33.0°C 72.9°F22.7°C 55% 2.7 mph W4.3 kmh W 6.8 mph10.9 kmh 29.93 in1013.5 mb 0.00 in0.0 mm 0.00 in0.0 mm 0.00 in0.0 mm
02:10 PM 91.6°F33.1°C 74.2°F23.4°C 57% 1.7 mph W2.7 kmh W 6.3 mph10.1 kmh 29.93 in1013.5 mb 0.00 in0.0 mm 0.00 in0.0 mm 0.00 in0.0 mm
02:11 PM 91.8°F33.2°C 74.8°F23.8°C 58% 2.2 mph W3.5 kmh W 6.3 mph10.1 kmh 29.93 in1013.5 mb 0.00 in0.0 mm 0.00 in0.0 mm 0.00 in0.0 mm
02:12 PM 91.8°F33.2°C 74.3°F23.5°C 57% 2.2 mph SW3.5 kmh SW 6.3 mph10.1 kmh 29.93 in1013.5 mb 0.00 in0.0 mm 0.00 in0.0 mm 0.00 in0.0 mm
02:13 PM 91.8°F33.2°C 75.9°F24.4°C 60% 1.7 mph W2.7 kmh W 6.3 mph10.1 kmh 29.93 in1013.5 mb 0.00 in0.0 mm 0.00 in0.0 mm 0.00 in0.0 mm
02:14 PM 91.6°F33.1°C 74.7°F23.7°C 58% 6.3 mph NW10.1 kmh NW 7.3 mph11.7 kmh 29.93 in1013.5 mb 0.00 in0.0 mm 0.00 in0.0 mm 0.00 in0.0 mm
02:15 PM 91.4°F33.0°C 74.5°F23.6°C 58% 1.1 mph W1.8 kmh W 7.3 mph11.7 kmh 29.93 in1013.5 mb 0.00 in0.0 mm 0.00 in0.0 mm 0.00 in0.0 mm
02:16 PM 91.4°F33.0°C 74.0°F23.3°C 57% 1.1 mph W1.8 kmh W 7.3 mph11.7 kmh 29.93 in1013.5 mb 0.00 in0.0 mm 0.00 in0.0 mm 0.00 in0.0 mm
02:17 PM 91.4°F33.0°C 73.5°F23.1°C 56% 1.7 mph WSW2.7 kmh WSW 7.3 mph11.7 kmh 29.93 in1013.5 mb 0.00 in0.0 mm 0.00 in0.0 mm 0.00 in0.0 mm
02:18 PM 91.4°F33.0°C 73.5°F23.1°C 56% 1.1 mph W1.8 kmh W 7.3 mph11.7 kmh 29.93 in1013.5 mb 0.00 in0.0 mm 0.00 in0.0 mm 0.00 in0.0 mm
02:19 PM 91.6°F33.1°C 74.2°F23.4°C 57% 2.2 mph W3.5 kmh W 7.3 mph11.7 kmh 29.93 in1013.5 mb 0.00 in0.0 mm 0.00 in0.0 mm 0.00 in0.0 mm
02:20 PM 91.6°F33.1°C 74.7°F23.7°C 58% 3.7 mph W6.0 kmh W 7.3 mph11.7 kmh 29.93 in1013.5 mb 0.00 in0.0 mm 0.00 in0.0 mm 0.00 in0.0 mm
02:21 PM 91.6°F33.1°C 74.7°F23.7°C 58% 1.7 mph SW2.7 kmh SW 7.3 mph11.7 kmh 29.93 in1013.5 mb 0.00 in0.0 mm 0.00 in0.0 mm 0.00 in0.0 mm
02:22 PM 91.4°F33.0°C 72.9°F22.7°C 55% 2.2 mph SW3.5 kmh SW 7.3 mph11.7 kmh 29.93 in1013.5 mb 0.00 in0.0 mm 0.00 in0.0 mm 0.00 in0.0 mm
02:23 PM 91.4°F33.0°C 72.9°F22.7°C 55% 1.7 mph W2.7 kmh W 7.3 mph11.7 kmh 29.93 in1013.5 mb 0.00 in0.0 mm 0.00 in0.0 mm 0.00 in0.0 mm
02:24 PM 91.6°F33.1°C 73.1°F22.8°C 55% 3.7 mph SW6.0 kmh SW 7.3 mph11.7 kmh 29.93 in1013.5 mb 0.00 in0.0 mm 0.00 in0.0 mm 0.00 in0.0 mm
02:25 PM 91.6°F33.1°C 73.1°F22.8°C 55% 2.2 mph SW3.5 kmh SW 7.3 mph11.7 kmh 29.93 in1013.5 mb 0.00 in0.0 mm 0.00 in0.0 mm 0.00 in0.0 mm
02:26 PM 91.6°F33.1°C 73.1°F22.8°C 55% 5.8 mph W9.3 kmh W 7.3 mph11.7 kmh 29.93 in1013.5 mb 0.00 in0.0 mm 0.00 in0.0 mm 0.00 in0.0 mm
02:27 PM 91.6°F33.1°C 74.2°F23.4°C 57% 3.2 mph W5.1 kmh W 7.3 mph11.7 kmh 29.93 in1013.5 mb 0.00 in0.0 mm 0.00 in0.0 mm 0.00 in0.0 mm
02:28 PM 91.6°F33.1°C 74.2°F23.4°C 57% 3.2 mph WSW5.1 kmh WSW 7.3 mph11.7 kmh 29.93 in1013.5 mb 0.00 in0.0 mm 0.00 in0.0 mm 0.00 in0.0 mm
02:29 PM 91.4°F33.0°C 74.0°F23.3°C 57% 10.4 mph W16.7 kmh W 10.4 mph16.7 kmh 29.93 in1013.5 mb 0.00 in0.0 mm 0.00 in0.0 mm 0.00 in0.0 mm
02:30 PM 91.0°F32.8°C 74.2°F23.4°C 58% 4.7 mph W7.6 kmh W 10.4 mph16.7 kmh 29.93 in1013.5 mb 0.00 in0.0 mm 0.00 in0.0 mm 0.00 in0.0 mm
02:31 PM 91.0°F32.8°C 74.2°F23.4°C 58% 8.9 mph WSW14.3 kmh WSW 10.4 mph16.7 kmh 29.93 in1013.5 mb 0.00 in0.0 mm 0.00 in0.0 mm 0.00 in0.0 mm
02:32 PM 90.9°F32.7°C 74.5°F23.6°C 59% 9.4 mph WSW15.1 kmh WSW 10.4 mph16.7 kmh 29.93 in1013.5 mb 0.00 in0.0 mm 0.00 in0.0 mm 0.00 in0.0 mm
02:33 PM 90.7°F32.6°C 75.3°F24.1°C 61% 6.3 mph W10.1 kmh W 11.4 mph18.3 kmh 29.93 in1013.5 mb 0.00 in0.0 mm 0.00 in0.0 mm 0.00 in0.0 mm
02:34 PM 90.5°F32.5°C 73.7°F23.2°C 58% 8.3 mph W13.4 kmh W 11.4 mph18.3 kmh 29.93 in1013.5 mb 0.00 in0.0 mm 0.00 in0.0 mm 0.00 in0.0 mm
02:35 PM 90.5°F32.5°C 73.7°F23.2°C 58% 4.2 mph WSW6.8 kmh WSW 11.4 mph18.3 kmh 29.93 in1013.5 mb 0.00 in0.0 mm 0.00 in0.0 mm 0.00 in0.0 mm
02:36 PM 90.7°F32.6°C 73.8°F23.2°C 58% 1.1 mph W1.8 kmh W 11.4 mph18.3 kmh 29.93 in1013.5 mb 0.00 in0.0 mm 0.00 in0.0 mm 0.00 in0.0 mm
02:37 PM 90.7°F32.6°C 74.3°F23.5°C 59% 2.7 mph SW4.3 kmh SW 11.4 mph18.3 kmh 29.93 in1013.5 mb 0.00 in0.0 mm 0.00 in0.0 mm 0.00 in0.0 mm
02:38 PM 90.7°F32.6°C 74.3°F23.5°C 59% 1.7 mph W2.7 kmh W 11.4 mph18.3 kmh 29.93 in1013.5 mb 0.00 in0.0 mm 0.00 in0.0 mm 0.00 in0.0 mm
02:39 PM 90.9°F32.7°C 75.0°F23.9°C 60% 1.1 mph SSW1.8 kmh SSW 11.4 mph18.3 kmh 29.93 in1013.5 mb 0.00 in0.0 mm 0.00 in0.0 mm 0.00 in0.0 mm
02:40 PM 90.9°F32.7°C 75.0°F23.9°C 60% 3.7 mph SW6.0 kmh SW 11.4 mph18.3 kmh 29.93 in1013.5 mb 0.00 in0.0 mm 0.00 in0.0 mm 0.00 in0.0 mm
02:41 PM 91.0°F32.8°C 75.2°F24.0°C 60% 2.2 mph W3.5 kmh W 11.4 mph18.3 kmh 29.93 in1013.5 mb 0.00 in0.0 mm 0.00 in0.0 mm 0.00 in0.0 mm
02:42 PM 91.0°F32.8°C 74.7°F23.7°C 59% 7.8 mph W12.6 kmh W 11.4 mph18.3 kmh 29.93 in1013.5 mb 0.00 in0.0 mm 0.00 in0.0 mm 0.00 in0.0 mm
02:43 PM 91.0°F32.8°C 73.7°F23.2°C 57% 6.3 mph WSW10.1 kmh WSW 9.4 mph15.1 kmh 29.93 in1013.5 mb 0.00 in0.0 mm 0.00 in0.0 mm 0.00 in0.0 mm
02:44 PM 91.0°F32.8°C 73.7°F23.2°C 57% 7.8 mph W12.6 kmh W 8.3 mph13.4 kmh 29.93 in1013.5 mb 0.00 in0.0 mm 0.00 in0.0 mm 0.00 in0.0 mm
02:45 PM 91.0°F32.8°C 74.7°F23.7°C 59% 8.3 mph W13.4 kmh W 10.9 mph17.5 kmh 29.93 in1013.5 mb 0.00 in0.0 mm 0.00 in0.0 mm 0.00 in0.0 mm
02:46 PM 90.9°F32.7°C 75.0°F23.9°C 60% 8.3 mph W13.4 kmh W 10.9 mph17.5 kmh 29.93 in1013.5 mb 0.00 in0.0 mm 0.00 in0.0 mm 0.00 in0.0 mm
02:47 PM 90.7°F32.6°C 74.3°F23.5°C 59% 4.2 mph SW6.8 kmh SW 10.9 mph17.5 kmh 29.93 in1013.5 mb 0.00 in0.0 mm 0.00 in0.0 mm 0.00 in0.0 mm
02:48 PM 90.7°F32.6°C 74.8°F23.8°C 60% 6.3 mph SW10.1 kmh SW 10.9 mph17.5 kmh 29.93 in1013.5 mb 0.00 in0.0 mm 0.00 in0.0 mm 0.00 in0.0 mm
02:49 PM 90.7°F32.6°C 73.8°F23.2°C 58% 4.7 mph SW7.6 kmh SW 10.9 mph17.5 kmh 29.93 in1013.5 mb 0.00 in0.0 mm 0.00 in0.0 mm 0.00 in0.0 mm
02:50 PM 90.7°F32.6°C 74.8°F23.8°C 60% 4.7 mph W7.6 kmh W 10.9 mph17.5 kmh 29.93 in1013.5 mb 0.00 in0.0 mm 0.00 in0.0 mm 0.00 in0.0 mm
02:51 PM 90.7°F32.6°C 74.3°F23.5°C 59% 6.3 mph W10.1 kmh W 10.9 mph17.5 kmh 29.93 in1013.5 mb 0.00 in0.0 mm 0.00 in0.0 mm 0.00 in0.0 mm
02:52 PM 90.7°F32.6°C 73.8°F23.2°C 58% 8.3 mph WSW13.4 kmh WSW 10.9 mph17.5 kmh 29.93 in1013.5 mb 0.00 in0.0 mm 0.00 in0.0 mm 0.00 in0.0 mm
02:53 PM 90.9°F32.7°C 74.5°F23.6°C 59% 6.8 mph W10.9 kmh W 10.9 mph17.5 kmh 29.93 in1013.5 mb 0.00 in0.0 mm 0.00 in0.0 mm 0.00 in0.0 mm
02:54 PM 90.9°F32.7°C 74.0°F23.3°C 58% 9.4 mph W15.1 kmh W 10.9 mph17.5 kmh 29.93 in1013.5 mb 0.00 in0.0 mm 0.00 in0.0 mm 0.00 in0.0 mm
02:55 PM 90.7°F32.6°C 73.8°F23.2°C 58% 3.2 mph W5.1 kmh W 10.4 mph16.7 kmh 29.93 in1013.5 mb 0.00 in0.0 mm 0.00 in0.0 mm 0.00 in0.0 mm
02:56 PM 90.5°F32.5°C 74.7°F23.7°C 60% 9.4 mph W15.1 kmh W 9.4 mph15.1 kmh 29.93 in1013.5 mb 0.00 in0.0 mm 0.00 in0.0 mm 0.00 in0.0 mm
02:57 PM 90.3°F32.4°C 74.0°F23.3°C 59% 10.4 mph W16.7 kmh W 11.4 mph18.3 kmh 29.93 in1013.5 mb 0.00 in0.0 mm 0.00 in0.0 mm 0.00 in0.0 mm
02:58 PM 90.3°F32.4°C 74.0°F23.3°C 59% 9.9 mph W15.9 kmh W 11.4 mph18.3 kmh 29.93 in1013.5 mb 0.00 in0.0 mm 0.00 in0.0 mm 0.00 in0.0 mm
02:59 PM 90.3°F32.4°C 74.5°F23.6°C 60% 9.4 mph W15.1 kmh W 11.4 mph18.3 kmh 29.93 in1013.5 mb 0.00 in0.0 mm 0.00 in0.0 mm 0.00 in0.0 mm
03:00 PM 90.3°F32.4°C 74.0°F23.3°C 59% 2.7 mph W4.3 kmh W 11.4 mph18.3 kmh 29.93 in1013.5 mb 0.00 in0.0 mm 0.00 in0.0 mm 0.00 in0.0 mm
03:01 PM 90.3°F32.4°C 74.5°F23.6°C 60% 5.3 mph W8.5 kmh W 11.4 mph18.3 kmh 29.93 in1013.5 mb 0.00 in0.0 mm 0.00 in0.0 mm 0.00 in0.0 mm
03:02 PM 90.3°F32.4°C 74.0°F23.3°C 59% 5.3 mph W8.5 kmh W 11.4 mph18.3 kmh 29.93 in1013.5 mb 0.00 in0.0 mm 0.00 in0.0 mm 0.00 in0.0 mm
03:03 PM 90.3°F32.4°C 74.0°F23.3°C 59% 3.2 mph W5.1 kmh W 11.4 mph18.3 kmh 29.93 in1013.5 mb 0.00 in0.0 mm 0.00 in0.0 mm 0.00 in0.0 mm
03:04 PM 90.3°F32.4°C 73.5°F23.1°C 58% 4.2 mph W6.8 kmh W 11.4 mph18.3 kmh 29.93 in1013.5 mb 0.00 in0.0 mm 0.00 in0.0 mm 0.00 in0.0 mm
03:05 PM 90.3°F32.4°C 73.5°F23.1°C 58% 3.2 mph SSW5.1 kmh SSW 11.4 mph18.3 kmh 29.93 in1013.5 mb 0.00 in0.0 mm 0.00 in0.0 mm 0.00 in0.0 mm
03:06 PM 90.5°F32.5°C 73.7°F23.2°C 58% 1.7 mph W2.7 kmh W 11.4 mph18.3 kmh 29.93 in1013.5 mb 0.00 in0.0 mm 0.00 in0.0 mm 0.00 in0.0 mm
03:07 PM 90.7°F32.6°C 74.3°F23.5°C 59% 3.2 mph WSW5.1 kmh WSW 10.9 mph17.5 kmh 29.93 in1013.5 mb 0.00 in0.0 mm 0.00 in0.0 mm 0.00 in0.0 mm
03:08 PM 90.7°F32.6°C 74.3°F23.5°C 59% 3.2 mph W5.1 kmh W 10.9 mph17.5 kmh 29.93 in1013.5 mb 0.00 in0.0 mm 0.00 in0.0 mm 0.00 in0.0 mm
03:09 PM 90.7°F32.6°C 74.3°F23.5°C 59% 3.2 mph WSW5.1 kmh WSW 10.4 mph16.7 kmh 29.93 in1013.5 mb 0.00 in0.0 mm 0.00 in0.0 mm 0.00 in0.0 mm
03:10 PM 90.7°F32.6°C 73.3°F22.9°C 57% 8.3 mph W13.4 kmh W 9.4 mph15.1 kmh 29.93 in1013.5 mb 0.00 in0.0 mm 0.00 in0.0 mm 0.00 in0.0 mm
03:11 PM 90.7°F32.6°C 73.3°F22.9°C 57% 7.8 mph W12.6 kmh W 9.4 mph15.1 kmh 29.93 in1013.5 mb 0.00 in0.0 mm 0.00 in0.0 mm 0.00 in0.0 mm
03:12 PM 90.5°F32.5°C 72.6°F22.6°C 56% 5.8 mph WSW9.3 kmh WSW 9.4 mph15.1 kmh 29.93 in1013.5 mb 0.00 in0.0 mm 0.00 in0.0 mm 0.00 in0.0 mm
03:13 PM 90.5°F32.5°C 72.6°F22.6°C 56% 6.8 mph W10.9 kmh W 9.4 mph15.1 kmh 29.93 in1013.5 mb 0.00 in0.0 mm 0.00 in0.0 mm 0.00 in0.0 mm
03:14 PM 90.5°F32.5°C 73.7°F23.2°C 58% 3.2 mph W5.1 kmh W 9.4 mph15.1 kmh 29.93 in1013.5 mb 0.00 in0.0 mm 0.00 in0.0 mm 0.00 in0.0 mm
03:15 PM 90.5°F32.5°C 74.2°F23.4°C 59% 4.2 mph W6.8 kmh W 9.4 mph15.1 kmh 29.93 in1013.5 mb 0.00 in0.0 mm 0.00 in0.0 mm 0.00 in0.0 mm
03:16 PM 90.5°F32.5°C 73.7°F23.2°C 58% 5.8 mph SW9.3 kmh SW 9.4 mph15.1 kmh 29.93 in1013.5 mb 0.00 in0.0 mm 0.00 in0.0 mm 0.00 in0.0 mm
03:17 PM 90.3°F32.4°C 73.0°F22.8°C 57% 6.8 mph W10.9 kmh W 9.4 mph15.1 kmh 29.93 in1013.5 mb 0.00 in0.0 mm 0.00 in0.0 mm 0.00 in0.0 mm
03:18 PM 90.3°F32.4°C 72.5°F22.5°C 56% 8.3 mph W13.4 kmh W 9.4 mph15.1 kmh 29.93 in1013.5 mb 0.00 in0.0 mm 0.00 in0.0 mm 0.00 in0.0 mm
03:19 PM 90.3°F32.4°C 72.5°F22.5°C 56% 7.8 mph W12.6 kmh W 9.4 mph15.1 kmh 29.93 in1013.5 mb 0.00 in0.0 mm 0.00 in0.0 mm 0.00 in0.0 mm
03:20 PM 90.3°F32.4°C 72.5°F22.5°C 56% 5.8 mph WSW9.3 kmh WSW 9.4 mph15.1 kmh 29.93 in1013.5 mb 0.00 in0.0 mm 0.00 in0.0 mm 0.00 in0.0 mm
03:21 PM 90.3°F32.4°C 72.5°F22.5°C 56% 9.4 mph W15.1 kmh W 9.4 mph15.1 kmh 29.93 in1013.5 mb 0.00 in0.0 mm 0.00 in0.0 mm 0.00 in0.0 mm
03:22 PM 90.3°F32.4°C 72.5°F22.5°C 56% 7.8 mph W12.6 kmh W 10.9 mph17.5 kmh 29.93 in1013.5 mb 0.00 in0.0 mm 0.00 in0.0 mm 0.00 in0.0 mm
03:23 PM 90.3°F32.4°C 73.5°F23.1°C 58% 8.3 mph WSW13.4 kmh WSW 10.9 mph17.5 kmh 29.93 in1013.5 mb 0.00 in0.0 mm 0.00 in0.0 mm 0.00 in0.0 mm
03:24 PM 90.5°F32.5°C 73.7°F23.2°C 58% 4.2 mph SW6.8 kmh SW 10.9 mph17.5 kmh 29.93 in1013.5 mb 0.00 in0.0 mm 0.00 in0.0 mm 0.00 in0.0 mm
03:25 PM 90.5°F32.5°C 72.6°F22.6°C 56% 6.3 mph WNW10.1 kmh WNW 10.9 mph17.5 kmh 29.93 in1013.5 mb 0.00 in0.0 mm 0.00 in0.0 mm 0.00 in0.0 mm
03:26 PM 90.5°F32.5°C 73.1°F22.8°C 57% 8.3 mph W13.4 kmh W 10.9 mph17.5 kmh 29.93 in1013.5 mb 0.00 in0.0 mm 0.00 in0.0 mm 0.00 in0.0 mm
03:27 PM 90.5°F32.5°C 73.1°F22.8°C 57% 12.5 mph W20.1 kmh W 12.5 mph20.1 kmh 29.93 in1013.5 mb 0.00 in0.0 mm 0.00 in0.0 mm 0.00 in0.0 mm
03:28 PM 90.5°F32.5°C 73.1°F22.8°C 57% 10.4 mph W16.7 kmh W 12.5 mph20.1 kmh 29.93 in1013.5 mb 0.00 in0.0 mm 0.00 in0.0 mm 0.00 in0.0 mm
03:29 PM 90.5°F32.5°C 73.7°F23.2°C 58% 9.4 mph W15.1 kmh W 12.5 mph20.1 kmh 29.93 in1013.5 mb 0.00 in0.0 mm 0.00 in0.0 mm 0.00 in0.0 mm
03:30 PM 90.5°F32.5°C 72.6°F22.6°C 56% 10.9 mph W17.5 kmh W 12.5 mph20.1 kmh 29.93 in1013.5 mb 0.00 in0.0 mm 0.00 in0.0 mm 0.00 in0.0 mm
03:31 PM 90.7°F32.6°C 73.8°F23.2°C 58% 8.3 mph W13.4 kmh W 12.5 mph20.1 kmh 29.93 in1013.5 mb 0.00 in0.0 mm 0.00 in0.0 mm 0.00 in0.0 mm
03:32 PM 90.9°F32.7°C 73.0°F22.8°C 56% 9.4 mph W15.1 kmh W 12.5 mph20.1 kmh 29.93 in1013.5 mb 0.00 in0.0 mm 0.00 in0.0 mm 0.00 in0.0 mm
03:33 PM 90.9°F32.7°C 73.0°F22.8°C 56% 9.9 mph W15.9 kmh W 12.5 mph20.1 kmh 29.93 in1013.5 mb 0.00 in0.0 mm 0.00 in0.0 mm 0.00 in0.0 mm
03:34 PM 91.0°F32.8°C 73.7°F23.2°C 57% 9.9 mph W15.9 kmh W 12.5 mph20.1 kmh 29.93 in1013.5 mb 0.00 in0.0 mm 0.00 in0.0 mm 0.00 in0.0 mm
03:35 PM 91.0°F32.8°C 73.7°F23.2°C 57% 8.9 mph W14.3 kmh W 12.5 mph20.1 kmh 29.93 in1013.5 mb 0.00 in0.0 mm 0.00 in0.0 mm 0.00 in0.0 mm
03:36 PM 91.2°F32.9°C 74.3°F23.5°C 58% 9.4 mph W15.1 kmh W 12.5 mph20.1 kmh 29.93 in1013.5 mb 0.00 in0.0 mm 0.00 in0.0 mm 0.00 in0.0 mm
03:37 PM 91.2°F32.9°C 73.8°F23.2°C 57% 11.4 mph W18.3 kmh W 11.9 mph19.2 kmh 29.93 in1013.5 mb 0.00 in0.0 mm 0.00 in0.0 mm 0.00 in0.0 mm
03:38 PM 91.2°F32.9°C 72.8°F22.7°C 55% 6.3 mph W10.1 kmh W 11.9 mph19.2 kmh 29.93 in1013.5 mb 0.00 in0.0 mm 0.00 in0.0 mm 0.00 in0.0 mm
03:39 PM 91.2°F32.9°C 73.3°F22.9°C 56% 8.9 mph W14.3 kmh W 11.9 mph19.2 kmh 29.93 in1013.5 mb 0.00 in0.0 mm 0.00 in0.0 mm 0.00 in0.0 mm
03:40 PM 91.4°F33.0°C 74.5°F23.6°C 58% 9.4 mph WSW15.1 kmh WSW 11.4 mph18.3 kmh 29.93 in1013.5 mb 0.00 in0.0 mm 0.00 in0.0 mm 0.00 in0.0 mm
03:41 PM 91.4°F33.0°C 74.0°F23.3°C 57% 9.4 mph W15.1 kmh W 11.4 mph18.3 kmh 29.93 in1013.5 mb 0.00 in0.0 mm 0.00 in0.0 mm 0.00 in0.0 mm
03:42 PM 91.4°F33.0°C 73.5°F23.1°C 56% 10.9 mph W17.5 kmh W 11.4 mph18.3 kmh 29.93 in1013.5 mb 0.00 in0.0 mm 0.00 in0.0 mm 0.00 in0.0 mm
03:43 PM 91.4°F33.0°C 74.0°F23.3°C 57% 8.3 mph W13.4 kmh W 11.4 mph18.3 kmh 29.93 in1013.5 mb 0.00 in0.0 mm 0.00 in0.0 mm 0.00 in0.0 mm
03:44 PM 91.4°F33.0°C 74.5°F23.6°C 58% 5.3 mph WSW8.5 kmh WSW 11.4 mph18.3 kmh 29.93 in1013.5 mb 0.00 in0.0 mm 0.00 in0.0 mm 0.00 in0.0 mm
03:45 PM 91.4°F33.0°C 73.5°F23.1°C 56% 4.2 mph W6.8 kmh W 11.4 mph18.3 kmh 29.93 in1013.5 mb 0.00 in0.0 mm 0.00 in0.0 mm 0.00 in0.0 mm
03:46 PM 91.4°F33.0°C 75.0°F23.9°C 59% 6.8 mph W10.9 kmh W 11.4 mph18.3 kmh 29.93 in1013.5 mb 0.00 in0.0 mm 0.00 in0.0 mm 0.00 in0.0 mm
03:47 PM 91.4°F33.0°C 75.0°F23.9°C 59% 8.3 mph W13.4 kmh W 11.4 mph18.3 kmh 29.93 in1013.5 mb 0.00 in0.0 mm 0.00 in0.0 mm 0.00 in0.0 mm
03:48 PM 91.6°F33.1°C 73.6°F23.1°C 56% 7.3 mph W11.7 kmh W 10.9 mph17.5 kmh 29.93 in1013.5 mb 0.00 in0.0 mm 0.00 in0.0 mm 0.00 in0.0 mm
03:49 PM 91.4°F33.0°C 74.5°F23.6°C 58% 1.1 mph W1.8 kmh W 10.9 mph17.5 kmh 29.93 in1013.5 mb 0.00 in0.0 mm 0.00 in0.0 mm 0.00 in0.0 mm
03:50 PM 91.2°F32.9°C 74.3°F23.5°C 58% 1.7 mph W2.7 kmh W 10.9 mph17.5 kmh 29.93 in1013.5 mb 0.00 in0.0 mm 0.00 in0.0 mm 0.00 in0.0 mm
03:51 PM 91.4°F33.0°C 72.9°F22.7°C 55% 5.3 mph WSW8.5 kmh WSW 10.9 mph17.5 kmh 29.93 in1013.5 mb 0.00 in0.0 mm 0.00 in0.0 mm 0.00 in0.0 mm
03:52 PM 91.8°F33.2°C 72.7°F22.6°C 54% 4.2 mph W6.8 kmh W 9.9 mph15.9 kmh 29.93 in1013.5 mb 0.00 in0.0 mm 0.00 in0.0 mm 0.00 in0.0 mm
03:53 PM 91.8°F33.2°C 73.3°F22.9°C 55% 6.8 mph W10.9 kmh W 8.9 mph14.3 kmh 29.93 in1013.5 mb 0.00 in0.0 mm 0.00 in0.0 mm 0.00 in0.0 mm
03:54 PM 91.9°F33.3°C 73.4°F23.0°C 55% 5.8 mph W9.3 kmh W 8.9 mph14.3 kmh 29.93 in1013.5 mb 0.00 in0.0 mm 0.00 in0.0 mm 0.00 in0.0 mm
03:55 PM 91.8°F33.2°C 75.4°F24.1°C 59% 1.7 mph WSW2.7 kmh WSW 8.9 mph14.3 kmh 29.93 in1013.5 mb 0.00 in0.0 mm 0.00 in0.0 mm 0.00 in0.0 mm
03:56 PM 91.6°F33.1°C 75.2°F24.0°C 59% 1.7 mph W2.7 kmh W 8.9 mph14.3 kmh 29.93 in1013.5 mb 0.00 in0.0 mm 0.00 in0.0 mm 0.00 in0.0 mm
03:57 PM 91.6°F33.1°C 74.7°F23.7°C 58% 1.1 mph WSW1.8 kmh WSW 8.9 mph14.3 kmh 29.93 in1013.5 mb 0.00 in0.0 mm 0.00 in0.0 mm 0.00 in0.0 mm
03:58 PM 91.8°F33.2°C 74.3°F23.5°C 57% 6.3 mph W10.1 kmh W 8.9 mph14.3 kmh 29.93 in1013.5 mb 0.00 in0.0 mm 0.00 in0.0 mm 0.00 in0.0 mm
03:59 PM 91.9°F33.3°C 74.0°F23.3°C 56% 1.7 mph SW2.7 kmh SW 8.9 mph14.3 kmh 29.93 in1013.5 mb 0.00 in0.0 mm 0.00 in0.0 mm 0.00 in0.0 mm
04:00 PM 92.1°F33.4°C 74.7°F23.7°C 57% 2.2 mph W3.5 kmh W 8.9 mph14.3 kmh 29.93 in1013.5 mb 0.00 in0.0 mm 0.00 in0.0 mm 0.00 in0.0 mm
04:01 PM 92.3°F33.5°C 74.8°F23.8°C 57% 3.7 mph W6.0 kmh W 8.9 mph14.3 kmh 29.93 in1013.5 mb 0.00 in0.0 mm 0.00 in0.0 mm 0.00 in0.0 mm
04:02 PM 92.3°F33.5°C 74.8°F23.8°C 57% 1.1 mph SW1.8 kmh SW 8.9 mph14.3 kmh 29.93 in1013.5 mb 0.00 in0.0 mm 0.00 in0.0 mm 0.00 in0.0 mm
04:03 PM 92.1°F33.4°C 74.7°F23.7°C 57% 1.1 mph SW1.8 kmh SW 8.3 mph13.4 kmh 29.93 in1013.5 mb 0.00 in0.0 mm 0.00 in0.0 mm 0.00 in0.0 mm
04:04 PM 92.1°F33.4°C 74.1°F23.4°C 56% 1.1 mph SW1.8 kmh SW 8.3 mph13.4 kmh 29.93 in1013.5 mb 0.00 in0.0 mm 0.00 in0.0 mm 0.00 in0.0 mm
04:05 PM 92.3°F33.5°C 74.8°F23.8°C 57% Calm Calm 8.3 mph13.4 kmh 29.93 in1013.5 mb 0.00 in0.0 mm 0.00 in0.0 mm 0.00 in0.0 mm
04:06 PM 92.5°F33.6°C 75.0°F23.9°C 57% 4.2 mph W6.8 kmh W 8.3 mph13.4 kmh 29.93 in1013.5 mb 0.00 in0.0 mm 0.00 in0.0 mm 0.00 in0.0 mm
04:07 PM 92.7°F33.7°C 74.6°F23.7°C 56% 3.7 mph W6.0 kmh W 8.3 mph13.4 kmh 29.93 in1013.5 mb 0.00 in0.0 mm 0.00 in0.0 mm 0.00 in0.0 mm
04:08 PM 92.7°F33.7°C 75.2°F24.0°C 57% 1.1 mph W1.8 kmh W 8.3 mph13.4 kmh 29.93 in1013.5 mb 0.00 in0.0 mm 0.00 in0.0 mm 0.00 in0.0 mm
04:09 PM 92.8°F33.8°C 74.8°F23.8°C 56% 1.1 mph WSW1.8 kmh WSW 7.8 mph12.6 kmh 29.93 in1013.5 mb 0.00 in0.0 mm 0.00 in0.0 mm 0.00 in0.0 mm
04:10 PM 92.8°F33.8°C 75.3°F24.1°C 57% 2.2 mph W3.5 kmh W 7.8 mph12.6 kmh 29.93 in1013.5 mb 0.00 in0.0 mm 0.00 in0.0 mm 0.00 in0.0 mm
04:11 PM 92.7°F33.7°C 75.2°F24.0°C 57% 1.1 mph W1.8 kmh W 7.8 mph12.6 kmh 29.93 in1013.5 mb 0.00 in0.0 mm 0.00 in0.0 mm 0.00 in0.0 mm
04:12 PM 92.5°F33.6°C 74.5°F23.6°C 56% 2.2 mph W3.5 kmh W 7.8 mph12.6 kmh 29.93 in1013.5 mb 0.00 in0.0 mm 0.00 in0.0 mm 0.00 in0.0 mm
04:13 PM 92.5°F33.6°C 75.5°F24.2°C 58% 4.2 mph W6.8 kmh W 7.8 mph12.6 kmh 29.93 in1013.5 mb 0.00 in0.0 mm 0.00 in0.0 mm 0.00 in0.0 mm
04:14 PM 92.7°F33.7°C 76.2°F24.6°C 59% 1.1 mph WSW1.8 kmh WSW 7.8 mph12.6 kmh 29.93 in1013.5 mb 0.00 in0.0 mm 0.00 in0.0 mm 0.00 in0.0 mm
04:15 PM 92.7°F33.7°C 75.2°F24.0°C 57% 1.7 mph WSW2.7 kmh WSW 7.8 mph12.6 kmh 29.93 in1013.5 mb 0.00 in0.0 mm 0.00 in0.0 mm 0.00 in0.0 mm
04:16 PM 92.7°F33.7°C 75.2°F24.0°C 57% 1.1 mph WSW1.8 kmh WSW 7.8 mph12.6 kmh 29.93 in1013.5 mb 0.00 in0.0 mm 0.00 in0.0 mm 0.00 in0.0 mm
04:17 PM 92.7°F33.7°C 76.2°F24.6°C 59% Calm Calm 6.8 mph10.9 kmh 29.93 in1013.5 mb 0.00 in0.0 mm 0.00 in0.0 mm 0.00 in0.0 mm
04:18 PM 92.8°F33.8°C 76.4°F24.7°C 59% 2.2 mph W3.5 kmh W 6.8 mph10.9 kmh 29.93 in1013.5 mb 0.00 in0.0 mm 0.00 in0.0 mm 0.00 in0.0 mm
04:19 PM 92.8°F33.8°C 75.8°F24.3°C 58% 1.7 mph WSW2.7 kmh WSW 6.8 mph10.9 kmh 29.93 in1013.5 mb 0.00 in0.0 mm 0.00 in0.0 mm 0.00 in0.0 mm
04:20 PM 92.7°F33.7°C 74.6°F23.7°C 56% 2.2 mph W3.5 kmh W 6.8 mph10.9 kmh 29.93 in1013.5 mb 0.00 in0.0 mm 0.00 in0.0 mm 0.00 in0.0 mm
04:21 PM 92.7°F33.7°C 74.6°F23.7°C 56% 2.7 mph W4.3 kmh W 6.8 mph10.9 kmh 29.93 in1013.5 mb 0.00 in0.0 mm 0.00 in0.0 mm 0.00 in0.0 mm
04:22 PM 92.5°F33.6°C 75.0°F23.9°C 57% 2.7 mph W4.3 kmh W 5.8 mph9.3 kmh 29.93 in1013.5 mb 0.00 in0.0 mm 0.00 in0.0 mm 0.00 in0.0 mm
04:23 PM 92.5°F33.6°C 75.0°F23.9°C 57% 1.1 mph WSW1.8 kmh WSW 5.8 mph9.3 kmh 29.93 in1013.5 mb 0.00 in0.0 mm 0.00 in0.0 mm 0.00 in0.0 mm
04:24 PM 92.5°F33.6°C 75.0°F23.9°C 57% 1.7 mph W2.7 kmh W 5.8 mph9.3 kmh 29.93 in1013.5 mb 0.00 in0.0 mm 0.00 in0.0 mm 0.00 in0.0 mm
04:25 PM 92.5°F33.6°C 75.0°F23.9°C 57% 6.8 mph W10.9 kmh W 6.8 mph10.9 kmh 29.93 in1013.5 mb 0.00 in0.0 mm 0.00 in0.0 mm 0.00 in0.0 mm
04:26 PM 92.3°F33.5°C 74.8°F23.8°C 57% 3.7 mph WSW6.0 kmh WSW 6.8 mph10.9 kmh 29.93 in1013.5 mb 0.00 in0.0 mm 0.00 in0.0 mm 0.00 in0.0 mm
04:27 PM 92.3°F33.5°C 74.3°F23.5°C 56% 4.2 mph W6.8 kmh W 6.8 mph10.9 kmh 29.93 in1013.5 mb 0.00 in0.0 mm 0.00 in0.0 mm 0.00 in0.0 mm
04:28 PM 92.1°F33.4°C 73.6°F23.1°C 55% 2.2 mph WSW3.5 kmh WSW 6.8 mph10.9 kmh 29.93 in1013.5 mb 0.00 in0.0 mm 0.00 in0.0 mm 0.00 in0.0 mm
04:29 PM 92.1°F33.4°C 75.2°F24.0°C 58% 2.2 mph W3.5 kmh W 6.8 mph10.9 kmh 29.93 in1013.5 mb 0.00 in0.0 mm 0.00 in0.0 mm 0.00 in0.0 mm
04:30 PM 92.1°F33.4°C 75.2°F24.0°C 58% 1.7 mph WSW2.7 kmh WSW 6.8 mph10.9 kmh 29.93 in1013.5 mb 0.00 in0.0 mm 0.00 in0.0 mm 0.00 in0.0 mm
04:31 PM 92.1°F33.4°C 74.7°F23.7°C 57% 3.2 mph W5.1 kmh W 6.8 mph10.9 kmh 29.93 in1013.5 mb 0.00 in0.0 mm 0.00 in0.0 mm 0.00 in0.0 mm
04:32 PM 92.1°F33.4°C 74.7°F23.7°C 57% 1.1 mph W1.8 kmh W 6.8 mph10.9 kmh 29.93 in1013.5 mb 0.00 in0.0 mm 0.00 in0.0 mm 0.00 in0.0 mm
04:33 PM 92.1°F33.4°C 75.2°F24.0°C 58% Calm Calm 6.8 mph10.9 kmh 29.93 in1013.5 mb 0.00 in0.0 mm 0.00 in0.0 mm 0.00 in0.0 mm
04:34 PM 92.1°F33.4°C 75.2°F24.0°C 58% 1.1 mph SW1.8 kmh SW 6.8 mph10.9 kmh 29.93 in1013.5 mb 0.00 in0.0 mm 0.00 in0.0 mm 0.00 in0.0 mm
04:35 PM 92.1°F33.4°C 75.2°F24.0°C 58% 1.7 mph SW2.7 kmh SW 5.3 mph8.5 kmh 29.93 in1013.5 mb 0.00 in0.0 mm 0.00 in0.0 mm 0.00 in0.0 mm
04:36 PM 92.1°F33.4°C 75.2°F24.0°C 58% 1.1 mph W1.8 kmh W 5.3 mph8.5 kmh 29.93 in1013.5 mb 0.00 in0.0 mm 0.00 in0.0 mm 0.00 in0.0 mm
04:37 PM 92.1°F33.4°C 75.2°F24.0°C 58% 2.2 mph W3.5 kmh W 5.3 mph8.5 kmh 29.93 in1013.5 mb 0.00 in0.0 mm 0.00 in0.0 mm 0.00 in0.0 mm
04:38 PM 92.1°F33.4°C 75.2°F24.0°C 58% 3.7 mph W6.0 kmh W 5.3 mph8.5 kmh 29.93 in1013.5 mb 0.00 in0.0 mm 0.00 in0.0 mm 0.00 in0.0 mm
04:39 PM 91.9°F33.3°C 75.5°F24.2°C 59% Calm Calm 5.3 mph8.5 kmh 29.93 in1013.5 mb 0.00 in0.0 mm 0.00 in0.0 mm 0.00 in0.0 mm
04:40 PM 91.9°F33.3°C 75.5°F24.2°C 59% 1.1 mph W1.8 kmh W 4.7 mph7.6 kmh 29.93 in1013.5 mb 0.00 in0.0 mm 0.00 in0.0 mm 0.00 in0.0 mm
04:41 PM 91.9°F33.3°C 75.5°F24.2°C 59% 4.2 mph WSW6.8 kmh WSW 4.7 mph7.6 kmh 29.93 in1013.5 mb 0.00 in0.0 mm 0.00 in0.0 mm 0.00 in0.0 mm
04:42 PM 91.8°F33.2°C 75.4°F24.1°C 59% 3.2 mph W5.1 kmh W 4.7 mph7.6 kmh 29.93 in1013.5 mb 0.00 in0.0 mm 0.00 in0.0 mm 0.00 in0.0 mm
04:43 PM 91.8°F33.2°C 75.9°F24.4°C 60% 1.1 mph W1.8 kmh W 4.7 mph7.6 kmh 29.93 in1013.5 mb 0.00 in0.0 mm 0.00 in0.0 mm 0.00 in0.0 mm
04:44 PM 91.6°F33.1°C 75.2°F24.0°C 59% 1.7 mph WSW2.7 kmh WSW 4.7 mph7.6 kmh 29.93 in1013.5 mb 0.00 in0.0 mm 0.00 in0.0 mm 0.00 in0.0 mm
04:45 PM 91.4°F33.0°C 75.0°F23.9°C 59% 2.7 mph W4.3 kmh W 4.7 mph7.6 kmh 29.93 in1013.5 mb 0.00 in0.0 mm 0.00 in0.0 mm 0.00 in0.0 mm
04:46 PM 91.4°F33.0°C 75.0°F23.9°C 59% 7.3 mph WSW11.7 kmh WSW 7.3 mph11.7 kmh 29.93 in1013.5 mb 0.00 in0.0 mm 0.00 in0.0 mm 0.00 in0.0 mm
04:47 PM 91.0°F32.8°C 75.2°F24.0°C 60% 5.8 mph W9.3 kmh W 7.3 mph11.7 kmh 29.93 in1013.5 mb 0.00 in0.0 mm 0.00 in0.0 mm 0.00 in0.0 mm
04:48 PM 91.0°F32.8°C 75.7°F24.3°C 61% 1.1 mph W1.8 kmh W 7.3 mph11.7 kmh 29.93 in1013.5 mb 0.00 in0.0 mm 0.00 in0.0 mm 0.00 in0.0 mm
04:49 PM 91.0°F32.8°C 76.2°F24.6°C 62% 1.1 mph WSW1.8 kmh WSW 7.3 mph11.7 kmh 29.93 in1013.5 mb 0.00 in0.0 mm 0.00 in0.0 mm 0.00 in0.0 mm
04:50 PM 91.0°F32.8°C 75.7°F24.3°C 61% 4.2 mph W6.8 kmh W 7.3 mph11.7 kmh 29.93 in1013.5 mb 0.00 in0.0 mm 0.00 in0.0 mm 0.00 in0.0 mm
04:51 PM 90.7°F32.6°C 75.3°F24.1°C 61% 4.7 mph W7.6 kmh W 7.3 mph11.7 kmh 29.93 in1013.5 mb 0.00 in0.0 mm 0.00 in0.0 mm 0.00 in0.0 mm
04:52 PM 90.7°F32.6°C 75.8°F24.3°C 62% 2.2 mph W3.5 kmh W 7.3 mph11.7 kmh 29.93 in1013.5 mb 0.00 in0.0 mm 0.00 in0.0 mm 0.00 in0.0 mm
04:53 PM 90.5°F32.5°C 77.1°F25.1°C 65% Calm Calm 7.3 mph11.7 kmh 29.93 in1013.5 mb 0.00 in0.0 mm 0.00 in0.0 mm 0.00 in0.0 mm
04:54 PM 90.5°F32.5°C 77.1°F25.1°C 65% 3.7 mph W6.0 kmh W 7.3 mph11.7 kmh 29.93 in1013.5 mb 0.00 in0.0 mm 0.00 in0.0 mm 0.00 in0.0 mm
04:55 PM 90.3°F32.4°C 76.9°F24.9°C 65% 4.2 mph WSW6.8 kmh WSW 7.3 mph11.7 kmh 29.93 in1013.5 mb 0.00 in0.0 mm 0.00 in0.0 mm 0.00 in0.0 mm
04:56 PM 90.0°F32.2°C 76.6°F24.8°C 65% 8.9 mph W14.3 kmh W 10.4 mph16.7 kmh 29.93 in1013.5 mb 0.00 in0.0 mm 0.00 in0.0 mm 0.00 in0.0 mm
04:57 PM 89.8°F32.1°C 76.4°F24.7°C 65% 4.7 mph W7.6 kmh W 10.4 mph16.7 kmh 29.93 in1013.5 mb 0.00 in0.0 mm 0.00 in0.0 mm 0.00 in0.0 mm
04:58 PM 89.6°F32.0°C 75.8°F24.3°C 64% 6.3 mph WSW10.1 kmh WSW 10.4 mph16.7 kmh 29.93 in1013.5 mb 0.00 in0.0 mm 0.00 in0.0 mm 0.00 in0.0 mm
04:59 PM 89.6°F32.0°C 76.7°F24.8°C 66% 6.8 mph W10.9 kmh W 10.4 mph16.7 kmh 29.93 in1013.5 mb 0.00 in0.0 mm 0.00 in0.0 mm 0.00 in0.0 mm
05:00 PM 89.6°F32.0°C 76.7°F24.8°C 66% 6.3 mph W10.1 kmh W 10.4 mph16.7 kmh 29.93 in1013.5 mb 0.00 in0.0 mm 0.00 in0.0 mm 0.00 in0.0 mm
05:01 PM 89.6°F32.0°C 77.6°F25.3°C 68% 1.1 mph W1.8 kmh W 10.4 mph16.7 kmh 29.92 in1013.2 mb 0.00 in0.0 mm 0.00 in0.0 mm 0.00 in0.0 mm
05:02 PM 89.6°F32.0°C 77.2°F25.1°C 67% 3.2 mph W5.1 kmh W 10.4 mph16.7 kmh 29.92 in1013.2 mb 0.00 in0.0 mm 0.00 in0.0 mm 0.00 in0.0 mm
05:03 PM 89.6°F32.0°C 77.2°F25.1°C 67% 9.4 mph W15.1 kmh W 10.4 mph16.7 kmh 29.92 in1013.2 mb 0.00 in0.0 mm 0.00 in0.0 mm 0.00 in0.0 mm
05:04 PM 89.2°F31.8°C 76.4°F24.7°C 66% 5.3 mph W8.5 kmh W 10.4 mph16.7 kmh 29.92 in1013.2 mb 0.00 in0.0 mm 0.00 in0.0 mm 0.00 in0.0 mm
05:05 PM 89.2°F31.8°C 76.8°F24.9°C 67% 5.8 mph W9.3 kmh W 10.4 mph16.7 kmh 29.92 in1013.2 mb 0.00 in0.0 mm 0.00 in0.0 mm 0.00 in0.0 mm
05:06 PM 89.2°F31.8°C 76.8°F24.9°C 67% 8.9 mph W14.3 kmh W 9.4 mph15.1 kmh 29.92 in1013.2 mb 0.00 in0.0 mm 0.00 in0.0 mm 0.00 in0.0 mm
05:07 PM 88.9°F31.6°C 76.5°F24.7°C 67% 4.7 mph W7.6 kmh W 9.4 mph15.1 kmh 29.92 in1013.2 mb 0.00 in0.0 mm 0.00 in0.0 mm 0.00 in0.0 mm
05:08 PM 88.9°F31.6°C 76.9°F24.9°C 68% 9.4 mph W15.1 kmh W 9.4 mph15.1 kmh 29.92 in1013.2 mb 0.00 in0.0 mm 0.00 in0.0 mm 0.00 in0.0 mm
05:09 PM 88.7°F31.5°C 76.7°F24.8°C 68% 8.9 mph W14.3 kmh W 9.4 mph15.1 kmh 29.92 in1013.2 mb 0.00 in0.0 mm 0.00 in0.0 mm 0.00 in0.0 mm
05:10 PM 88.7°F31.5°C 77.2°F25.1°C 69% 5.8 mph W9.3 kmh W 9.4 mph15.1 kmh 29.92 in1013.2 mb 0.00 in0.0 mm 0.00 in0.0 mm 0.00 in0.0 mm
05:11 PM 88.7°F31.5°C 77.2°F25.1°C 69% 5.3 mph W8.5 kmh W 9.4 mph15.1 kmh 29.92 in1013.2 mb 0.00 in0.0 mm 0.00 in0.0 mm 0.00 in0.0 mm
05:12 PM 88.5°F31.4°C 77.0°F25.0°C 69% 2.7 mph WSW4.3 kmh WSW 9.4 mph15.1 kmh 29.92 in1013.2 mb 0.00 in0.0 mm 0.00 in0.0 mm 0.00 in0.0 mm
05:13 PM 88.5°F31.4°C 77.0°F25.0°C 69% 8.9 mph W14.3 kmh W 9.4 mph15.1 kmh 29.93 in1013.5 mb 0.00 in0.0 mm 0.00 in0.0 mm 0.00 in0.0 mm
05:14 PM 88.5°F31.4°C 77.0°F25.0°C 69% 1.1 mph NW1.8 kmh NW 9.4 mph15.1 kmh 29.93 in1013.5 mb 0.00 in0.0 mm 0.00 in0.0 mm 0.00 in0.0 mm
05:15 PM 88.5°F31.4°C 77.0°F25.0°C 69% 5.8 mph WSW9.3 kmh WSW 9.4 mph15.1 kmh 29.93 in1013.5 mb 0.00 in0.0 mm 0.00 in0.0 mm 0.00 in0.0 mm
05:16 PM 88.5°F31.4°C 77.5°F25.3°C 70% 3.2 mph WSW5.1 kmh WSW 9.4 mph15.1 kmh 29.93 in1013.5 mb 0.00 in0.0 mm 0.00 in0.0 mm 0.00 in0.0 mm
05:17 PM 88.5°F31.4°C 77.5°F25.3°C 70% 2.7 mph SW4.3 kmh SW 9.4 mph15.1 kmh 29.93 in1013.5 mb 0.00 in0.0 mm 0.00 in0.0 mm 0.00 in0.0 mm
05:18 PM 88.3°F31.3°C 77.3°F25.2°C 70% 1.1 mph W1.8 kmh W 8.9 mph14.3 kmh 29.93 in1013.5 mb 0.00 in0.0 mm 0.00 in0.0 mm 0.00 in0.0 mm
05:19 PM 88.3°F31.3°C 77.7°F25.4°C 71% 6.3 mph W10.1 kmh W 8.9 mph14.3 kmh 29.93 in1013.5 mb 0.00 in0.0 mm 0.00 in0.0 mm 0.00 in0.0 mm
05:20 PM 88.3°F31.3°C 77.3°F25.2°C 70% 5.3 mph WSW8.5 kmh WSW 8.9 mph14.3 kmh 29.93 in1013.5 mb 0.00 in0.0 mm 0.00 in0.0 mm 0.00 in0.0 mm
05:21 PM 88.0°F31.1°C 77.4°F25.2°C 71% 6.3 mph W10.1 kmh W 8.9 mph14.3 kmh 29.93 in1013.5 mb 0.00 in0.0 mm 0.00 in0.0 mm 0.00 in0.0 mm
05:22 PM 88.0°F31.1°C 77.8°F25.4°C 72% 7.8 mph W12.6 kmh W 8.9 mph14.3 kmh 29.93 in1013.5 mb 0.00 in0.0 mm 0.00 in0.0 mm 0.00 in0.0 mm
05:23 PM 88.0°F31.1°C 77.8°F25.4°C 72% 7.3 mph W11.7 kmh W 8.3 mph13.4 kmh 29.93 in1013.5 mb 0.00 in0.0 mm 0.00 in0.0 mm 0.00 in0.0 mm
05:24 PM 87.6°F30.9°C 77.0°F25.0°C 71% 8.9 mph W14.3 kmh W 8.9 mph14.3 kmh 29.93 in1013.5 mb 0.00 in0.0 mm 0.00 in0.0 mm 0.00 in0.0 mm
05:25 PM 87.4°F30.8°C 77.3°F25.2°C 72% 7.8 mph W12.6 kmh W 9.4 mph15.1 kmh 29.93 in1013.5 mb 0.00 in0.0 mm 0.00 in0.0 mm 0.00 in0.0 mm
05:26 PM 87.4°F30.8°C 77.3°F25.2°C 72% 11.4 mph W18.3 kmh W 11.4 mph18.3 kmh 29.93 in1013.5 mb 0.00 in0.0 mm 0.00 in0.0 mm 0.00 in0.0 mm
05:27 PM 87.4°F30.8°C 77.7°F25.4°C 73% 8.9 mph W14.3 kmh W 11.4 mph18.3 kmh 29.93 in1013.5 mb 0.00 in0.0 mm 0.00 in0.0 mm 0.00 in0.0 mm
05:28 PM 87.3°F30.7°C 77.5°F25.3°C 73% 9.4 mph WSW15.1 kmh WSW 11.4 mph18.3 kmh 29.93 in1013.5 mb 0.00 in0.0 mm 0.00 in0.0 mm 0.00 in0.0 mm
05:29 PM 87.1°F30.6°C 77.3°F25.2°C 73% 8.3 mph W13.4 kmh W 11.4 mph18.3 kmh 29.93 in1013.5 mb 0.00 in0.0 mm 0.00 in0.0 mm 0.00 in0.0 mm
05:30 PM 87.1°F30.6°C 77.8°F25.4°C 74% 8.9 mph W14.3 kmh W 11.4 mph18.3 kmh 29.93 in1013.5 mb 0.00 in0.0 mm 0.00 in0.0 mm 0.00 in0.0 mm
05:31 PM 87.1°F30.6°C 77.8°F25.4°C 74% 7.8 mph W12.6 kmh W 11.4 mph18.3 kmh 29.93 in1013.5 mb 0.00 in0.0 mm 0.00 in0.0 mm 0.00 in0.0 mm
05:32 PM 87.1°F30.6°C 77.8°F25.4°C 74% 8.9 mph W14.3 kmh W 11.4 mph18.3 kmh 29.93 in1013.5 mb 0.00 in0.0 mm 0.00 in0.0 mm 0.00 in0.0 mm
05:33 PM 87.1°F30.6°C 77.8°F25.4°C 74% 8.3 mph W13.4 kmh W 11.4 mph18.3 kmh 29.93 in1013.5 mb 0.00 in0.0 mm 0.00 in0.0 mm 0.00 in0.0 mm
05:34 PM 87.1°F30.6°C 77.8°F25.4°C 74% 8.3 mph W13.4 kmh W 11.4 mph18.3 kmh 29.93 in1013.5 mb 0.00 in0.0 mm 0.00 in0.0 mm 0.00 in0.0 mm
05:35 PM 87.1°F30.6°C 78.2°F25.7°C 75% 8.9 mph W14.3 kmh W 11.4 mph18.3 kmh 29.93 in1013.5 mb 0.00 in0.0 mm 0.00 in0.0 mm 0.00 in0.0 mm
05:36 PM 86.9°F30.5°C 78.0°F25.6°C 75% 4.7 mph W7.6 kmh W 10.4 mph16.7 kmh 29.93 in1013.5 mb 0.00 in0.0 mm 0.00 in0.0 mm 0.00 in0.0 mm
05:37 PM 86.9°F30.5°C 78.0°F25.6°C 75% 8.9 mph W14.3 kmh W 10.4 mph16.7 kmh 29.93 in1013.5 mb 0.00 in0.0 mm 0.00 in0.0 mm 0.00 in0.0 mm
05:38 PM 86.7°F30.4°C 78.2°F25.7°C 76% 7.8 mph WSW12.6 kmh WSW 10.4 mph16.7 kmh 29.92 in1013.2 mb 0.00 in0.0 mm 0.00 in0.0 mm 0.00 in0.0 mm
05:39 PM 86.7°F30.4°C 78.2°F25.7°C 76% 6.8 mph W10.9 kmh W 10.4 mph16.7 kmh 29.92 in1013.2 mb 0.00 in0.0 mm 0.00 in0.0 mm 0.00 in0.0 mm
05:40 PM 86.5°F30.3°C 77.6°F25.3°C 75% 7.8 mph W12.6 kmh W 10.4 mph16.7 kmh 29.92 in1013.2 mb 0.00 in0.0 mm 0.00 in0.0 mm 0.00 in0.0 mm
05:41 PM 86.5°F30.3°C 77.6°F25.3°C 75% 9.4 mph W15.1 kmh W 10.4 mph16.7 kmh 29.92 in1013.2 mb 0.00 in0.0 mm 0.00 in0.0 mm 0.00 in0.0 mm
05:42 PM 86.5°F30.3°C 77.6°F25.3°C 75% 8.3 mph W13.4 kmh W 10.4 mph16.7 kmh 29.92 in1013.2 mb 0.00 in0.0 mm 0.00 in0.0 mm 0.00 in0.0 mm
05:43 PM 86.4°F30.2°C 77.9°F25.5°C 76% 9.4 mph W15.1 kmh W 10.4 mph16.7 kmh 29.92 in1013.2 mb 0.00 in0.0 mm 0.00 in0.0 mm 0.00 in0.0 mm
05:44 PM 86.4°F30.2°C 78.3°F25.7°C 77% 9.4 mph W15.1 kmh W 9.9 mph15.9 kmh 29.92 in1013.2 mb 0.00 in0.0 mm 0.00 in0.0 mm 0.00 in0.0 mm
05:45 PM 86.4°F30.2°C 77.9°F25.5°C 76% 8.3 mph W13.4 kmh W 9.9 mph15.9 kmh 29.92 in1013.2 mb 0.00 in0.0 mm 0.00 in0.0 mm 0.00 in0.0 mm
05:46 PM 86.2°F30.1°C 77.7°F25.4°C 76% 6.3 mph W10.1 kmh W 10.4 mph16.7 kmh 29.92 in1013.2 mb 0.00 in0.0 mm 0.00 in0.0 mm 0.00 in0.0 mm
05:47 PM 86.2°F30.1°C 77.7°F25.4°C 76% 8.9 mph W14.3 kmh W 10.4 mph16.7 kmh 29.92 in1013.2 mb 0.00 in0.0 mm 0.00 in0.0 mm 0.00 in0.0 mm
05:48 PM 86.2°F30.1°C 77.7°F25.4°C 76% 8.3 mph W13.4 kmh W 10.4 mph16.7 kmh 29.92 in1013.2 mb 0.00 in0.0 mm 0.00 in0.0 mm 0.00 in0.0 mm
05:49 PM 86.2°F30.1°C 77.7°F25.4°C 76% 7.8 mph W12.6 kmh W 10.4 mph16.7 kmh 29.93 in1013.5 mb 0.00 in0.0 mm 0.00 in0.0 mm 0.00 in0.0 mm
05:50 PM 86.2°F30.1°C 78.1°F25.6°C 77% 7.8 mph W12.6 kmh W 10.4 mph16.7 kmh 29.93 in1013.5 mb 0.00 in0.0 mm 0.00 in0.0 mm 0.00 in0.0 mm
05:51 PM 86.2°F30.1°C 78.1°F25.6°C 77% 8.9 mph W14.3 kmh W 10.4 mph16.7 kmh 29.93 in1013.5 mb 0.00 in0.0 mm 0.00 in0.0 mm 0.00 in0.0 mm
05:52 PM 86.2°F30.1°C 78.5°F25.8°C 78% 8.3 mph W13.4 kmh W 10.4 mph16.7 kmh 29.93 in1013.5 mb 0.00 in0.0 mm 0.00 in0.0 mm 0.00 in0.0 mm
05:53 PM 86.0°F30.0°C 77.5°F25.3°C 76% 8.9 mph W14.3 kmh W 10.4 mph16.7 kmh 29.93 in1013.5 mb 0.00 in0.0 mm 0.00 in0.0 mm 0.00 in0.0 mm
05:54 PM 86.0°F30.0°C 77.5°F25.3°C 76% 8.9 mph W14.3 kmh W 10.4 mph16.7 kmh 29.93 in1013.5 mb 0.00 in0.0 mm 0.00 in0.0 mm 0.00 in0.0 mm
05:55 PM 86.0°F30.0°C 77.5°F25.3°C 76% 6.8 mph W10.9 kmh W 10.4 mph16.7 kmh 29.93 in1013.5 mb 0.00 in0.0 mm 0.00 in0.0 mm 0.00 in0.0 mm
05:56 PM 86.0°F30.0°C 77.5°F25.3°C 76% 8.3 mph W13.4 kmh W 9.4 mph15.1 kmh 29.93 in1013.5 mb 0.00 in0.0 mm 0.00 in0.0 mm 0.00 in0.0 mm
05:57 PM 86.0°F30.0°C 77.9°F25.5°C 77% 8.3 mph W13.4 kmh W 9.4 mph15.1 kmh 29.93 in1013.5 mb 0.00 in0.0 mm 0.00 in0.0 mm 0.00 in0.0 mm
05:58 PM 85.8°F29.9°C 77.8°F25.4°C 77% 7.8 mph W12.6 kmh W 9.4 mph15.1 kmh 29.93 in1013.5 mb 0.00 in0.0 mm 0.00 in0.0 mm 0.00 in0.0 mm
05:59 PM 85.8°F29.9°C 78.1°F25.6°C 78% 7.3 mph W11.7 kmh W 9.4 mph15.1 kmh 29.93 in1013.5 mb 0.00 in0.0 mm 0.00 in0.0 mm 0.00 in0.0 mm
06:00 PM 85.8°F29.9°C 77.8°F25.4°C 77% 8.9 mph WNW14.3 kmh WNW 9.4 mph15.1 kmh 29.93 in1013.5 mb 0.00 in0.0 mm 0.00 in0.0 mm 0.00 in0.0 mm
06:01 PM 85.8°F29.9°C 77.8°F25.4°C 77% 8.9 mph W14.3 kmh W 9.4 mph15.1 kmh 29.93 in1013.5 mb 0.00 in0.0 mm 0.00 in0.0 mm 0.00 in0.0 mm
06:02 PM 85.8°F29.9°C 77.8°F25.4°C 77% 8.9 mph W14.3 kmh W 10.4 mph16.7 kmh 29.93 in1013.5 mb 0.00 in0.0 mm 0.00 in0.0 mm 0.00 in0.0 mm
06:03 PM 85.8°F29.9°C 78.1°F25.6°C 78% 8.3 mph W13.4 kmh W 10.4 mph16.7 kmh 29.93 in1013.5 mb 0.00 in0.0 mm 0.00 in0.0 mm 0.00 in0.0 mm
06:04 PM 85.8°F29.9°C 77.8°F25.4°C 77% 7.3 mph W11.7 kmh W 10.4 mph16.7 kmh 29.93 in1013.5 mb 0.00 in0.0 mm 0.00 in0.0 mm 0.00 in0.0 mm
06:05 PM 85.8°F29.9°C 77.8°F25.4°C 77% 8.9 mph W14.3 kmh W 10.4 mph16.7 kmh 29.93 in1013.5 mb 0.00 in0.0 mm 0.00 in0.0 mm 0.00 in0.0 mm
06:06 PM 85.6°F29.8°C 77.2°F25.1°C 76% 8.3 mph W13.4 kmh W 10.4 mph16.7 kmh 29.93 in1013.5 mb 0.00 in0.0 mm 0.00 in0.0 mm 0.00 in0.0 mm
06:07 PM 85.6°F29.8°C 77.2°F25.1°C 76% 8.3 mph W13.4 kmh W 10.4 mph16.7 kmh 29.93 in1013.5 mb 0.00 in0.0 mm 0.00 in0.0 mm 0.00 in0.0 mm
06:08 PM 85.6°F29.8°C 77.2°F25.1°C 76% 8.3 mph W13.4 kmh W 10.4 mph16.7 kmh 29.93 in1013.5 mb 0.00 in0.0 mm 0.00 in0.0 mm 0.00 in0.0 mm
06:09 PM 85.6°F29.8°C 77.2°F25.1°C 76% 7.8 mph W12.6 kmh W 10.4 mph16.7 kmh 29.93 in1013.5 mb 0.00 in0.0 mm 0.00 in0.0 mm 0.00 in0.0 mm
06:10 PM 85.8°F29.9°C 78.1°F25.6°C 78% 6.8 mph W10.9 kmh W 10.4 mph16.7 kmh 29.93 in1013.5 mb 0.00 in0.0 mm 0.00 in0.0 mm 0.00 in0.0 mm
06:11 PM 85.8°F29.9°C 77.8°F25.4°C 77% 7.3 mph W11.7 kmh W 10.4 mph16.7 kmh 29.93 in1013.5 mb 0.00 in0.0 mm 0.00 in0.0 mm 0.00 in0.0 mm
06:12 PM 85.8°F29.9°C 78.1°F25.6°C 78% 4.7 mph W7.6 kmh W 9.4 mph15.1 kmh 29.93 in1013.5 mb 0.00 in0.0 mm 0.00 in0.0 mm 0.00 in0.0 mm
06:13 PM 85.8°F29.9°C 78.1°F25.6°C 78% 8.9 mph W14.3 kmh W 9.4 mph15.1 kmh 29.93 in1013.5 mb 0.00 in0.0 mm 0.00 in0.0 mm 0.00 in0.0 mm
06:14 PM 85.6°F29.8°C 77.6°F25.3°C 77% 7.8 mph W12.6 kmh W 9.4 mph15.1 kmh 29.93 in1013.5 mb 0.00 in0.0 mm 0.00 in0.0 mm 0.00 in0.0 mm
06:15 PM 85.6°F29.8°C 77.6°F25.3°C 77% 8.3 mph W13.4 kmh W 9.4 mph15.1 kmh 29.93 in1013.5 mb 0.00 in0.0 mm 0.00 in0.0 mm 0.00 in0.0 mm
06:16 PM 85.6°F29.8°C 78.0°F25.6°C 78% 5.8 mph W9.3 kmh W 9.4 mph15.1 kmh 29.93 in1013.5 mb 0.00 in0.0 mm 0.00 in0.0 mm 0.00 in0.0 mm
06:17 PM 85.6°F29.8°C 77.6°F25.3°C 77% 6.8 mph W10.9 kmh W 9.4 mph15.1 kmh 29.93 in1013.5 mb 0.00 in0.0 mm 0.00 in0.0 mm 0.00 in0.0 mm
06:18 PM 85.6°F29.8°C 78.0°F25.6°C 78% 5.8 mph W9.3 kmh W 9.4 mph15.1 kmh 29.93 in1013.5 mb 0.00 in0.0 mm 0.00 in0.0 mm 0.00 in0.0 mm
06:19 PM 85.6°F29.8°C 78.0°F25.6°C 78% 7.3 mph W11.7 kmh W 9.4 mph15.1 kmh 29.93 in1013.5 mb 0.00 in0.0 mm 0.00 in0.0 mm 0.00 in0.0 mm
06:20 PM 85.6°F29.8°C 78.0°F25.6°C 78% 7.3 mph W11.7 kmh W 9.4 mph15.1 kmh 29.93 in1013.5 mb 0.00 in0.0 mm 0.00 in0.0 mm 0.00 in0.0 mm
06:21 PM 85.6°F29.8°C 77.6°F25.3°C 77% 6.3 mph W10.1 kmh W 9.4 mph15.1 kmh 29.93 in1013.5 mb 0.00 in0.0 mm 0.00 in0.0 mm 0.00 in0.0 mm
06:22 PM 85.5°F29.7°C 77.4°F25.2°C 77% 5.3 mph W8.5 kmh W 9.4 mph15.1 kmh 29.93 in1013.5 mb 0.00 in0.0 mm 0.00 in0.0 mm 0.00 in0.0 mm
06:23 PM 85.5°F29.7°C 77.4°F25.2°C 77% 6.3 mph W10.1 kmh W 8.3 mph13.4 kmh 29.93 in1013.5 mb 0.00 in0.0 mm 0.00 in0.0 mm 0.00 in0.0 mm
06:24 PM 85.5°F29.7°C 77.8°F25.4°C 78% 6.8 mph W10.9 kmh W 8.3 mph13.4 kmh 29.93 in1013.5 mb 0.00 in0.0 mm 0.00 in0.0 mm 0.00 in0.0 mm
06:25 PM 85.5°F29.7°C 77.4°F25.2°C 77% 6.3 mph W10.1 kmh W 7.3 mph11.7 kmh 29.93 in1013.5 mb 0.00 in0.0 mm 0.00 in0.0 mm 0.00 in0.0 mm
06:26 PM 85.5°F29.7°C 77.4°F25.2°C 77% 5.8 mph W9.3 kmh W 7.3 mph11.7 kmh 29.93 in1013.5 mb 0.00 in0.0 mm 0.00 in0.0 mm 0.00 in0.0 mm
06:27 PM 85.5°F29.7°C 77.8°F25.4°C 78% 5.8 mph W9.3 kmh W 7.3 mph11.7 kmh 29.93 in1013.5 mb 0.00 in0.0 mm 0.00 in0.0 mm 0.00 in0.0 mm
06:28 PM 85.5°F29.7°C 77.8°F25.4°C 78% 4.7 mph W7.6 kmh W 7.3 mph11.7 kmh 29.93 in1013.5 mb 0.00 in0.0 mm 0.00 in0.0 mm 0.00 in0.0 mm
06:29 PM 85.5°F29.7°C 77.8°F25.4°C 78% 5.3 mph W8.5 kmh W 7.3 mph11.7 kmh 29.93 in1013.5 mb 0.00 in0.0 mm 0.00 in0.0 mm 0.00 in0.0 mm
06:30 PM 85.5°F29.7°C 77.4°F25.2°C 77% 6.3 mph W10.1 kmh W 6.8 mph10.9 kmh 29.93 in1013.5 mb 0.00 in0.0 mm 0.00 in0.0 mm 0.00 in0.0 mm
06:31 PM 85.5°F29.7°C 77.4°F25.2°C 77% 6.8 mph W10.9 kmh W 6.8 mph10.9 kmh 29.93 in1013.5 mb 0.00 in0.0 mm 0.00 in0.0 mm 0.00 in0.0 mm
06:32 PM 85.5°F29.7°C 77.4°F25.2°C 77% 5.8 mph W9.3 kmh W 7.3 mph11.7 kmh 29.93 in1013.5 mb 0.00 in0.0 mm 0.00 in0.0 mm 0.00 in0.0 mm
06:33 PM 85.5°F29.7°C 77.4°F25.2°C 77% 6.8 mph W10.9 kmh W 7.3 mph11.7 kmh 29.93 in1013.5 mb 0.00 in0.0 mm 0.00 in0.0 mm 0.00 in0.0 mm
06:34 PM 85.5°F29.7°C 77.4°F25.2°C 77% 5.8 mph W9.3 kmh W 7.3 mph11.7 kmh 29.93 in1013.5 mb 0.00 in0.0 mm 0.00 in0.0 mm 0.00 in0.0 mm
06:35 PM 85.5°F29.7°C 77.8°F25.4°C 78% 5.8 mph W9.3 kmh W 7.3 mph11.7 kmh 29.93 in1013.5 mb 0.00 in0.0 mm 0.00 in0.0 mm 0.00 in0.0 mm
06:36 PM 85.5°F29.7°C 77.8°F25.4°C 78% 6.8 mph W10.9 kmh W 7.3 mph11.7 kmh 29.93 in1013.5 mb 0.00 in0.0 mm 0.00 in0.0 mm 0.00 in0.0 mm
06:37 PM 85.5°F29.7°C 77.4°F25.2°C 77% 6.3 mph W10.1 kmh W 7.3 mph11.7 kmh 29.93 in1013.5 mb 0.00 in0.0 mm 0.00 in0.0 mm 0.00 in0.0 mm
06:38 PM 85.5°F29.7°C 77.4°F25.2°C 77% 5.8 mph W9.3 kmh W 7.3 mph11.7 kmh 29.94 in1013.9 mb 0.00 in0.0 mm 0.00 in0.0 mm 0.00 in0.0 mm
06:39 PM 85.5°F29.7°C 77.0°F25.0°C 76% 5.8 mph W9.3 kmh W 7.3 mph11.7 kmh 29.94 in1013.9 mb 0.00 in0.0 mm 0.00 in0.0 mm 0.00 in0.0 mm
06:40 PM 85.5°F29.7°C 77.4°F25.2°C 77% 4.7 mph W7.6 kmh W 7.3 mph11.7 kmh 29.94 in1013.9 mb 0.00 in0.0 mm 0.00 in0.0 mm 0.00 in0.0 mm
06:41 PM 85.5°F29.7°C 77.4°F25.2°C 77% 4.2 mph W6.8 kmh W 7.3 mph11.7 kmh 29.94 in1013.9 mb 0.00 in0.0 mm 0.00 in0.0 mm 0.00 in0.0 mm
06:42 PM 85.5°F29.7°C 77.4°F25.2°C 77% 6.3 mph W10.1 kmh W 6.8 mph10.9 kmh 29.94 in1013.9 mb 0.00 in0.0 mm 0.00 in0.0 mm 0.00 in0.0 mm
06:43 PM 85.5°F29.7°C 77.0°F25.0°C 76% 5.8 mph W9.3 kmh W 6.8 mph10.9 kmh 29.94 in1013.9 mb 0.00 in0.0 mm 0.00 in0.0 mm 0.00 in0.0 mm
06:44 PM 85.5°F29.7°C 77.0°F25.0°C 76% 3.7 mph W6.0 kmh W 6.8 mph10.9 kmh 29.94 in1013.9 mb 0.00 in0.0 mm 0.00 in0.0 mm 0.00 in0.0 mm
06:45 PM 85.5°F29.7°C 77.0°F25.0°C 76% 5.8 mph W9.3 kmh W 6.8 mph10.9 kmh 29.94 in1013.9 mb 0.00 in0.0 mm 0.00 in0.0 mm 0.00 in0.0 mm
06:46 PM 85.3°F29.6°C 76.8°F24.9°C 76% 6.3 mph W10.1 kmh W 6.8 mph10.9 kmh 29.94 in1013.9 mb 0.00 in0.0 mm 0.00 in0.0 mm 0.00 in0.0 mm
06:47 PM 85.3°F29.6°C 76.8°F24.9°C 76% 4.7 mph W7.6 kmh W 6.8 mph10.9 kmh 29.94 in1013.9 mb 0.00 in0.0 mm 0.00 in0.0 mm 0.00 in0.0 mm
06:48 PM 85.3°F29.6°C 77.2°F25.1°C 77% Calm Calm 6.8 mph10.9 kmh 29.94 in1013.9 mb 0.00 in0.0 mm 0.00 in0.0 mm 0.00 in0.0 mm
06:49 PM 85.3°F29.6°C 77.2°F25.1°C 77% 4.2 mph W6.8 kmh W 6.8 mph10.9 kmh 29.94 in1013.9 mb 0.00 in0.0 mm 0.00 in0.0 mm 0.00 in0.0 mm
06:50 PM 85.3°F29.6°C 77.2°F25.1°C 77% 4.7 mph W7.6 kmh W 6.8 mph10.9 kmh 29.94 in1013.9 mb 0.00 in0.0 mm 0.00 in0.0 mm 0.00 in0.0 mm
06:51 PM 85.3°F29.6°C 76.8°F24.9°C 76% 5.3 mph W8.5 kmh W 6.8 mph10.9 kmh 29.94 in1013.9 mb 0.00 in0.0 mm 0.00 in0.0 mm 0.00 in0.0 mm
06:52 PM 85.3°F29.6°C 76.8°F24.9°C 76% 4.2 mph W6.8 kmh W 6.8 mph10.9 kmh 29.94 in1013.9 mb 0.00 in0.0 mm 0.00 in0.0 mm 0.00 in0.0 mm
06:53 PM 85.3°F29.6°C 76.8°F24.9°C 76% 4.7 mph W7.6 kmh W 6.8 mph10.9 kmh 29.94 in1013.9 mb 0.00 in0.0 mm 0.00 in0.0 mm 0.00 in0.0 mm
06:54 PM 85.3°F29.6°C 76.8°F24.9°C 76% 4.7 mph W7.6 kmh W 6.8 mph10.9 kmh 29.94 in1013.9 mb 0.00 in0.0 mm 0.00 in0.0 mm 0.00 in0.0 mm
06:55 PM 85.3°F29.6°C 76.8°F24.9°C 76% 5.3 mph W8.5 kmh W 6.8 mph10.9 kmh 29.94 in1013.9 mb 0.00 in0.0 mm 0.00 in0.0 mm 0.00 in0.0 mm
06:56 PM 85.3°F29.6°C 76.8°F24.9°C 76% 5.8 mph W9.3 kmh W 6.8 mph10.9 kmh 29.94 in1013.9 mb 0.00 in0.0 mm 0.00 in0.0 mm 0.00 in0.0 mm
06:57 PM 85.3°F29.6°C 76.8°F24.9°C 76% 6.8 mph W10.9 kmh W 6.8 mph10.9 kmh 29.94 in1013.9 mb 0.00 in0.0 mm 0.00 in0.0 mm 0.00 in0.0 mm
06:58 PM 85.3°F29.6°C 76.4°F24.7°C 75% 5.8 mph W9.3 kmh W 6.8 mph10.9 kmh 29.94 in1013.9 mb 0.00 in0.0 mm 0.00 in0.0 mm 0.00 in0.0 mm
06:59 PM 85.3°F29.6°C 76.8°F24.9°C 76% 5.3 mph W8.5 kmh W 6.8 mph10.9 kmh 29.94 in1013.9 mb 0.00 in0.0 mm 0.00 in0.0 mm 0.00 in0.0 mm
07:00 PM 85.3°F29.6°C 76.8°F24.9°C 76% 4.7 mph W7.6 kmh W 6.8 mph10.9 kmh 29.94 in1013.9 mb 0.00 in0.0 mm 0.00 in0.0 mm 0.00 in0.0 mm
07:01 PM 85.3°F29.6°C 76.8°F24.9°C 76% 5.3 mph W8.5 kmh W 6.8 mph10.9 kmh 29.94 in1013.9 mb 0.00 in0.0 mm 0.00 in0.0 mm 0.00 in0.0 mm
07:02 PM 85.3°F29.6°C 76.8°F24.9°C 76% 5.8 mph W9.3 kmh W 6.8 mph10.9 kmh 29.94 in1013.9 mb 0.00 in0.0 mm 0.00 in0.0 mm 0.00 in0.0 mm
07:03 PM 85.3°F29.6°C 76.8°F24.9°C 76% 7.3 mph W11.7 kmh W 7.3 mph11.7 kmh 29.94 in1013.9 mb 0.00 in0.0 mm 0.00 in0.0 mm 0.00 in0.0 mm
07:04 PM 85.3°F29.6°C 76.4°F24.7°C 75% 6.8 mph W10.9 kmh W 7.3 mph11.7 kmh 29.94 in1013.9 mb 0.00 in0.0 mm 0.00 in0.0 mm 0.00 in0.0 mm
07:05 PM 85.3°F29.6°C 76.4°F24.7°C 75% 5.8 mph W9.3 kmh W 7.3 mph11.7 kmh 29.94 in1013.9 mb 0.00 in0.0 mm 0.00 in0.0 mm 0.00 in0.0 mm
07:06 PM 85.3°F29.6°C 76.4°F24.7°C 75% 7.8 mph W12.6 kmh W 7.8 mph12.6 kmh 29.94 in1013.9 mb 0.00 in0.0 mm 0.00 in0.0 mm 0.00 in0.0 mm
07:07 PM 85.3°F29.6°C 76.8°F24.9°C 76% 4.7 mph W7.6 kmh W 7.8 mph12.6 kmh 29.94 in1013.9 mb 0.00 in0.0 mm 0.00 in0.0 mm 0.00 in0.0 mm
07:08 PM 85.3°F29.6°C 76.8°F24.9°C 76% 5.3 mph W8.5 kmh W 7.8 mph12.6 kmh 29.94 in1013.9 mb 0.00 in0.0 mm 0.00 in0.0 mm 0.00 in0.0 mm
07:09 PM 85.3°F29.6°C 76.8°F24.9°C 76% 6.8 mph W10.9 kmh W 7.8 mph12.6 kmh 29.94 in1013.9 mb 0.00 in0.0 mm 0.00 in0.0 mm 0.00 in0.0 mm
07:10 PM 85.3°F29.6°C 76.8°F24.9°C 76% 6.3 mph W10.1 kmh W 7.8 mph12.6 kmh 29.94 in1013.9 mb 0.00 in0.0 mm 0.00 in0.0 mm 0.00 in0.0 mm
07:11 PM 85.3°F29.6°C 76.4°F24.7°C 75% 7.3 mph W11.7 kmh W 7.8 mph12.6 kmh 29.94 in1013.9 mb 0.00 in0.0 mm 0.00 in0.0 mm 0.00 in0.0 mm
07:12 PM 85.3°F29.6°C 76.4°F24.7°C 75% 7.3 mph W11.7 kmh W 7.8 mph12.6 kmh 29.94 in1013.9 mb 0.00 in0.0 mm 0.00 in0.0 mm 0.00 in0.0 mm
07:13 PM 85.3°F29.6°C 76.8°F24.9°C 76% 6.3 mph W10.1 kmh W 7.8 mph12.6 kmh 29.95 in1014.2 mb 0.00 in0.0 mm 0.00 in0.0 mm 0.00 in0.0 mm
07:14 PM 85.3°F29.6°C 77.2°F25.1°C 77% 6.8 mph W10.9 kmh W 7.8 mph12.6 kmh 29.95 in1014.2 mb 0.00 in0.0 mm 0.00 in0.0 mm 0.00 in0.0 mm
07:15 PM 85.3°F29.6°C 76.8°F24.9°C 76% 6.8 mph W10.9 kmh W 7.8 mph12.6 kmh 29.95 in1014.2 mb 0.00 in0.0 mm 0.00 in0.0 mm 0.00 in0.0 mm
07:16 PM 85.3°F29.6°C 76.8°F24.9°C 76% 7.3 mph W11.7 kmh W 7.8 mph12.6 kmh 29.95 in1014.2 mb 0.00 in0.0 mm 0.00 in0.0 mm 0.00 in0.0 mm
07:17 PM 85.3°F29.6°C 76.8°F24.9°C 76% 6.3 mph W10.1 kmh W 7.8 mph12.6 kmh 29.95 in1014.2 mb 0.00 in0.0 mm 0.00 in0.0 mm 0.00 in0.0 mm
07:18 PM 85.3°F29.6°C 77.2°F25.1°C 77% 6.8 mph W10.9 kmh W 7.8 mph12.6 kmh 29.95 in1014.2 mb 0.00 in0.0 mm 0.00 in0.0 mm 0.00 in0.0 mm
07:19 PM 85.3°F29.6°C 77.2°F25.1°C 77% 6.8 mph W10.9 kmh W 7.8 mph12.6 kmh 29.95 in1014.2 mb 0.00 in0.0 mm 0.00 in0.0 mm 0.00 in0.0 mm
07:20 PM 85.3°F29.6°C 77.2°F25.1°C 77% 5.3 mph W8.5 kmh W 7.8 mph12.6 kmh 29.95 in1014.2 mb 0.00 in0.0 mm 0.00 in0.0 mm 0.00 in0.0 mm
07:21 PM 85.3°F29.6°C 77.2°F25.1°C 77% 7.3 mph W11.7 kmh W 7.3 mph11.7 kmh 29.95 in1014.2 mb 0.00 in0.0 mm 0.00 in0.0 mm 0.00 in0.0 mm
07:22 PM 85.3°F29.6°C 77.6°F25.3°C 78% 4.7 mph W7.6 kmh W 7.3 mph11.7 kmh 29.95 in1014.2 mb 0.00 in0.0 mm 0.00 in0.0 mm 0.00 in0.0 mm
07:23 PM 85.3°F29.6°C 77.2°F25.1°C 77% 6.8 mph WNW10.9 kmh WNW 7.3 mph11.7 kmh 29.95 in1014.2 mb 0.00 in0.0 mm 0.00 in0.0 mm 0.00 in0.0 mm
07:24 PM 85.3°F29.6°C 76.8°F24.9°C 76% 6.3 mph W10.1 kmh W 7.3 mph11.7 kmh 29.95 in1014.2 mb 0.00 in0.0 mm 0.00 in0.0 mm 0.00 in0.0 mm
07:25 PM 85.3°F29.6°C 76.8°F24.9°C 76% 6.3 mph W10.1 kmh W 8.3 mph13.4 kmh 29.95 in1014.2 mb 0.00 in0.0 mm 0.00 in0.0 mm 0.00 in0.0 mm
07:26 PM 85.3°F29.6°C 76.8°F24.9°C 76% 6.8 mph W10.9 kmh W 8.3 mph13.4 kmh 29.95 in1014.2 mb 0.00 in0.0 mm 0.00 in0.0 mm 0.00 in0.0 mm
07:27 PM 85.3°F29.6°C 76.8°F24.9°C 76% 7.8 mph W12.6 kmh W 8.3 mph13.4 kmh 29.95 in1014.2 mb 0.00 in0.0 mm 0.00 in0.0 mm 0.00 in0.0 mm
07:28 PM 85.3°F29.6°C 77.2°F25.1°C 77% 5.8 mph W9.3 kmh W 8.3 mph13.4 kmh 29.95 in1014.2 mb 0.00 in0.0 mm 0.00 in0.0 mm 0.00 in0.0 mm
07:29 PM 85.3°F29.6°C 77.2°F25.1°C 77% 5.8 mph W9.3 kmh W 8.3 mph13.4 kmh 29.95 in1014.2 mb 0.00 in0.0 mm 0.00 in0.0 mm 0.00 in0.0 mm
07:30 PM 85.3°F29.6°C 77.2°F25.1°C 77% 6.8 mph W10.9 kmh W 8.3 mph13.4 kmh 29.95 in1014.2 mb 0.00 in0.0 mm 0.00 in0.0 mm 0.00 in0.0 mm
07:31 PM 85.3°F29.6°C 77.6°F25.3°C 78% 6.3 mph W10.1 kmh W 8.3 mph13.4 kmh 29.95 in1014.2 mb 0.00 in0.0 mm 0.00 in0.0 mm 0.00 in0.0 mm
07:32 PM 85.3°F29.6°C 77.2°F25.1°C 77% 6.8 mph W10.9 kmh W 8.3 mph13.4 kmh 29.95 in1014.2 mb 0.00 in0.0 mm 0.00 in0.0 mm 0.00 in0.0 mm
07:33 PM 85.1°F29.5°C 76.7°F24.8°C 76% 6.8 mph W10.9 kmh W 8.3 mph13.4 kmh 29.95 in1014.2 mb 0.00 in0.0 mm 0.00 in0.0 mm 0.00 in0.0 mm
07:34 PM 85.1°F29.5°C 76.7°F24.8°C 76% 6.3 mph W10.1 kmh W 8.3 mph13.4 kmh 29.95 in1014.2 mb 0.00 in0.0 mm 0.00 in0.0 mm 0.00 in0.0 mm
07:35 PM 85.1°F29.5°C 76.7°F24.8°C 76% 5.8 mph W9.3 kmh W 7.8 mph12.6 kmh 29.95 in1014.2 mb 0.00 in0.0 mm 0.00 in0.0 mm 0.00 in0.0 mm
07:36 PM 85.1°F29.5°C 77.1°F25.1°C 77% 5.3 mph W8.5 kmh W 7.8 mph12.6 kmh